<?xml version="1.0" encoding="UTF-8" standalone="no" ?>
<gpx xmlns="http://www.topografix.com/GPX/1/1" xmlns:xsi="http://www.w3.org/2001/XMLSchema-instance" xsi:schemaLocation="http://www.topografix.com/GPX/1/1 http://www.topografix.com/GPX/1/1/gpx.xsd" version="1.1" creator="VisuGPX - https://www.visugpx.com">
  <metadata>
    <name>Auffargis</name>
    <desc><![CDATA[Randonnée de 20km en boucle à partir du parking de l'église d'Auffargis]]></desc>
  </metadata>
  <trk>
    <name><![CDATA[Auffargis_R1]]></name>
    <trkseg>
      <trkpt lat="48.7024" lon="1.88521">
        <ele>142.89</ele>
        <time>2015-08-23T07:54:53Z</time>
      </trkpt>
      <trkpt lat="48.70247" lon="1.88526">
        <ele>142.89</ele>
        <time>2015-08-23T07:55:29Z</time>
      </trkpt>
      <trkpt lat="48.7025" lon="1.8853">
        <ele>142.89</ele>
        <time>2015-08-23T07:55:42Z</time>
      </trkpt>
      <trkpt lat="48.70258" lon="1.88532">
        <ele>142.41</ele>
        <time>2015-08-23T07:55:56Z</time>
      </trkpt>
      <trkpt lat="48.70277" lon="1.88534">
        <ele>141.93</ele>
        <time>2015-08-23T07:56:10Z</time>
      </trkpt>
      <trkpt lat="48.70287" lon="1.88533">
        <ele>140.97</ele>
        <time>2015-08-23T07:56:21Z</time>
      </trkpt>
      <trkpt lat="48.7029" lon="1.88534">
        <ele>140.97</ele>
        <time>2015-08-23T07:56:23Z</time>
      </trkpt>
      <trkpt lat="48.70298" lon="1.88535">
        <ele>140.01</ele>
        <time>2015-08-23T07:56:30Z</time>
      </trkpt>
      <trkpt lat="48.70301" lon="1.88535">
        <ele>140.01</ele>
        <time>2015-08-23T07:56:33Z</time>
      </trkpt>
      <trkpt lat="48.7032" lon="1.88536">
        <ele>139.05</ele>
        <time>2015-08-23T07:56:49Z</time>
      </trkpt>
      <trkpt lat="48.70336" lon="1.88536">
        <ele>138.09</ele>
        <time>2015-08-23T07:57:05Z</time>
      </trkpt>
      <trkpt lat="48.70356" lon="1.88535">
        <ele>137.13</ele>
        <time>2015-08-23T07:57:20Z</time>
      </trkpt>
      <trkpt lat="48.70375" lon="1.88537">
        <ele>136.64</ele>
        <time>2015-08-23T07:57:35Z</time>
      </trkpt>
      <trkpt lat="48.70393" lon="1.88538">
        <ele>136.64</ele>
        <time>2015-08-23T07:57:51Z</time>
      </trkpt>
      <trkpt lat="48.70398" lon="1.88546">
        <ele>136.16</ele>
        <time>2015-08-23T07:58:08Z</time>
      </trkpt>
      <trkpt lat="48.70401" lon="1.88565">
        <ele>133.76</ele>
        <time>2015-08-23T07:58:32Z</time>
      </trkpt>
      <trkpt lat="48.70394" lon="1.886">
        <ele>133.76</ele>
        <time>2015-08-23T07:58:54Z</time>
      </trkpt>
      <trkpt lat="48.70399" lon="1.88629">
        <ele>133.76</ele>
        <time>2015-08-23T07:59:15Z</time>
      </trkpt>
      <trkpt lat="48.704" lon="1.88653">
        <ele>134.24</ele>
        <time>2015-08-23T07:59:33Z</time>
      </trkpt>
      <trkpt lat="48.70396" lon="1.88689">
        <ele>134.72</ele>
        <time>2015-08-23T07:59:53Z</time>
      </trkpt>
      <trkpt lat="48.70396" lon="1.88728">
        <ele>135.2</ele>
        <time>2015-08-23T08:00:14Z</time>
      </trkpt>
      <trkpt lat="48.70398" lon="1.88762">
        <ele>135.2</ele>
        <time>2015-08-23T08:00:35Z</time>
      </trkpt>
      <trkpt lat="48.7039" lon="1.88788">
        <ele>134.72</ele>
        <time>2015-08-23T08:00:55Z</time>
      </trkpt>
      <trkpt lat="48.70374" lon="1.88825">
        <ele>134.24</ele>
        <time>2015-08-23T08:01:18Z</time>
      </trkpt>
      <trkpt lat="48.70364" lon="1.8884">
        <ele>133.76</ele>
        <time>2015-08-23T08:01:35Z</time>
      </trkpt>
      <trkpt lat="48.70348" lon="1.88861">
        <ele>133.28</ele>
        <time>2015-08-23T08:01:57Z</time>
      </trkpt>
      <trkpt lat="48.70328" lon="1.88875">
        <ele>132.32</ele>
        <time>2015-08-23T08:02:19Z</time>
      </trkpt>
      <trkpt lat="48.70314" lon="1.88899">
        <ele>132.32</ele>
        <time>2015-08-23T08:02:41Z</time>
      </trkpt>
      <trkpt lat="48.70305" lon="1.88925">
        <ele>132.32</ele>
        <time>2015-08-23T08:02:58Z</time>
      </trkpt>
      <trkpt lat="48.70291" lon="1.88949">
        <ele>131.36</ele>
        <time>2015-08-23T08:03:14Z</time>
      </trkpt>
      <trkpt lat="48.70278" lon="1.88969">
        <ele>131.84</ele>
        <time>2015-08-23T08:03:30Z</time>
      </trkpt>
      <trkpt lat="48.70266" lon="1.88991">
        <ele>131.36</ele>
        <time>2015-08-23T08:03:50Z</time>
      </trkpt>
      <trkpt lat="48.70251" lon="1.88987">
        <ele>131.84</ele>
        <time>2015-08-23T08:04:08Z</time>
      </trkpt>
      <trkpt lat="48.70244" lon="1.88977">
        <ele>130.4</ele>
        <time>2015-08-23T08:04:16Z</time>
      </trkpt>
      <trkpt lat="48.70243" lon="1.88977">
        <ele>135.2</ele>
        <time>2015-08-23T08:04:17Z</time>
      </trkpt>
      <trkpt lat="48.70242" lon="1.88976">
        <ele>132.8</ele>
        <time>2015-08-23T08:04:18Z</time>
      </trkpt>
      <trkpt lat="48.7024" lon="1.88975">
        <ele>131.84</ele>
        <time>2015-08-23T08:04:20Z</time>
      </trkpt>
      <trkpt lat="48.70235" lon="1.88987">
        <ele>132.32</ele>
        <time>2015-08-23T08:04:33Z</time>
      </trkpt>
      <trkpt lat="48.70225" lon="1.89012">
        <ele>132.32</ele>
        <time>2015-08-23T08:04:51Z</time>
      </trkpt>
      <trkpt lat="48.70224" lon="1.89028">
        <ele>131.84</ele>
        <time>2015-08-23T08:05:07Z</time>
      </trkpt>
      <trkpt lat="48.7022" lon="1.89029">
        <ele>131.84</ele>
        <time>2015-08-23T08:05:21Z</time>
      </trkpt>
      <trkpt lat="48.7022" lon="1.89024">
        <ele>131.84</ele>
        <time>2015-08-23T08:05:44Z</time>
      </trkpt>
      <trkpt lat="48.70225" lon="1.89025">
        <ele>131.84</ele>
        <time>2015-08-23T08:06:15Z</time>
      </trkpt>
      <trkpt lat="48.70221" lon="1.89029">
        <ele>131.84</ele>
        <time>2015-08-23T08:06:44Z</time>
      </trkpt>
      <trkpt lat="48.70217" lon="1.89026">
        <ele>132.32</ele>
        <time>2015-08-23T08:07:02Z</time>
      </trkpt>
      <trkpt lat="48.70219" lon="1.89019">
        <ele>132.32</ele>
        <time>2015-08-23T08:07:17Z</time>
      </trkpt>
      <trkpt lat="48.70216" lon="1.89016">
        <ele>132.32</ele>
        <time>2015-08-23T08:07:35Z</time>
      </trkpt>
      <trkpt lat="48.70216" lon="1.89025">
        <ele>132.8</ele>
        <time>2015-08-23T08:07:48Z</time>
      </trkpt>
      <trkpt lat="48.70213" lon="1.8903">
        <ele>132.8</ele>
        <time>2015-08-23T08:08:00Z</time>
      </trkpt>
      <trkpt lat="48.70208" lon="1.89038">
        <ele>132.8</ele>
        <time>2015-08-23T08:08:07Z</time>
      </trkpt>
      <trkpt lat="48.70209" lon="1.89062">
        <ele>132.32</ele>
        <time>2015-08-23T08:08:24Z</time>
      </trkpt>
      <trkpt lat="48.70208" lon="1.89077">
        <ele>132.8</ele>
        <time>2015-08-23T08:08:38Z</time>
      </trkpt>
      <trkpt lat="48.70199" lon="1.89105">
        <ele>132.32</ele>
        <time>2015-08-23T08:08:55Z</time>
      </trkpt>
      <trkpt lat="48.70199" lon="1.89108">
        <ele>132.8</ele>
        <time>2015-08-23T08:08:57Z</time>
      </trkpt>
      <trkpt lat="48.70192" lon="1.89134">
        <ele>133.28</ele>
        <time>2015-08-23T08:09:14Z</time>
      </trkpt>
      <trkpt lat="48.70193" lon="1.89149">
        <ele>132.8</ele>
        <time>2015-08-23T08:09:26Z</time>
      </trkpt>
      <trkpt lat="48.70187" lon="1.89173">
        <ele>132.8</ele>
        <time>2015-08-23T08:09:41Z</time>
      </trkpt>
      <trkpt lat="48.70184" lon="1.89194">
        <ele>132.8</ele>
        <time>2015-08-23T08:09:58Z</time>
      </trkpt>
      <trkpt lat="48.70186" lon="1.89199">
        <ele>132.8</ele>
        <time>2015-08-23T08:10:06Z</time>
      </trkpt>
      <trkpt lat="48.70198" lon="1.89212">
        <ele>131.84</ele>
        <time>2015-08-23T08:10:19Z</time>
      </trkpt>
      <trkpt lat="48.7021" lon="1.89228">
        <ele>130.88</ele>
        <time>2015-08-23T08:10:37Z</time>
      </trkpt>
      <trkpt lat="48.70218" lon="1.89237">
        <ele>130.88</ele>
        <time>2015-08-23T08:10:46Z</time>
      </trkpt>
      <trkpt lat="48.70223" lon="1.89244">
        <ele>131.36</ele>
        <time>2015-08-23T08:10:51Z</time>
      </trkpt>
      <trkpt lat="48.70226" lon="1.89248">
        <ele>130.88</ele>
        <time>2015-08-23T08:10:54Z</time>
      </trkpt>
      <trkpt lat="48.70229" lon="1.89252">
        <ele>130.4</ele>
        <time>2015-08-23T08:10:58Z</time>
      </trkpt>
      <trkpt lat="48.70231" lon="1.89254">
        <ele>130.4</ele>
        <time>2015-08-23T08:11:00Z</time>
      </trkpt>
      <trkpt lat="48.70233" lon="1.89256">
        <ele>130.4</ele>
        <time>2015-08-23T08:11:02Z</time>
      </trkpt>
      <trkpt lat="48.70244" lon="1.89277">
        <ele>130.4</ele>
        <time>2015-08-23T08:11:20Z</time>
      </trkpt>
      <trkpt lat="48.70245" lon="1.89278">
        <ele>129.92</ele>
        <time>2015-08-23T08:11:21Z</time>
      </trkpt>
      <trkpt lat="48.70259" lon="1.89297">
        <ele>130.4</ele>
        <time>2015-08-23T08:11:39Z</time>
      </trkpt>
      <trkpt lat="48.70272" lon="1.89318">
        <ele>130.4</ele>
        <time>2015-08-23T08:11:56Z</time>
      </trkpt>
      <trkpt lat="48.70286" lon="1.89343">
        <ele>130.88</ele>
        <time>2015-08-23T08:12:13Z</time>
      </trkpt>
      <trkpt lat="48.70291" lon="1.89351">
        <ele>130.88</ele>
        <time>2015-08-23T08:12:18Z</time>
      </trkpt>
      <trkpt lat="48.70292" lon="1.89357">
        <ele>131.36</ele>
        <time>2015-08-23T08:12:22Z</time>
      </trkpt>
      <trkpt lat="48.70293" lon="1.89362">
        <ele>130.88</ele>
        <time>2015-08-23T08:12:25Z</time>
      </trkpt>
      <trkpt lat="48.70294" lon="1.8938">
        <ele>131.36</ele>
        <time>2015-08-23T08:12:36Z</time>
      </trkpt>
      <trkpt lat="48.70295" lon="1.8939">
        <ele>131.36</ele>
        <time>2015-08-23T08:12:41Z</time>
      </trkpt>
      <trkpt lat="48.70297" lon="1.894">
        <ele>131.84</ele>
        <time>2015-08-23T08:12:48Z</time>
      </trkpt>
      <trkpt lat="48.70299" lon="1.89412">
        <ele>131.36</ele>
        <time>2015-08-23T08:12:56Z</time>
      </trkpt>
      <trkpt lat="48.70305" lon="1.89434">
        <ele>131.36</ele>
        <time>2015-08-23T08:13:10Z</time>
      </trkpt>
      <trkpt lat="48.70313" lon="1.89444">
        <ele>130.88</ele>
        <time>2015-08-23T08:13:23Z</time>
      </trkpt>
      <trkpt lat="48.70329" lon="1.89469">
        <ele>130.88</ele>
        <time>2015-08-23T08:13:40Z</time>
      </trkpt>
      <trkpt lat="48.70338" lon="1.89501">
        <ele>131.36</ele>
        <time>2015-08-23T08:13:58Z</time>
      </trkpt>
      <trkpt lat="48.70334" lon="1.89525">
        <ele>131.84</ele>
        <time>2015-08-23T08:14:16Z</time>
      </trkpt>
      <trkpt lat="48.70323" lon="1.89548">
        <ele>131.36</ele>
        <time>2015-08-23T08:14:34Z</time>
      </trkpt>
      <trkpt lat="48.70302" lon="1.89567">
        <ele>130.4</ele>
        <time>2015-08-23T08:14:55Z</time>
      </trkpt>
      <trkpt lat="48.70281" lon="1.89576">
        <ele>130.88</ele>
        <time>2015-08-23T08:15:13Z</time>
      </trkpt>
      <trkpt lat="48.70266" lon="1.89594">
        <ele>131.36</ele>
        <time>2015-08-23T08:15:31Z</time>
      </trkpt>
      <trkpt lat="48.70252" lon="1.89615">
        <ele>130.88</ele>
        <time>2015-08-23T08:15:48Z</time>
      </trkpt>
      <trkpt lat="48.70236" lon="1.89639">
        <ele>130.4</ele>
        <time>2015-08-23T08:16:05Z</time>
      </trkpt>
      <trkpt lat="48.70223" lon="1.89661">
        <ele>130.88</ele>
        <time>2015-08-23T08:16:24Z</time>
      </trkpt>
      <trkpt lat="48.70209" lon="1.89685">
        <ele>130.88</ele>
        <time>2015-08-23T08:16:43Z</time>
      </trkpt>
      <trkpt lat="48.70194" lon="1.89709">
        <ele>131.36</ele>
        <time>2015-08-23T08:17:02Z</time>
      </trkpt>
      <trkpt lat="48.70177" lon="1.89726">
        <ele>131.84</ele>
        <time>2015-08-23T08:17:19Z</time>
      </trkpt>
      <trkpt lat="48.70175" lon="1.89725">
        <ele>131.84</ele>
        <time>2015-08-23T08:17:35Z</time>
      </trkpt>
      <trkpt lat="48.70178" lon="1.89729">
        <ele>131.84</ele>
        <time>2015-08-23T08:17:55Z</time>
      </trkpt>
      <trkpt lat="48.70177" lon="1.89726">
        <ele>132.32</ele>
        <time>2015-08-23T08:18:14Z</time>
      </trkpt>
      <trkpt lat="48.70174" lon="1.8973">
        <ele>132.32</ele>
        <time>2015-08-23T08:18:40Z</time>
      </trkpt>
      <trkpt lat="48.70171" lon="1.89738">
        <ele>132.32</ele>
        <time>2015-08-23T08:19:00Z</time>
      </trkpt>
      <trkpt lat="48.70173" lon="1.89738">
        <ele>132.8</ele>
        <time>2015-08-23T08:19:19Z</time>
      </trkpt>
      <trkpt lat="48.70179" lon="1.89734">
        <ele>132.8</ele>
        <time>2015-08-23T08:19:51Z</time>
      </trkpt>
      <trkpt lat="48.70175" lon="1.89718">
        <ele>133.28</ele>
        <time>2015-08-23T08:20:19Z</time>
      </trkpt>
      <trkpt lat="48.70176" lon="1.8973">
        <ele>133.28</ele>
        <time>2015-08-23T08:20:37Z</time>
      </trkpt>
      <trkpt lat="48.70156" lon="1.89734">
        <ele>132.8</ele>
        <time>2015-08-23T08:20:54Z</time>
      </trkpt>
      <trkpt lat="48.70155" lon="1.89734">
        <ele>132.8</ele>
        <time>2015-08-23T08:20:56Z</time>
      </trkpt>
      <trkpt lat="48.70134" lon="1.89732">
        <ele>132.8</ele>
        <time>2015-08-23T08:21:16Z</time>
      </trkpt>
      <trkpt lat="48.70105" lon="1.89747">
        <ele>132.32</ele>
        <time>2015-08-23T08:21:38Z</time>
      </trkpt>
      <trkpt lat="48.70103" lon="1.89758">
        <ele>132.32</ele>
        <time>2015-08-23T08:21:41Z</time>
      </trkpt>
      <trkpt lat="48.70098" lon="1.89779">
        <ele>131.84</ele>
        <time>2015-08-23T08:21:56Z</time>
      </trkpt>
      <trkpt lat="48.70092" lon="1.89803">
        <ele>131.36</ele>
        <time>2015-08-23T08:22:11Z</time>
      </trkpt>
      <trkpt lat="48.70092" lon="1.89823">
        <ele>130.88</ele>
        <time>2015-08-23T08:22:29Z</time>
      </trkpt>
      <trkpt lat="48.70081" lon="1.8985">
        <ele>131.36</ele>
        <time>2015-08-23T08:22:47Z</time>
      </trkpt>
      <trkpt lat="48.70068" lon="1.89862">
        <ele>130.88</ele>
        <time>2015-08-23T08:23:01Z</time>
      </trkpt>
      <trkpt lat="48.7005" lon="1.89874">
        <ele>130.88</ele>
        <time>2015-08-23T08:23:18Z</time>
      </trkpt>
      <trkpt lat="48.7003" lon="1.89881">
        <ele>130.4</ele>
        <time>2015-08-23T08:23:34Z</time>
      </trkpt>
      <trkpt lat="48.70025" lon="1.89883">
        <ele>130.88</ele>
        <time>2015-08-23T08:23:39Z</time>
      </trkpt>
      <trkpt lat="48.70012" lon="1.89897">
        <ele>131.36</ele>
        <time>2015-08-23T08:23:56Z</time>
      </trkpt>
      <trkpt lat="48.7001" lon="1.89926">
        <ele>130.4</ele>
        <time>2015-08-23T08:24:13Z</time>
      </trkpt>
      <trkpt lat="48.70008" lon="1.89959">
        <ele>130.4</ele>
        <time>2015-08-23T08:24:33Z</time>
      </trkpt>
      <trkpt lat="48.70005" lon="1.89987">
        <ele>130.4</ele>
        <time>2015-08-23T08:24:49Z</time>
      </trkpt>
      <trkpt lat="48.70001" lon="1.90014">
        <ele>130.4</ele>
        <time>2015-08-23T08:25:07Z</time>
      </trkpt>
      <trkpt lat="48.70002" lon="1.90036">
        <ele>129.92</ele>
        <time>2015-08-23T08:25:24Z</time>
      </trkpt>
      <trkpt lat="48.70004" lon="1.9005">
        <ele>129.92</ele>
        <time>2015-08-23T08:25:30Z</time>
      </trkpt>
      <trkpt lat="48.70008" lon="1.90077">
        <ele>129.92</ele>
        <time>2015-08-23T08:25:46Z</time>
      </trkpt>
      <trkpt lat="48.7001" lon="1.901">
        <ele>129.43</ele>
        <time>2015-08-23T08:26:01Z</time>
      </trkpt>
      <trkpt lat="48.70011" lon="1.90126">
        <ele>128.95</ele>
        <time>2015-08-23T08:26:19Z</time>
      </trkpt>
      <trkpt lat="48.7001" lon="1.90155">
        <ele>128.95</ele>
        <time>2015-08-23T08:26:37Z</time>
      </trkpt>
      <trkpt lat="48.70012" lon="1.90181">
        <ele>128.95</ele>
        <time>2015-08-23T08:26:52Z</time>
      </trkpt>
      <trkpt lat="48.70004" lon="1.90214">
        <ele>128.95</ele>
        <time>2015-08-23T08:27:10Z</time>
      </trkpt>
      <trkpt lat="48.70001" lon="1.90241">
        <ele>129.43</ele>
        <time>2015-08-23T08:27:28Z</time>
      </trkpt>
      <trkpt lat="48.70001" lon="1.90261">
        <ele>129.92</ele>
        <time>2015-08-23T08:27:41Z</time>
      </trkpt>
      <trkpt lat="48.69998" lon="1.90296">
        <ele>129.43</ele>
        <time>2015-08-23T08:27:59Z</time>
      </trkpt>
      <trkpt lat="48.70001" lon="1.90327">
        <ele>129.43</ele>
        <time>2015-08-23T08:28:17Z</time>
      </trkpt>
      <trkpt lat="48.70003" lon="1.90356">
        <ele>129.92</ele>
        <time>2015-08-23T08:28:33Z</time>
      </trkpt>
      <trkpt lat="48.7001" lon="1.90385">
        <ele>129.92</ele>
        <time>2015-08-23T08:28:51Z</time>
      </trkpt>
      <trkpt lat="48.70019" lon="1.90414">
        <ele>130.4</ele>
        <time>2015-08-23T08:29:10Z</time>
      </trkpt>
      <trkpt lat="48.70025" lon="1.90441">
        <ele>130.4</ele>
        <time>2015-08-23T08:29:27Z</time>
      </trkpt>
      <trkpt lat="48.70024" lon="1.90462">
        <ele>129.92</ele>
        <time>2015-08-23T08:29:38Z</time>
      </trkpt>
      <trkpt lat="48.70026" lon="1.9049">
        <ele>128.47</ele>
        <time>2015-08-23T08:29:55Z</time>
      </trkpt>
      <trkpt lat="48.70034" lon="1.90512">
        <ele>127.99</ele>
        <time>2015-08-23T08:30:10Z</time>
      </trkpt>
      <trkpt lat="48.70038" lon="1.9054">
        <ele>127.99</ele>
        <time>2015-08-23T08:30:24Z</time>
      </trkpt>
      <trkpt lat="48.70038" lon="1.90557">
        <ele>127.51</ele>
        <time>2015-08-23T08:30:37Z</time>
      </trkpt>
      <trkpt lat="48.70047" lon="1.90584">
        <ele>128.47</ele>
        <time>2015-08-23T08:30:55Z</time>
      </trkpt>
      <trkpt lat="48.70059" lon="1.90609">
        <ele>127.51</ele>
        <time>2015-08-23T08:31:13Z</time>
      </trkpt>
      <trkpt lat="48.70068" lon="1.90639">
        <ele>127.51</ele>
        <time>2015-08-23T08:31:33Z</time>
      </trkpt>
      <trkpt lat="48.7007" lon="1.90672">
        <ele>128.95</ele>
        <time>2015-08-23T08:31:55Z</time>
      </trkpt>
      <trkpt lat="48.70054" lon="1.90692">
        <ele>127.03</ele>
        <time>2015-08-23T08:32:15Z</time>
      </trkpt>
      <trkpt lat="48.70037" lon="1.907">
        <ele>126.55</ele>
        <time>2015-08-23T08:32:31Z</time>
      </trkpt>
      <trkpt lat="48.70029" lon="1.90724">
        <ele>126.07</ele>
        <time>2015-08-23T08:32:49Z</time>
      </trkpt>
      <trkpt lat="48.70018" lon="1.90741">
        <ele>126.55</ele>
        <time>2015-08-23T08:33:06Z</time>
      </trkpt>
      <trkpt lat="48.70005" lon="1.90765">
        <ele>127.03</ele>
        <time>2015-08-23T08:33:21Z</time>
      </trkpt>
      <trkpt lat="48.69993" lon="1.90791">
        <ele>127.03</ele>
        <time>2015-08-23T08:33:39Z</time>
      </trkpt>
      <trkpt lat="48.69979" lon="1.90825">
        <ele>127.51</ele>
        <time>2015-08-23T08:34:02Z</time>
      </trkpt>
      <trkpt lat="48.69969" lon="1.9085">
        <ele>127.99</ele>
        <time>2015-08-23T08:34:19Z</time>
      </trkpt>
      <trkpt lat="48.6996" lon="1.90875">
        <ele>127.99</ele>
        <time>2015-08-23T08:34:35Z</time>
      </trkpt>
      <trkpt lat="48.69955" lon="1.90904">
        <ele>130.4</ele>
        <time>2015-08-23T08:34:54Z</time>
      </trkpt>
      <trkpt lat="48.69952" lon="1.90934">
        <ele>131.36</ele>
        <time>2015-08-23T08:35:11Z</time>
      </trkpt>
      <trkpt lat="48.6995" lon="1.90949">
        <ele>131.84</ele>
        <time>2015-08-23T08:35:30Z</time>
      </trkpt>
      <trkpt lat="48.69945" lon="1.90987">
        <ele>130.88</ele>
        <time>2015-08-23T08:35:48Z</time>
      </trkpt>
      <trkpt lat="48.6994" lon="1.91014">
        <ele>129.92</ele>
        <time>2015-08-23T08:36:03Z</time>
      </trkpt>
      <trkpt lat="48.69939" lon="1.91033">
        <ele>129.43</ele>
        <time>2015-08-23T08:36:17Z</time>
      </trkpt>
      <trkpt lat="48.69939" lon="1.91049">
        <ele>127.99</ele>
        <time>2015-08-23T08:36:37Z</time>
      </trkpt>
      <trkpt lat="48.6994" lon="1.91068">
        <ele>126.55</ele>
        <time>2015-08-23T08:36:52Z</time>
      </trkpt>
      <trkpt lat="48.69932" lon="1.91095">
        <ele>125.11</ele>
        <time>2015-08-23T08:37:09Z</time>
      </trkpt>
      <trkpt lat="48.69925" lon="1.91123">
        <ele>125.11</ele>
        <time>2015-08-23T08:37:27Z</time>
      </trkpt>
      <trkpt lat="48.69932" lon="1.91147">
        <ele>124.15</ele>
        <time>2015-08-23T08:37:44Z</time>
      </trkpt>
      <trkpt lat="48.69928" lon="1.91175">
        <ele>124.15</ele>
        <time>2015-08-23T08:38:04Z</time>
      </trkpt>
      <trkpt lat="48.69921" lon="1.91206">
        <ele>123.19</ele>
        <time>2015-08-23T08:38:25Z</time>
      </trkpt>
      <trkpt lat="48.6992" lon="1.91208">
        <ele>122.71</ele>
        <time>2015-08-23T08:38:28Z</time>
      </trkpt>
      <trkpt lat="48.69903" lon="1.91228">
        <ele>123.19</ele>
        <time>2015-08-23T08:38:45Z</time>
      </trkpt>
      <trkpt lat="48.69892" lon="1.91232">
        <ele>123.67</ele>
        <time>2015-08-23T08:39:01Z</time>
      </trkpt>
      <trkpt lat="48.69883" lon="1.91242">
        <ele>122.71</ele>
        <time>2015-08-23T08:39:14Z</time>
      </trkpt>
      <trkpt lat="48.69878" lon="1.9127">
        <ele>123.19</ele>
        <time>2015-08-23T08:39:30Z</time>
      </trkpt>
      <trkpt lat="48.69877" lon="1.91294">
        <ele>122.71</ele>
        <time>2015-08-23T08:39:44Z</time>
      </trkpt>
      <trkpt lat="48.69876" lon="1.91307">
        <ele>123.19</ele>
        <time>2015-08-23T08:40:00Z</time>
      </trkpt>
      <trkpt lat="48.69878" lon="1.91303">
        <ele>123.19</ele>
        <time>2015-08-23T08:40:21Z</time>
      </trkpt>
      <trkpt lat="48.69881" lon="1.91301">
        <ele>123.19</ele>
        <time>2015-08-23T08:40:47Z</time>
      </trkpt>
      <trkpt lat="48.6988" lon="1.913">
        <ele>123.19</ele>
        <time>2015-08-23T08:41:12Z</time>
      </trkpt>
      <trkpt lat="48.69876" lon="1.91299">
        <ele>122.71</ele>
        <time>2015-08-23T08:41:39Z</time>
      </trkpt>
      <trkpt lat="48.6988" lon="1.91303">
        <ele>123.67</ele>
        <time>2015-08-23T08:41:58Z</time>
      </trkpt>
      <trkpt lat="48.69881" lon="1.91305">
        <ele>123.67</ele>
        <time>2015-08-23T08:42:26Z</time>
      </trkpt>
      <trkpt lat="48.69878" lon="1.91304">
        <ele>124.15</ele>
        <time>2015-08-23T08:42:49Z</time>
      </trkpt>
      <trkpt lat="48.69881" lon="1.91309">
        <ele>124.15</ele>
        <time>2015-08-23T08:43:06Z</time>
      </trkpt>
      <trkpt lat="48.69888" lon="1.91296">
        <ele>124.15</ele>
        <time>2015-08-23T08:43:28Z</time>
      </trkpt>
      <trkpt lat="48.69881" lon="1.91301">
        <ele>124.15</ele>
        <time>2015-08-23T08:43:55Z</time>
      </trkpt>
      <trkpt lat="48.69886" lon="1.91301">
        <ele>125.11</ele>
        <time>2015-08-23T08:44:16Z</time>
      </trkpt>
      <trkpt lat="48.69897" lon="1.91301">
        <ele>127.99</ele>
        <time>2015-08-23T08:44:29Z</time>
      </trkpt>
      <trkpt lat="48.69905" lon="1.91305">
        <ele>130.88</ele>
        <time>2015-08-23T08:44:45Z</time>
      </trkpt>
      <trkpt lat="48.6991" lon="1.91309">
        <ele>133.76</ele>
        <time>2015-08-23T08:45:00Z</time>
      </trkpt>
      <trkpt lat="48.69915" lon="1.91309">
        <ele>136.64</ele>
        <time>2015-08-23T08:45:12Z</time>
      </trkpt>
      <trkpt lat="48.69922" lon="1.91307">
        <ele>139.53</ele>
        <time>2015-08-23T08:45:27Z</time>
      </trkpt>
      <trkpt lat="48.69927" lon="1.91304">
        <ele>141.45</ele>
        <time>2015-08-23T08:45:43Z</time>
      </trkpt>
      <trkpt lat="48.69936" lon="1.91299">
        <ele>143.85</ele>
        <time>2015-08-23T08:45:59Z</time>
      </trkpt>
      <trkpt lat="48.69941" lon="1.91303">
        <ele>146.74</ele>
        <time>2015-08-23T08:46:12Z</time>
      </trkpt>
      <trkpt lat="48.69948" lon="1.91311">
        <ele>148.18</ele>
        <time>2015-08-23T08:46:27Z</time>
      </trkpt>
      <trkpt lat="48.69956" lon="1.91309">
        <ele>151.54</ele>
        <time>2015-08-23T08:46:43Z</time>
      </trkpt>
      <trkpt lat="48.6996" lon="1.9131">
        <ele>153.95</ele>
        <time>2015-08-23T08:46:57Z</time>
      </trkpt>
      <trkpt lat="48.69961" lon="1.91311">
        <ele>155.39</ele>
        <time>2015-08-23T08:47:04Z</time>
      </trkpt>
      <trkpt lat="48.69967" lon="1.91314">
        <ele>157.79</ele>
        <time>2015-08-23T08:47:18Z</time>
      </trkpt>
      <trkpt lat="48.69977" lon="1.91315">
        <ele>161.16</ele>
        <time>2015-08-23T08:47:34Z</time>
      </trkpt>
      <trkpt lat="48.69976" lon="1.91315">
        <ele>161.16</ele>
        <time>2015-08-23T08:47:54Z</time>
      </trkpt>
      <trkpt lat="48.69982" lon="1.91324">
        <ele>163.56</ele>
        <time>2015-08-23T08:48:20Z</time>
      </trkpt>
      <trkpt lat="48.69989" lon="1.91333">
        <ele>166.45</ele>
        <time>2015-08-23T08:48:35Z</time>
      </trkpt>
      <trkpt lat="48.69989" lon="1.91341">
        <ele>166.45</ele>
        <time>2015-08-23T08:48:50Z</time>
      </trkpt>
      <trkpt lat="48.69987" lon="1.91328">
        <ele>166.93</ele>
        <time>2015-08-23T08:49:07Z</time>
      </trkpt>
      <trkpt lat="48.69986" lon="1.91332">
        <ele>166.93</ele>
        <time>2015-08-23T08:49:34Z</time>
      </trkpt>
      <trkpt lat="48.69988" lon="1.91332">
        <ele>166.93</ele>
        <time>2015-08-23T08:49:59Z</time>
      </trkpt>
      <trkpt lat="48.69984" lon="1.91342">
        <ele>166.45</ele>
        <time>2015-08-23T08:50:30Z</time>
      </trkpt>
      <trkpt lat="48.69985" lon="1.91366">
        <ele>165.48</ele>
        <time>2015-08-23T08:50:48Z</time>
      </trkpt>
      <trkpt lat="48.69988" lon="1.91383">
        <ele>165.96</ele>
        <time>2015-08-23T08:51:02Z</time>
      </trkpt>
      <trkpt lat="48.69985" lon="1.91404">
        <ele>165</ele>
        <time>2015-08-23T08:51:16Z</time>
      </trkpt>
      <trkpt lat="48.69991" lon="1.9142">
        <ele>166.93</ele>
        <time>2015-08-23T08:51:33Z</time>
      </trkpt>
      <trkpt lat="48.69992" lon="1.91437">
        <ele>166.93</ele>
        <time>2015-08-23T08:51:47Z</time>
      </trkpt>
      <trkpt lat="48.69988" lon="1.91458">
        <ele>165.96</ele>
        <time>2015-08-23T08:52:02Z</time>
      </trkpt>
      <trkpt lat="48.6999" lon="1.9148">
        <ele>166.45</ele>
        <time>2015-08-23T08:52:17Z</time>
      </trkpt>
      <trkpt lat="48.69987" lon="1.91498">
        <ele>166.93</ele>
        <time>2015-08-23T08:52:32Z</time>
      </trkpt>
      <trkpt lat="48.69992" lon="1.91493">
        <ele>167.41</ele>
        <time>2015-08-23T08:52:43Z</time>
      </trkpt>
      <trkpt lat="48.70002" lon="1.91504">
        <ele>168.37</ele>
        <time>2015-08-23T08:52:58Z</time>
      </trkpt>
      <trkpt lat="48.70009" lon="1.91519">
        <ele>169.33</ele>
        <time>2015-08-23T08:53:13Z</time>
      </trkpt>
      <trkpt lat="48.70006" lon="1.91523">
        <ele>169.33</ele>
        <time>2015-08-23T08:53:38Z</time>
      </trkpt>
      <trkpt lat="48.70002" lon="1.91555">
        <ele>168.85</ele>
        <time>2015-08-23T08:53:57Z</time>
      </trkpt>
      <trkpt lat="48.69992" lon="1.91577">
        <ele>168.85</ele>
        <time>2015-08-23T08:54:13Z</time>
      </trkpt>
      <trkpt lat="48.69984" lon="1.916">
        <ele>168.37</ele>
        <time>2015-08-23T08:54:31Z</time>
      </trkpt>
      <trkpt lat="48.69976" lon="1.91619">
        <ele>167.89</ele>
        <time>2015-08-23T08:54:46Z</time>
      </trkpt>
      <trkpt lat="48.69971" lon="1.91644">
        <ele>166.93</ele>
        <time>2015-08-23T08:55:04Z</time>
      </trkpt>
      <trkpt lat="48.69963" lon="1.91671">
        <ele>167.41</ele>
        <time>2015-08-23T08:55:20Z</time>
      </trkpt>
      <trkpt lat="48.69957" lon="1.91689">
        <ele>167.41</ele>
        <time>2015-08-23T08:55:34Z</time>
      </trkpt>
      <trkpt lat="48.69947" lon="1.91718">
        <ele>167.89</ele>
        <time>2015-08-23T08:55:55Z</time>
      </trkpt>
      <trkpt lat="48.69943" lon="1.91728">
        <ele>168.37</ele>
        <time>2015-08-23T08:56:02Z</time>
      </trkpt>
      <trkpt lat="48.69934" lon="1.91757">
        <ele>168.85</ele>
        <time>2015-08-23T08:56:20Z</time>
      </trkpt>
      <trkpt lat="48.69934" lon="1.9177">
        <ele>169.33</ele>
        <time>2015-08-23T08:56:33Z</time>
      </trkpt>
      <trkpt lat="48.69935" lon="1.91776">
        <ele>169.81</ele>
        <time>2015-08-23T08:56:37Z</time>
      </trkpt>
      <trkpt lat="48.69935" lon="1.91778">
        <ele>169.33</ele>
        <time>2015-08-23T08:56:45Z</time>
      </trkpt>
      <trkpt lat="48.69931" lon="1.91755">
        <ele>168.85</ele>
        <time>2015-08-23T08:57:00Z</time>
      </trkpt>
      <trkpt lat="48.69929" lon="1.91748">
        <ele>168.85</ele>
        <time>2015-08-23T08:57:05Z</time>
      </trkpt>
      <trkpt lat="48.69923" lon="1.91747">
        <ele>168.85</ele>
        <time>2015-08-23T08:57:20Z</time>
      </trkpt>
      <trkpt lat="48.69909" lon="1.91763">
        <ele>168.85</ele>
        <time>2015-08-23T08:57:43Z</time>
      </trkpt>
      <trkpt lat="48.69889" lon="1.9177">
        <ele>168.85</ele>
        <time>2015-08-23T08:58:00Z</time>
      </trkpt>
      <trkpt lat="48.69877" lon="1.91777">
        <ele>168.85</ele>
        <time>2015-08-23T08:58:12Z</time>
      </trkpt>
      <trkpt lat="48.69862" lon="1.91776">
        <ele>168.85</ele>
        <time>2015-08-23T08:58:28Z</time>
      </trkpt>
      <trkpt lat="48.69861" lon="1.91771">
        <ele>168.85</ele>
        <time>2015-08-23T08:58:43Z</time>
      </trkpt>
      <trkpt lat="48.69847" lon="1.91768">
        <ele>169.81</ele>
        <time>2015-08-23T08:58:58Z</time>
      </trkpt>
      <trkpt lat="48.69835" lon="1.91761">
        <ele>169.81</ele>
        <time>2015-08-23T08:59:18Z</time>
      </trkpt>
      <trkpt lat="48.69809" lon="1.91751">
        <ele>168.85</ele>
        <time>2015-08-23T08:59:38Z</time>
      </trkpt>
      <trkpt lat="48.69791" lon="1.91739">
        <ele>168.85</ele>
        <time>2015-08-23T08:59:57Z</time>
      </trkpt>
      <trkpt lat="48.69772" lon="1.91718">
        <ele>168.37</ele>
        <time>2015-08-23T09:00:16Z</time>
      </trkpt>
      <trkpt lat="48.69756" lon="1.91701">
        <ele>167.89</ele>
        <time>2015-08-23T09:00:35Z</time>
      </trkpt>
      <trkpt lat="48.6974" lon="1.91684">
        <ele>167.89</ele>
        <time>2015-08-23T09:00:54Z</time>
      </trkpt>
      <trkpt lat="48.69722" lon="1.91665">
        <ele>167.89</ele>
        <time>2015-08-23T09:01:14Z</time>
      </trkpt>
      <trkpt lat="48.69701" lon="1.91644">
        <ele>168.85</ele>
        <time>2015-08-23T09:01:37Z</time>
      </trkpt>
      <trkpt lat="48.69681" lon="1.91626">
        <ele>168.37</ele>
        <time>2015-08-23T09:01:56Z</time>
      </trkpt>
      <trkpt lat="48.69669" lon="1.91608">
        <ele>168.37</ele>
        <time>2015-08-23T09:02:14Z</time>
      </trkpt>
      <trkpt lat="48.69659" lon="1.91599">
        <ele>168.85</ele>
        <time>2015-08-23T09:02:23Z</time>
      </trkpt>
      <trkpt lat="48.69648" lon="1.91585">
        <ele>168.85</ele>
        <time>2015-08-23T09:02:37Z</time>
      </trkpt>
      <trkpt lat="48.69633" lon="1.91572">
        <ele>168.85</ele>
        <time>2015-08-23T09:02:53Z</time>
      </trkpt>
      <trkpt lat="48.69632" lon="1.91571">
        <ele>168.85</ele>
        <time>2015-08-23T09:02:55Z</time>
      </trkpt>
      <trkpt lat="48.69617" lon="1.91575">
        <ele>168.85</ele>
        <time>2015-08-23T09:03:09Z</time>
      </trkpt>
      <trkpt lat="48.696" lon="1.91583">
        <ele>167.89</ele>
        <time>2015-08-23T09:03:24Z</time>
      </trkpt>
      <trkpt lat="48.69591" lon="1.91586">
        <ele>167.89</ele>
        <time>2015-08-23T09:03:39Z</time>
      </trkpt>
      <trkpt lat="48.69573" lon="1.91586">
        <ele>165.96</ele>
        <time>2015-08-23T09:03:59Z</time>
      </trkpt>
      <trkpt lat="48.69557" lon="1.91588">
        <ele>164.52</ele>
        <time>2015-08-23T09:04:14Z</time>
      </trkpt>
      <trkpt lat="48.69545" lon="1.91592">
        <ele>162.12</ele>
        <time>2015-08-23T09:04:31Z</time>
      </trkpt>
      <trkpt lat="48.69538" lon="1.91592">
        <ele>161.16</ele>
        <time>2015-08-23T09:04:48Z</time>
      </trkpt>
      <trkpt lat="48.69531" lon="1.91593">
        <ele>157.79</ele>
        <time>2015-08-23T09:05:00Z</time>
      </trkpt>
      <trkpt lat="48.69518" lon="1.91597">
        <ele>155.87</ele>
        <time>2015-08-23T09:05:21Z</time>
      </trkpt>
      <trkpt lat="48.69502" lon="1.91595">
        <ele>153.47</ele>
        <time>2015-08-23T09:05:36Z</time>
      </trkpt>
      <trkpt lat="48.69498" lon="1.91612">
        <ele>151.06</ele>
        <time>2015-08-23T09:05:53Z</time>
      </trkpt>
      <trkpt lat="48.69492" lon="1.91631">
        <ele>147.7</ele>
        <time>2015-08-23T09:06:08Z</time>
      </trkpt>
      <trkpt lat="48.69492" lon="1.9165">
        <ele>145.3</ele>
        <time>2015-08-23T09:06:26Z</time>
      </trkpt>
      <trkpt lat="48.69488" lon="1.9165">
        <ele>143.37</ele>
        <time>2015-08-23T09:06:41Z</time>
      </trkpt>
      <trkpt lat="48.69475" lon="1.91637">
        <ele>140.49</ele>
        <time>2015-08-23T09:07:00Z</time>
      </trkpt>
      <trkpt lat="48.69468" lon="1.91625">
        <ele>137.61</ele>
        <time>2015-08-23T09:07:20Z</time>
      </trkpt>
      <trkpt lat="48.69456" lon="1.91615">
        <ele>135.2</ele>
        <time>2015-08-23T09:07:38Z</time>
      </trkpt>
      <trkpt lat="48.69451" lon="1.916">
        <ele>132.8</ele>
        <time>2015-08-23T09:07:55Z</time>
      </trkpt>
      <trkpt lat="48.6944" lon="1.91586">
        <ele>130.88</ele>
        <time>2015-08-23T09:08:12Z</time>
      </trkpt>
      <trkpt lat="48.69428" lon="1.9158">
        <ele>130.4</ele>
        <time>2015-08-23T09:08:25Z</time>
      </trkpt>
      <trkpt lat="48.69422" lon="1.91581">
        <ele>129.43</ele>
        <time>2015-08-23T09:08:38Z</time>
      </trkpt>
      <trkpt lat="48.69414" lon="1.91595">
        <ele>129.92</ele>
        <time>2015-08-23T09:09:02Z</time>
      </trkpt>
      <trkpt lat="48.69406" lon="1.91596">
        <ele>129.92</ele>
        <time>2015-08-23T09:09:29Z</time>
      </trkpt>
      <trkpt lat="48.69404" lon="1.91593">
        <ele>129.92</ele>
        <time>2015-08-23T09:09:53Z</time>
      </trkpt>
      <trkpt lat="48.69401" lon="1.91596">
        <ele>130.4</ele>
        <time>2015-08-23T09:10:18Z</time>
      </trkpt>
      <trkpt lat="48.69402" lon="1.91597">
        <ele>130.4</ele>
        <time>2015-08-23T09:10:38Z</time>
      </trkpt>
      <trkpt lat="48.69412" lon="1.91598">
        <ele>130.88</ele>
        <time>2015-08-23T09:11:08Z</time>
      </trkpt>
      <trkpt lat="48.6942" lon="1.91592">
        <ele>131.36</ele>
        <time>2015-08-23T09:11:38Z</time>
      </trkpt>
      <trkpt lat="48.69409" lon="1.91594">
        <ele>131.36</ele>
        <time>2015-08-23T09:12:08Z</time>
      </trkpt>
      <trkpt lat="48.69411" lon="1.91592">
        <ele>131.36</ele>
        <time>2015-08-23T09:12:14Z</time>
      </trkpt>
      <trkpt lat="48.69426" lon="1.91584">
        <ele>131.84</ele>
        <time>2015-08-23T09:12:31Z</time>
      </trkpt>
      <trkpt lat="48.69413" lon="1.91592">
        <ele>131.36</ele>
        <time>2015-08-23T09:12:50Z</time>
      </trkpt>
      <trkpt lat="48.69411" lon="1.91589">
        <ele>131.36</ele>
        <time>2015-08-23T09:13:13Z</time>
      </trkpt>
      <trkpt lat="48.69418" lon="1.91596">
        <ele>132.8</ele>
        <time>2015-08-23T09:13:26Z</time>
      </trkpt>
      <trkpt lat="48.69415" lon="1.91622">
        <ele>135.2</ele>
        <time>2015-08-23T09:13:44Z</time>
      </trkpt>
      <trkpt lat="48.69414" lon="1.9164">
        <ele>138.09</ele>
        <time>2015-08-23T09:14:02Z</time>
      </trkpt>
      <trkpt lat="48.69407" lon="1.91657">
        <ele>140.49</ele>
        <time>2015-08-23T09:14:16Z</time>
      </trkpt>
      <trkpt lat="48.69413" lon="1.91671">
        <ele>141.93</ele>
        <time>2015-08-23T09:14:30Z</time>
      </trkpt>
      <trkpt lat="48.69417" lon="1.91687">
        <ele>144.82</ele>
        <time>2015-08-23T09:14:47Z</time>
      </trkpt>
      <trkpt lat="48.6942" lon="1.9169">
        <ele>146.26</ele>
        <time>2015-08-23T09:15:02Z</time>
      </trkpt>
      <trkpt lat="48.69421" lon="1.91702">
        <ele>147.7</ele>
        <time>2015-08-23T09:15:14Z</time>
      </trkpt>
      <trkpt lat="48.69414" lon="1.9171">
        <ele>150.1</ele>
        <time>2015-08-23T09:15:28Z</time>
      </trkpt>
      <trkpt lat="48.6941" lon="1.91696">
        <ele>151.06</ele>
        <time>2015-08-23T09:15:48Z</time>
      </trkpt>
      <trkpt lat="48.69399" lon="1.91695">
        <ele>152.51</ele>
        <time>2015-08-23T09:16:03Z</time>
      </trkpt>
      <trkpt lat="48.69389" lon="1.91691">
        <ele>153.47</ele>
        <time>2015-08-23T09:16:15Z</time>
      </trkpt>
      <trkpt lat="48.6938" lon="1.91684">
        <ele>154.91</ele>
        <time>2015-08-23T09:16:32Z</time>
      </trkpt>
      <trkpt lat="48.69372" lon="1.9168">
        <ele>156.83</ele>
        <time>2015-08-23T09:16:46Z</time>
      </trkpt>
      <trkpt lat="48.69358" lon="1.91672">
        <ele>158.27</ele>
        <time>2015-08-23T09:17:00Z</time>
      </trkpt>
      <trkpt lat="48.69346" lon="1.9168">
        <ele>159.24</ele>
        <time>2015-08-23T09:17:17Z</time>
      </trkpt>
      <trkpt lat="48.69348" lon="1.91681">
        <ele>159.72</ele>
        <time>2015-08-23T09:17:30Z</time>
      </trkpt>
      <trkpt lat="48.69352" lon="1.91688">
        <ele>161.16</ele>
        <time>2015-08-23T09:17:45Z</time>
      </trkpt>
      <trkpt lat="48.69349" lon="1.9169">
        <ele>161.16</ele>
        <time>2015-08-23T09:18:05Z</time>
      </trkpt>
      <trkpt lat="48.69346" lon="1.9169">
        <ele>161.16</ele>
        <time>2015-08-23T09:18:22Z</time>
      </trkpt>
      <trkpt lat="48.69349" lon="1.91692">
        <ele>161.64</ele>
        <time>2015-08-23T09:18:47Z</time>
      </trkpt>
      <trkpt lat="48.69347" lon="1.91694">
        <ele>162.12</ele>
        <time>2015-08-23T09:19:08Z</time>
      </trkpt>
      <trkpt lat="48.69352" lon="1.91713">
        <ele>165</ele>
        <time>2015-08-23T09:19:24Z</time>
      </trkpt>
      <trkpt lat="48.69347" lon="1.91715">
        <ele>165.96</ele>
        <time>2015-08-23T09:19:38Z</time>
      </trkpt>
      <trkpt lat="48.6935" lon="1.9173">
        <ele>168.85</ele>
        <time>2015-08-23T09:19:53Z</time>
      </trkpt>
      <trkpt lat="48.6935" lon="1.91732">
        <ele>169.33</ele>
        <time>2015-08-23T09:20:12Z</time>
      </trkpt>
      <trkpt lat="48.69336" lon="1.91749">
        <ele>169.81</ele>
        <time>2015-08-23T09:20:28Z</time>
      </trkpt>
      <trkpt lat="48.69329" lon="1.91763">
        <ele>170.29</ele>
        <time>2015-08-23T09:20:48Z</time>
      </trkpt>
      <trkpt lat="48.69327" lon="1.91767">
        <ele>169.81</ele>
        <time>2015-08-23T09:21:12Z</time>
      </trkpt>
      <trkpt lat="48.69321" lon="1.91787">
        <ele>169.81</ele>
        <time>2015-08-23T09:21:31Z</time>
      </trkpt>
      <trkpt lat="48.69318" lon="1.91815">
        <ele>169.33</ele>
        <time>2015-08-23T09:21:47Z</time>
      </trkpt>
      <trkpt lat="48.69315" lon="1.91833">
        <ele>169.33</ele>
        <time>2015-08-23T09:21:56Z</time>
      </trkpt>
      <trkpt lat="48.69309" lon="1.91861">
        <ele>169.33</ele>
        <time>2015-08-23T09:22:14Z</time>
      </trkpt>
      <trkpt lat="48.69302" lon="1.91893">
        <ele>167.89</ele>
        <time>2015-08-23T09:22:38Z</time>
      </trkpt>
      <trkpt lat="48.69302" lon="1.91927">
        <ele>166.45</ele>
        <time>2015-08-23T09:22:59Z</time>
      </trkpt>
      <trkpt lat="48.69297" lon="1.91955">
        <ele>165.96</ele>
        <time>2015-08-23T09:23:17Z</time>
      </trkpt>
      <trkpt lat="48.69287" lon="1.91977">
        <ele>165.96</ele>
        <time>2015-08-23T09:23:32Z</time>
      </trkpt>
      <trkpt lat="48.69286" lon="1.92002">
        <ele>166.93</ele>
        <time>2015-08-23T09:23:49Z</time>
      </trkpt>
      <trkpt lat="48.69281" lon="1.92018">
        <ele>165</ele>
        <time>2015-08-23T09:24:05Z</time>
      </trkpt>
      <trkpt lat="48.69269" lon="1.92036">
        <ele>162.6</ele>
        <time>2015-08-23T09:24:21Z</time>
      </trkpt>
      <trkpt lat="48.69255" lon="1.92053">
        <ele>163.08</ele>
        <time>2015-08-23T09:24:39Z</time>
      </trkpt>
      <trkpt lat="48.69238" lon="1.92052">
        <ele>165.48</ele>
        <time>2015-08-23T09:25:00Z</time>
      </trkpt>
      <trkpt lat="48.69211" lon="1.92048">
        <ele>165.96</ele>
        <time>2015-08-23T09:25:18Z</time>
      </trkpt>
      <trkpt lat="48.69198" lon="1.92041">
        <ele>166.45</ele>
        <time>2015-08-23T09:25:34Z</time>
      </trkpt>
      <trkpt lat="48.69182" lon="1.92039">
        <ele>166.93</ele>
        <time>2015-08-23T09:25:47Z</time>
      </trkpt>
      <trkpt lat="48.69165" lon="1.9204">
        <ele>166.93</ele>
        <time>2015-08-23T09:26:06Z</time>
      </trkpt>
      <trkpt lat="48.6915" lon="1.92067">
        <ele>167.41</ele>
        <time>2015-08-23T09:26:27Z</time>
      </trkpt>
      <trkpt lat="48.69143" lon="1.92088">
        <ele>167.89</ele>
        <time>2015-08-23T09:26:47Z</time>
      </trkpt>
      <trkpt lat="48.69136" lon="1.92089">
        <ele>167.41</ele>
        <time>2015-08-23T09:27:12Z</time>
      </trkpt>
      <trkpt lat="48.69138" lon="1.92094">
        <ele>167.41</ele>
        <time>2015-08-23T09:27:34Z</time>
      </trkpt>
      <trkpt lat="48.6913" lon="1.92104">
        <ele>166.93</ele>
        <time>2015-08-23T09:27:55Z</time>
      </trkpt>
      <trkpt lat="48.69127" lon="1.9213">
        <ele>166.93</ele>
        <time>2015-08-23T09:28:14Z</time>
      </trkpt>
      <trkpt lat="48.69126" lon="1.9216">
        <ele>166.93</ele>
        <time>2015-08-23T09:28:30Z</time>
      </trkpt>
      <trkpt lat="48.69116" lon="1.92198">
        <ele>165.96</ele>
        <time>2015-08-23T09:28:52Z</time>
      </trkpt>
      <trkpt lat="48.6911" lon="1.9221">
        <ele>164.52</ele>
        <time>2015-08-23T09:29:07Z</time>
      </trkpt>
      <trkpt lat="48.69112" lon="1.92229">
        <ele>161.16</ele>
        <time>2015-08-23T09:29:23Z</time>
      </trkpt>
      <trkpt lat="48.69113" lon="1.92246">
        <ele>157.79</ele>
        <time>2015-08-23T09:29:35Z</time>
      </trkpt>
      <trkpt lat="48.69117" lon="1.92266">
        <ele>155.39</ele>
        <time>2015-08-23T09:29:54Z</time>
      </trkpt>
      <trkpt lat="48.69117" lon="1.92301">
        <ele>156.83</ele>
        <time>2015-08-23T09:30:15Z</time>
      </trkpt>
      <trkpt lat="48.69122" lon="1.92327">
        <ele>157.31</ele>
        <time>2015-08-23T09:30:32Z</time>
      </trkpt>
      <trkpt lat="48.6912" lon="1.92339">
        <ele>160.2</ele>
        <time>2015-08-23T09:30:47Z</time>
      </trkpt>
      <trkpt lat="48.6912" lon="1.92353">
        <ele>163.56</ele>
        <time>2015-08-23T09:31:05Z</time>
      </trkpt>
      <trkpt lat="48.69105" lon="1.92375">
        <ele>165</ele>
        <time>2015-08-23T09:31:23Z</time>
      </trkpt>
      <trkpt lat="48.69095" lon="1.92392">
        <ele>163.56</ele>
        <time>2015-08-23T09:31:41Z</time>
      </trkpt>
      <trkpt lat="48.69085" lon="1.92418">
        <ele>164.52</ele>
        <time>2015-08-23T09:32:01Z</time>
      </trkpt>
      <trkpt lat="48.69074" lon="1.92444">
        <ele>165.96</ele>
        <time>2015-08-23T09:32:22Z</time>
      </trkpt>
      <trkpt lat="48.6907" lon="1.92468">
        <ele>166.93</ele>
        <time>2015-08-23T09:32:38Z</time>
      </trkpt>
      <trkpt lat="48.69061" lon="1.92497">
        <ele>166.45</ele>
        <time>2015-08-23T09:32:58Z</time>
      </trkpt>
      <trkpt lat="48.6905" lon="1.92531">
        <ele>166.93</ele>
        <time>2015-08-23T09:33:20Z</time>
      </trkpt>
      <trkpt lat="48.69042" lon="1.92545">
        <ele>167.41</ele>
        <time>2015-08-23T09:33:39Z</time>
      </trkpt>
      <trkpt lat="48.69034" lon="1.92566">
        <ele>168.85</ele>
        <time>2015-08-23T09:33:56Z</time>
      </trkpt>
      <trkpt lat="48.69041" lon="1.92592">
        <ele>168.85</ele>
        <time>2015-08-23T09:34:17Z</time>
      </trkpt>
      <trkpt lat="48.69046" lon="1.92615">
        <ele>169.33</ele>
        <time>2015-08-23T09:34:38Z</time>
      </trkpt>
      <trkpt lat="48.69067" lon="1.92625">
        <ele>168.37</ele>
        <time>2015-08-23T09:34:58Z</time>
      </trkpt>
      <trkpt lat="48.69076" lon="1.92634">
        <ele>167.89</ele>
        <time>2015-08-23T09:35:11Z</time>
      </trkpt>
      <trkpt lat="48.69086" lon="1.92646">
        <ele>166.93</ele>
        <time>2015-08-23T09:35:30Z</time>
      </trkpt>
      <trkpt lat="48.69099" lon="1.92644">
        <ele>167.41</ele>
        <time>2015-08-23T09:35:48Z</time>
      </trkpt>
      <trkpt lat="48.69119" lon="1.92661">
        <ele>166.93</ele>
        <time>2015-08-23T09:36:08Z</time>
      </trkpt>
      <trkpt lat="48.69136" lon="1.92675">
        <ele>166.93</ele>
        <time>2015-08-23T09:36:27Z</time>
      </trkpt>
      <trkpt lat="48.69153" lon="1.9269">
        <ele>166.45</ele>
        <time>2015-08-23T09:36:45Z</time>
      </trkpt>
      <trkpt lat="48.69155" lon="1.92712">
        <ele>165</ele>
        <time>2015-08-23T09:37:02Z</time>
      </trkpt>
      <trkpt lat="48.69155" lon="1.92724">
        <ele>163.08</ele>
        <time>2015-08-23T09:37:19Z</time>
      </trkpt>
      <trkpt lat="48.69163" lon="1.92737">
        <ele>161.64</ele>
        <time>2015-08-23T09:37:33Z</time>
      </trkpt>
      <trkpt lat="48.69165" lon="1.92752">
        <ele>160.2</ele>
        <time>2015-08-23T09:37:47Z</time>
      </trkpt>
      <trkpt lat="48.69158" lon="1.92754">
        <ele>159.72</ele>
        <time>2015-08-23T09:38:05Z</time>
      </trkpt>
      <trkpt lat="48.69175" lon="1.92749">
        <ele>159.72</ele>
        <time>2015-08-23T09:38:27Z</time>
      </trkpt>
      <trkpt lat="48.69176" lon="1.92752">
        <ele>160.2</ele>
        <time>2015-08-23T09:38:54Z</time>
      </trkpt>
      <trkpt lat="48.69177" lon="1.92754">
        <ele>160.2</ele>
        <time>2015-08-23T09:38:59Z</time>
      </trkpt>
      <trkpt lat="48.69154" lon="1.92745">
        <ele>160.2</ele>
        <time>2015-08-23T09:39:17Z</time>
      </trkpt>
      <trkpt lat="48.69151" lon="1.92751">
        <ele>159.72</ele>
        <time>2015-08-23T09:39:36Z</time>
      </trkpt>
      <trkpt lat="48.69136" lon="1.92757">
        <ele>159.72</ele>
        <time>2015-08-23T09:39:50Z</time>
      </trkpt>
      <trkpt lat="48.69118" lon="1.92763">
        <ele>158.27</ele>
        <time>2015-08-23T09:40:08Z</time>
      </trkpt>
      <trkpt lat="48.69101" lon="1.92766">
        <ele>157.79</ele>
        <time>2015-08-23T09:40:24Z</time>
      </trkpt>
      <trkpt lat="48.69085" lon="1.92767">
        <ele>156.83</ele>
        <time>2015-08-23T09:40:41Z</time>
      </trkpt>
      <trkpt lat="48.6907" lon="1.92774">
        <ele>155.87</ele>
        <time>2015-08-23T09:40:57Z</time>
      </trkpt>
      <trkpt lat="48.69054" lon="1.92782">
        <ele>154.91</ele>
        <time>2015-08-23T09:41:15Z</time>
      </trkpt>
      <trkpt lat="48.69045" lon="1.92794">
        <ele>154.43</ele>
        <time>2015-08-23T09:41:31Z</time>
      </trkpt>
      <trkpt lat="48.69033" lon="1.9281">
        <ele>153.47</ele>
        <time>2015-08-23T09:41:50Z</time>
      </trkpt>
      <trkpt lat="48.69014" lon="1.92817">
        <ele>151.54</ele>
        <time>2015-08-23T09:42:10Z</time>
      </trkpt>
      <trkpt lat="48.68995" lon="1.92805">
        <ele>151.06</ele>
        <time>2015-08-23T09:42:28Z</time>
      </trkpt>
      <trkpt lat="48.68979" lon="1.92792">
        <ele>149.62</ele>
        <time>2015-08-23T09:42:48Z</time>
      </trkpt>
      <trkpt lat="48.68968" lon="1.9278">
        <ele>148.66</ele>
        <time>2015-08-23T09:43:02Z</time>
      </trkpt>
      <trkpt lat="48.68962" lon="1.92768">
        <ele>147.7</ele>
        <time>2015-08-23T09:43:18Z</time>
      </trkpt>
      <trkpt lat="48.68952" lon="1.92744">
        <ele>146.26</ele>
        <time>2015-08-23T09:43:37Z</time>
      </trkpt>
      <trkpt lat="48.68942" lon="1.92722">
        <ele>145.3</ele>
        <time>2015-08-23T09:43:59Z</time>
      </trkpt>
      <trkpt lat="48.68925" lon="1.927">
        <ele>143.37</ele>
        <time>2015-08-23T09:44:21Z</time>
      </trkpt>
      <trkpt lat="48.68911" lon="1.92679">
        <ele>141.45</ele>
        <time>2015-08-23T09:44:42Z</time>
      </trkpt>
      <trkpt lat="48.68902" lon="1.92658">
        <ele>140.01</ele>
        <time>2015-08-23T09:45:00Z</time>
      </trkpt>
      <trkpt lat="48.68887" lon="1.92645">
        <ele>138.09</ele>
        <time>2015-08-23T09:45:15Z</time>
      </trkpt>
      <trkpt lat="48.6887" lon="1.92625">
        <ele>135.68</ele>
        <time>2015-08-23T09:45:30Z</time>
      </trkpt>
      <trkpt lat="48.68854" lon="1.92622">
        <ele>135.2</ele>
        <time>2015-08-23T09:45:46Z</time>
      </trkpt>
      <trkpt lat="48.68842" lon="1.92603">
        <ele>134.24</ele>
        <time>2015-08-23T09:46:04Z</time>
      </trkpt>
      <trkpt lat="48.68837" lon="1.92602">
        <ele>134.24</ele>
        <time>2015-08-23T09:46:15Z</time>
      </trkpt>
      <trkpt lat="48.68832" lon="1.92604">
        <ele>134.24</ele>
        <time>2015-08-23T09:46:33Z</time>
      </trkpt>
      <trkpt lat="48.68829" lon="1.92608">
        <ele>133.76</ele>
        <time>2015-08-23T09:46:39Z</time>
      </trkpt>
      <trkpt lat="48.68819" lon="1.9262">
        <ele>133.76</ele>
        <time>2015-08-23T09:46:53Z</time>
      </trkpt>
      <trkpt lat="48.68818" lon="1.92622">
        <ele>133.76</ele>
        <time>2015-08-23T09:47:18Z</time>
      </trkpt>
      <trkpt lat="48.6881" lon="1.92631">
        <ele>134.24</ele>
        <time>2015-08-23T09:47:34Z</time>
      </trkpt>
      <trkpt lat="48.688" lon="1.92645">
        <ele>134.24</ele>
        <time>2015-08-23T09:47:50Z</time>
      </trkpt>
      <trkpt lat="48.68789" lon="1.92661">
        <ele>133.76</ele>
        <time>2015-08-23T09:48:06Z</time>
      </trkpt>
      <trkpt lat="48.68778" lon="1.92687">
        <ele>133.76</ele>
        <time>2015-08-23T09:48:21Z</time>
      </trkpt>
      <trkpt lat="48.68773" lon="1.92703">
        <ele>133.76</ele>
        <time>2015-08-23T09:48:35Z</time>
      </trkpt>
      <trkpt lat="48.68771" lon="1.92727">
        <ele>133.76</ele>
        <time>2015-08-23T09:48:50Z</time>
      </trkpt>
      <trkpt lat="48.68767" lon="1.9275">
        <ele>133.76</ele>
        <time>2015-08-23T09:49:03Z</time>
      </trkpt>
      <trkpt lat="48.68761" lon="1.92771">
        <ele>133.28</ele>
        <time>2015-08-23T09:49:18Z</time>
      </trkpt>
      <trkpt lat="48.68753" lon="1.92794">
        <ele>133.76</ele>
        <time>2015-08-23T09:49:36Z</time>
      </trkpt>
      <trkpt lat="48.68744" lon="1.92814">
        <ele>133.76</ele>
        <time>2015-08-23T09:49:52Z</time>
      </trkpt>
      <trkpt lat="48.68735" lon="1.92834">
        <ele>133.76</ele>
        <time>2015-08-23T09:50:06Z</time>
      </trkpt>
      <trkpt lat="48.68725" lon="1.92852">
        <ele>133.28</ele>
        <time>2015-08-23T09:50:22Z</time>
      </trkpt>
      <trkpt lat="48.6872" lon="1.92873">
        <ele>133.28</ele>
        <time>2015-08-23T09:50:35Z</time>
      </trkpt>
      <trkpt lat="48.6871" lon="1.92895">
        <ele>133.28</ele>
        <time>2015-08-23T09:50:50Z</time>
      </trkpt>
      <trkpt lat="48.68702" lon="1.92914">
        <ele>132.8</ele>
        <time>2015-08-23T09:51:05Z</time>
      </trkpt>
      <trkpt lat="48.68693" lon="1.92924">
        <ele>132.8</ele>
        <time>2015-08-23T09:51:19Z</time>
      </trkpt>
      <trkpt lat="48.6869" lon="1.92934">
        <ele>132.8</ele>
        <time>2015-08-23T09:51:27Z</time>
      </trkpt>
      <trkpt lat="48.68682" lon="1.92958">
        <ele>132.8</ele>
        <time>2015-08-23T09:51:42Z</time>
      </trkpt>
      <trkpt lat="48.68677" lon="1.92984">
        <ele>134.24</ele>
        <time>2015-08-23T09:51:57Z</time>
      </trkpt>
      <trkpt lat="48.68672" lon="1.93005">
        <ele>135.2</ele>
        <time>2015-08-23T09:52:14Z</time>
      </trkpt>
      <trkpt lat="48.68671" lon="1.9301">
        <ele>135.2</ele>
        <time>2015-08-23T09:52:17Z</time>
      </trkpt>
      <trkpt lat="48.68664" lon="1.9304">
        <ele>135.2</ele>
        <time>2015-08-23T09:52:35Z</time>
      </trkpt>
      <trkpt lat="48.68662" lon="1.9306">
        <ele>135.68</ele>
        <time>2015-08-23T09:52:49Z</time>
      </trkpt>
      <trkpt lat="48.68661" lon="1.93077">
        <ele>136.16</ele>
        <time>2015-08-23T09:53:04Z</time>
      </trkpt>
      <trkpt lat="48.68658" lon="1.93094">
        <ele>136.16</ele>
        <time>2015-08-23T09:53:17Z</time>
      </trkpt>
      <trkpt lat="48.68657" lon="1.9311">
        <ele>136.64</ele>
        <time>2015-08-23T09:53:25Z</time>
      </trkpt>
      <trkpt lat="48.68654" lon="1.93142">
        <ele>137.61</ele>
        <time>2015-08-23T09:53:43Z</time>
      </trkpt>
      <trkpt lat="48.68652" lon="1.93163">
        <ele>137.61</ele>
        <time>2015-08-23T09:53:59Z</time>
      </trkpt>
      <trkpt lat="48.68652" lon="1.93184">
        <ele>137.13</ele>
        <time>2015-08-23T09:54:14Z</time>
      </trkpt>
      <trkpt lat="48.68649" lon="1.9321">
        <ele>137.13</ele>
        <time>2015-08-23T09:54:30Z</time>
      </trkpt>
      <trkpt lat="48.68645" lon="1.9323">
        <ele>136.16</ele>
        <time>2015-08-23T09:54:43Z</time>
      </trkpt>
      <trkpt lat="48.68644" lon="1.93235">
        <ele>136.16</ele>
        <time>2015-08-23T09:54:46Z</time>
      </trkpt>
      <trkpt lat="48.68643" lon="1.93262">
        <ele>135.2</ele>
        <time>2015-08-23T09:55:03Z</time>
      </trkpt>
      <trkpt lat="48.68646" lon="1.9328">
        <ele>134.24</ele>
        <time>2015-08-23T09:55:17Z</time>
      </trkpt>
      <trkpt lat="48.68651" lon="1.93305">
        <ele>134.24</ele>
        <time>2015-08-23T09:55:32Z</time>
      </trkpt>
      <trkpt lat="48.68658" lon="1.93325">
        <ele>133.76</ele>
        <time>2015-08-23T09:55:48Z</time>
      </trkpt>
      <trkpt lat="48.68661" lon="1.93346">
        <ele>134.24</ele>
        <time>2015-08-23T09:56:01Z</time>
      </trkpt>
      <trkpt lat="48.68661" lon="1.93348">
        <ele>134.24</ele>
        <time>2015-08-23T09:56:02Z</time>
      </trkpt>
      <trkpt lat="48.6866" lon="1.93361">
        <ele>134.24</ele>
        <time>2015-08-23T09:56:08Z</time>
      </trkpt>
      <trkpt lat="48.68652" lon="1.93369">
        <ele>134.72</ele>
        <time>2015-08-23T09:56:23Z</time>
      </trkpt>
      <trkpt lat="48.68647" lon="1.93373">
        <ele>135.2</ele>
        <time>2015-08-23T09:56:29Z</time>
      </trkpt>
      <trkpt lat="48.6864" lon="1.93378">
        <ele>135.68</ele>
        <time>2015-08-23T09:56:44Z</time>
      </trkpt>
      <trkpt lat="48.68633" lon="1.93382">
        <ele>136.64</ele>
        <time>2015-08-23T09:57:02Z</time>
      </trkpt>
      <trkpt lat="48.68622" lon="1.93389">
        <ele>137.13</ele>
        <time>2015-08-23T09:57:15Z</time>
      </trkpt>
      <trkpt lat="48.68611" lon="1.93401">
        <ele>136.64</ele>
        <time>2015-08-23T09:57:29Z</time>
      </trkpt>
      <trkpt lat="48.68604" lon="1.93416">
        <ele>135.68</ele>
        <time>2015-08-23T09:57:43Z</time>
      </trkpt>
      <trkpt lat="48.68596" lon="1.93436">
        <ele>134.24</ele>
        <time>2015-08-23T09:57:59Z</time>
      </trkpt>
      <trkpt lat="48.68587" lon="1.93449">
        <ele>132.8</ele>
        <time>2015-08-23T09:58:12Z</time>
      </trkpt>
      <trkpt lat="48.68587" lon="1.9345">
        <ele>132.32</ele>
        <time>2015-08-23T09:58:13Z</time>
      </trkpt>
      <trkpt lat="48.68573" lon="1.93469">
        <ele>131.36</ele>
        <time>2015-08-23T09:58:30Z</time>
      </trkpt>
      <trkpt lat="48.68564" lon="1.93487">
        <ele>130.88</ele>
        <time>2015-08-23T09:58:46Z</time>
      </trkpt>
      <trkpt lat="48.6856" lon="1.93495">
        <ele>130.4</ele>
        <time>2015-08-23T09:58:52Z</time>
      </trkpt>
      <trkpt lat="48.68554" lon="1.93521">
        <ele>129.43</ele>
        <time>2015-08-23T09:59:09Z</time>
      </trkpt>
      <trkpt lat="48.68553" lon="1.93526">
        <ele>129.43</ele>
        <time>2015-08-23T09:59:14Z</time>
      </trkpt>
      <trkpt lat="48.68553" lon="1.93529">
        <ele>129.43</ele>
        <time>2015-08-23T09:59:16Z</time>
      </trkpt>
      <trkpt lat="48.68553" lon="1.93534">
        <ele>128.95</ele>
        <time>2015-08-23T09:59:19Z</time>
      </trkpt>
      <trkpt lat="48.68551" lon="1.93551">
        <ele>127.99</ele>
        <time>2015-08-23T09:59:32Z</time>
      </trkpt>
      <trkpt lat="48.68545" lon="1.93576">
        <ele>127.03</ele>
        <time>2015-08-23T09:59:45Z</time>
      </trkpt>
      <trkpt lat="48.68533" lon="1.93593">
        <ele>126.55</ele>
        <time>2015-08-23T10:00:02Z</time>
      </trkpt>
      <trkpt lat="48.68529" lon="1.93599">
        <ele>126.55</ele>
        <time>2015-08-23T10:00:07Z</time>
      </trkpt>
      <trkpt lat="48.68526" lon="1.93602">
        <ele>126.55</ele>
        <time>2015-08-23T10:00:09Z</time>
      </trkpt>
      <trkpt lat="48.68516" lon="1.93628">
        <ele>126.55</ele>
        <time>2015-08-23T10:00:26Z</time>
      </trkpt>
      <trkpt lat="48.68509" lon="1.93653">
        <ele>126.07</ele>
        <time>2015-08-23T10:00:41Z</time>
      </trkpt>
      <trkpt lat="48.68503" lon="1.93671">
        <ele>126.55</ele>
        <time>2015-08-23T10:00:57Z</time>
      </trkpt>
      <trkpt lat="48.68499" lon="1.93696">
        <ele>126.55</ele>
        <time>2015-08-23T10:01:13Z</time>
      </trkpt>
      <trkpt lat="48.68497" lon="1.93694">
        <ele>126.07</ele>
        <time>2015-08-23T10:01:30Z</time>
      </trkpt>
      <trkpt lat="48.68496" lon="1.93697">
        <ele>126.55</ele>
        <time>2015-08-23T10:01:45Z</time>
      </trkpt>
      <trkpt lat="48.68495" lon="1.9371">
        <ele>127.03</ele>
        <time>2015-08-23T10:02:05Z</time>
      </trkpt>
      <trkpt lat="48.68494" lon="1.93703">
        <ele>126.55</ele>
        <time>2015-08-23T10:02:25Z</time>
      </trkpt>
      <trkpt lat="48.68501" lon="1.93706">
        <ele>126.55</ele>
        <time>2015-08-23T10:03:02Z</time>
      </trkpt>
      <trkpt lat="48.68493" lon="1.93706">
        <ele>127.51</ele>
        <time>2015-08-23T10:03:31Z</time>
      </trkpt>
      <trkpt lat="48.68493" lon="1.93706">
        <ele>127.51</ele>
        <time>2015-08-23T10:03:32Z</time>
      </trkpt>
      <trkpt lat="48.68496" lon="1.9371">
        <ele>126.55</ele>
        <time>2015-08-23T10:03:53Z</time>
      </trkpt>
      <trkpt lat="48.68493" lon="1.93711">
        <ele>126.07</ele>
        <time>2015-08-23T10:04:16Z</time>
      </trkpt>
      <trkpt lat="48.68497" lon="1.93711">
        <ele>126.55</ele>
        <time>2015-08-23T10:04:43Z</time>
      </trkpt>
      <trkpt lat="48.68498" lon="1.93716">
        <ele>126.55</ele>
        <time>2015-08-23T10:05:08Z</time>
      </trkpt>
      <trkpt lat="48.68497" lon="1.93722">
        <ele>126.55</ele>
        <time>2015-08-23T10:05:30Z</time>
      </trkpt>
      <trkpt lat="48.68505" lon="1.93714">
        <ele>126.55</ele>
        <time>2015-08-23T10:05:52Z</time>
      </trkpt>
      <trkpt lat="48.68503" lon="1.93713">
        <ele>126.55</ele>
        <time>2015-08-23T10:06:13Z</time>
      </trkpt>
      <trkpt lat="48.68511" lon="1.93711">
        <ele>126.55</ele>
        <time>2015-08-23T10:06:36Z</time>
      </trkpt>
      <trkpt lat="48.68515" lon="1.93713">
        <ele>126.55</ele>
        <time>2015-08-23T10:06:50Z</time>
      </trkpt>
      <trkpt lat="48.68521" lon="1.93716">
        <ele>127.03</ele>
        <time>2015-08-23T10:07:11Z</time>
      </trkpt>
      <trkpt lat="48.68519" lon="1.93725">
        <ele>127.51</ele>
        <time>2015-08-23T10:07:24Z</time>
      </trkpt>
      <trkpt lat="48.6852" lon="1.93729">
        <ele>127.99</ele>
        <time>2015-08-23T10:07:38Z</time>
      </trkpt>
      <trkpt lat="48.68524" lon="1.93725">
        <ele>128.47</ele>
        <time>2015-08-23T10:07:53Z</time>
      </trkpt>
      <trkpt lat="48.68532" lon="1.93722">
        <ele>129.92</ele>
        <time>2015-08-23T10:08:08Z</time>
      </trkpt>
      <trkpt lat="48.68544" lon="1.93717">
        <ele>131.84</ele>
        <time>2015-08-23T10:08:24Z</time>
      </trkpt>
      <trkpt lat="48.68556" lon="1.93717">
        <ele>134.72</ele>
        <time>2015-08-23T10:08:42Z</time>
      </trkpt>
      <trkpt lat="48.68564" lon="1.93723">
        <ele>137.13</ele>
        <time>2015-08-23T10:08:57Z</time>
      </trkpt>
      <trkpt lat="48.68568" lon="1.93727">
        <ele>137.61</ele>
        <time>2015-08-23T10:09:09Z</time>
      </trkpt>
      <trkpt lat="48.68567" lon="1.93739">
        <ele>139.05</ele>
        <time>2015-08-23T10:09:21Z</time>
      </trkpt>
      <trkpt lat="48.68574" lon="1.93744">
        <ele>139.53</ele>
        <time>2015-08-23T10:09:36Z</time>
      </trkpt>
      <trkpt lat="48.68585" lon="1.93753">
        <ele>142.41</ele>
        <time>2015-08-23T10:09:51Z</time>
      </trkpt>
      <trkpt lat="48.68593" lon="1.93758">
        <ele>144.34</ele>
        <time>2015-08-23T10:10:04Z</time>
      </trkpt>
      <trkpt lat="48.68594" lon="1.93769">
        <ele>145.78</ele>
        <time>2015-08-23T10:10:18Z</time>
      </trkpt>
      <trkpt lat="48.68589" lon="1.93778">
        <ele>148.66</ele>
        <time>2015-08-23T10:10:33Z</time>
      </trkpt>
      <trkpt lat="48.68578" lon="1.93787">
        <ele>150.58</ele>
        <time>2015-08-23T10:10:50Z</time>
      </trkpt>
      <trkpt lat="48.6857" lon="1.93794">
        <ele>151.06</ele>
        <time>2015-08-23T10:11:06Z</time>
      </trkpt>
      <trkpt lat="48.68559" lon="1.93808">
        <ele>152.99</ele>
        <time>2015-08-23T10:11:22Z</time>
      </trkpt>
      <trkpt lat="48.68551" lon="1.93816">
        <ele>151.54</ele>
        <time>2015-08-23T10:11:37Z</time>
      </trkpt>
      <trkpt lat="48.68546" lon="1.93829">
        <ele>149.62</ele>
        <time>2015-08-23T10:11:50Z</time>
      </trkpt>
      <trkpt lat="48.68544" lon="1.93842">
        <ele>149.62</ele>
        <time>2015-08-23T10:12:03Z</time>
      </trkpt>
      <trkpt lat="48.68539" lon="1.93853">
        <ele>148.66</ele>
        <time>2015-08-23T10:12:14Z</time>
      </trkpt>
      <trkpt lat="48.68532" lon="1.93868">
        <ele>147.22</ele>
        <time>2015-08-23T10:12:33Z</time>
      </trkpt>
      <trkpt lat="48.68525" lon="1.93876">
        <ele>147.22</ele>
        <time>2015-08-23T10:12:46Z</time>
      </trkpt>
      <trkpt lat="48.68517" lon="1.93878">
        <ele>146.26</ele>
        <time>2015-08-23T10:12:58Z</time>
      </trkpt>
      <trkpt lat="48.68504" lon="1.9389">
        <ele>145.78</ele>
        <time>2015-08-23T10:13:13Z</time>
      </trkpt>
      <trkpt lat="48.68493" lon="1.93893">
        <ele>143.37</ele>
        <time>2015-08-23T10:13:28Z</time>
      </trkpt>
      <trkpt lat="48.68482" lon="1.93901">
        <ele>143.37</ele>
        <time>2015-08-23T10:13:42Z</time>
      </trkpt>
      <trkpt lat="48.68471" lon="1.93917">
        <ele>144.34</ele>
        <time>2015-08-23T10:13:56Z</time>
      </trkpt>
      <trkpt lat="48.68465" lon="1.93928">
        <ele>142.41</ele>
        <time>2015-08-23T10:14:14Z</time>
      </trkpt>
      <trkpt lat="48.68457" lon="1.93937">
        <ele>140.01</ele>
        <time>2015-08-23T10:14:27Z</time>
      </trkpt>
      <trkpt lat="48.68452" lon="1.93945">
        <ele>139.05</ele>
        <time>2015-08-23T10:14:40Z</time>
      </trkpt>
      <trkpt lat="48.68452" lon="1.93952">
        <ele>140.49</ele>
        <time>2015-08-23T10:14:56Z</time>
      </trkpt>
      <trkpt lat="48.68449" lon="1.93961">
        <ele>141.93</ele>
        <time>2015-08-23T10:15:10Z</time>
      </trkpt>
      <trkpt lat="48.6845" lon="1.93973">
        <ele>144.82</ele>
        <time>2015-08-23T10:15:24Z</time>
      </trkpt>
      <trkpt lat="48.68447" lon="1.93986">
        <ele>147.7</ele>
        <time>2015-08-23T10:15:39Z</time>
      </trkpt>
      <trkpt lat="48.68452" lon="1.93993">
        <ele>149.62</ele>
        <time>2015-08-23T10:15:57Z</time>
      </trkpt>
      <trkpt lat="48.68454" lon="1.9399">
        <ele>150.1</ele>
        <time>2015-08-23T10:16:11Z</time>
      </trkpt>
      <trkpt lat="48.68459" lon="1.93993">
        <ele>152.03</ele>
        <time>2015-08-23T10:16:25Z</time>
      </trkpt>
      <trkpt lat="48.68463" lon="1.93997">
        <ele>153.95</ele>
        <time>2015-08-23T10:16:37Z</time>
      </trkpt>
      <trkpt lat="48.68463" lon="1.93998">
        <ele>154.91</ele>
        <time>2015-08-23T10:16:52Z</time>
      </trkpt>
      <trkpt lat="48.68461" lon="1.94004">
        <ele>155.39</ele>
        <time>2015-08-23T10:17:06Z</time>
      </trkpt>
      <trkpt lat="48.68467" lon="1.94002">
        <ele>156.35</ele>
        <time>2015-08-23T10:17:20Z</time>
      </trkpt>
      <trkpt lat="48.68473" lon="1.93998">
        <ele>158.27</ele>
        <time>2015-08-23T10:17:33Z</time>
      </trkpt>
      <trkpt lat="48.68472" lon="1.94004">
        <ele>159.72</ele>
        <time>2015-08-23T10:17:47Z</time>
      </trkpt>
      <trkpt lat="48.68473" lon="1.94012">
        <ele>160.68</ele>
        <time>2015-08-23T10:18:02Z</time>
      </trkpt>
      <trkpt lat="48.68473" lon="1.94014">
        <ele>161.16</ele>
        <time>2015-08-23T10:18:16Z</time>
      </trkpt>
      <trkpt lat="48.68474" lon="1.94024">
        <ele>163.08</ele>
        <time>2015-08-23T10:18:29Z</time>
      </trkpt>
      <trkpt lat="48.68474" lon="1.94032">
        <ele>164.52</ele>
        <time>2015-08-23T10:18:40Z</time>
      </trkpt>
      <trkpt lat="48.68477" lon="1.94031">
        <ele>165</ele>
        <time>2015-08-23T10:18:54Z</time>
      </trkpt>
      <trkpt lat="48.68476" lon="1.9402">
        <ele>164.04</ele>
        <time>2015-08-23T10:19:08Z</time>
      </trkpt>
      <trkpt lat="48.68478" lon="1.94014">
        <ele>162.6</ele>
        <time>2015-08-23T10:19:22Z</time>
      </trkpt>
      <trkpt lat="48.68474" lon="1.94021">
        <ele>163.08</ele>
        <time>2015-08-23T10:19:36Z</time>
      </trkpt>
      <trkpt lat="48.68473" lon="1.94026">
        <ele>163.56</ele>
        <time>2015-08-23T10:19:50Z</time>
      </trkpt>
      <trkpt lat="48.68471" lon="1.94031">
        <ele>164.04</ele>
        <time>2015-08-23T10:20:11Z</time>
      </trkpt>
      <trkpt lat="48.68471" lon="1.94028">
        <ele>163.56</ele>
        <time>2015-08-23T10:20:26Z</time>
      </trkpt>
      <trkpt lat="48.68471" lon="1.94027">
        <ele>163.56</ele>
        <time>2015-08-23T10:20:59Z</time>
      </trkpt>
      <trkpt lat="48.68472" lon="1.94028">
        <ele>163.56</ele>
        <time>2015-08-23T10:21:30Z</time>
      </trkpt>
      <trkpt lat="48.68473" lon="1.94031">
        <ele>163.56</ele>
        <time>2015-08-23T10:21:54Z</time>
      </trkpt>
      <trkpt lat="48.68473" lon="1.94031">
        <ele>163.56</ele>
        <time>2015-08-23T10:22:27Z</time>
      </trkpt>
      <trkpt lat="48.68476" lon="1.94024">
        <ele>163.56</ele>
        <time>2015-08-23T10:22:54Z</time>
      </trkpt>
      <trkpt lat="48.68469" lon="1.94027">
        <ele>164.04</ele>
        <time>2015-08-23T10:23:20Z</time>
      </trkpt>
      <trkpt lat="48.68474" lon="1.94027">
        <ele>164.52</ele>
        <time>2015-08-23T10:23:41Z</time>
      </trkpt>
      <trkpt lat="48.68474" lon="1.94024">
        <ele>164.52</ele>
        <time>2015-08-23T10:23:58Z</time>
      </trkpt>
      <trkpt lat="48.68476" lon="1.94022">
        <ele>164.52</ele>
        <time>2015-08-23T10:24:17Z</time>
      </trkpt>
      <trkpt lat="48.68478" lon="1.94016">
        <ele>163.56</ele>
        <time>2015-08-23T10:24:33Z</time>
      </trkpt>
      <trkpt lat="48.6848" lon="1.94019">
        <ele>163.56</ele>
        <time>2015-08-23T10:24:46Z</time>
      </trkpt>
      <trkpt lat="48.68478" lon="1.94023">
        <ele>164.52</ele>
        <time>2015-08-23T10:25:05Z</time>
      </trkpt>
      <trkpt lat="48.68473" lon="1.94024">
        <ele>164.04</ele>
        <time>2015-08-23T10:25:17Z</time>
      </trkpt>
      <trkpt lat="48.68475" lon="1.94026">
        <ele>164.04</ele>
        <time>2015-08-23T10:25:35Z</time>
      </trkpt>
      <trkpt lat="48.68485" lon="1.94019">
        <ele>163.56</ele>
        <time>2015-08-23T10:25:51Z</time>
      </trkpt>
      <trkpt lat="48.68492" lon="1.94016">
        <ele>163.08</ele>
        <time>2015-08-23T10:25:59Z</time>
      </trkpt>
      <trkpt lat="48.68506" lon="1.94007">
        <ele>162.6</ele>
        <time>2015-08-23T10:26:14Z</time>
      </trkpt>
      <trkpt lat="48.68521" lon="1.93997">
        <ele>163.08</ele>
        <time>2015-08-23T10:26:29Z</time>
      </trkpt>
      <trkpt lat="48.68532" lon="1.93983">
        <ele>163.56</ele>
        <time>2015-08-23T10:26:42Z</time>
      </trkpt>
      <trkpt lat="48.68544" lon="1.93967">
        <ele>164.04</ele>
        <time>2015-08-23T10:26:56Z</time>
      </trkpt>
      <trkpt lat="48.68552" lon="1.93954">
        <ele>165.48</ele>
        <time>2015-08-23T10:27:08Z</time>
      </trkpt>
      <trkpt lat="48.68561" lon="1.93943">
        <ele>166.45</ele>
        <time>2015-08-23T10:27:21Z</time>
      </trkpt>
      <trkpt lat="48.68574" lon="1.93931">
        <ele>167.41</ele>
        <time>2015-08-23T10:27:37Z</time>
      </trkpt>
      <trkpt lat="48.68588" lon="1.93927">
        <ele>167.89</ele>
        <time>2015-08-23T10:27:53Z</time>
      </trkpt>
      <trkpt lat="48.68607" lon="1.93917">
        <ele>168.37</ele>
        <time>2015-08-23T10:28:10Z</time>
      </trkpt>
      <trkpt lat="48.68607" lon="1.93917">
        <ele>168.37</ele>
        <time>2015-08-23T10:28:11Z</time>
      </trkpt>
      <trkpt lat="48.6862" lon="1.93905">
        <ele>168.37</ele>
        <time>2015-08-23T10:28:24Z</time>
      </trkpt>
      <trkpt lat="48.68632" lon="1.93898">
        <ele>168.37</ele>
        <time>2015-08-23T10:28:36Z</time>
      </trkpt>
      <trkpt lat="48.68635" lon="1.93898">
        <ele>168.37</ele>
        <time>2015-08-23T10:28:38Z</time>
      </trkpt>
      <trkpt lat="48.68648" lon="1.93901">
        <ele>168.37</ele>
        <time>2015-08-23T10:28:51Z</time>
      </trkpt>
      <trkpt lat="48.68663" lon="1.93915">
        <ele>168.85</ele>
        <time>2015-08-23T10:29:06Z</time>
      </trkpt>
      <trkpt lat="48.68679" lon="1.93919">
        <ele>169.33</ele>
        <time>2015-08-23T10:29:24Z</time>
      </trkpt>
      <trkpt lat="48.68683" lon="1.93919">
        <ele>169.33</ele>
        <time>2015-08-23T10:29:27Z</time>
      </trkpt>
      <trkpt lat="48.68697" lon="1.93927">
        <ele>169.81</ele>
        <time>2015-08-23T10:29:43Z</time>
      </trkpt>
      <trkpt lat="48.68709" lon="1.93936">
        <ele>170.77</ele>
        <time>2015-08-23T10:29:58Z</time>
      </trkpt>
      <trkpt lat="48.68716" lon="1.93955">
        <ele>169.81</ele>
        <time>2015-08-23T10:30:14Z</time>
      </trkpt>
      <trkpt lat="48.68707" lon="1.93973">
        <ele>166.93</ele>
        <time>2015-08-23T10:30:28Z</time>
      </trkpt>
      <trkpt lat="48.68698" lon="1.93991">
        <ele>165.48</ele>
        <time>2015-08-23T10:30:44Z</time>
      </trkpt>
      <trkpt lat="48.68691" lon="1.94002">
        <ele>164.52</ele>
        <time>2015-08-23T10:30:54Z</time>
      </trkpt>
      <trkpt lat="48.68684" lon="1.94023">
        <ele>162.6</ele>
        <time>2015-08-23T10:31:10Z</time>
      </trkpt>
      <trkpt lat="48.68676" lon="1.94039">
        <ele>165</ele>
        <time>2015-08-23T10:31:25Z</time>
      </trkpt>
      <trkpt lat="48.68664" lon="1.94055">
        <ele>166.93</ele>
        <time>2015-08-23T10:31:38Z</time>
      </trkpt>
      <trkpt lat="48.68658" lon="1.94076">
        <ele>168.85</ele>
        <time>2015-08-23T10:31:52Z</time>
      </trkpt>
      <trkpt lat="48.68656" lon="1.94087">
        <ele>169.81</ele>
        <time>2015-08-23T10:32:05Z</time>
      </trkpt>
      <trkpt lat="48.68649" lon="1.94103">
        <ele>169.81</ele>
        <time>2015-08-23T10:32:21Z</time>
      </trkpt>
      <trkpt lat="48.68642" lon="1.9412">
        <ele>169.81</ele>
        <time>2015-08-23T10:32:36Z</time>
      </trkpt>
      <trkpt lat="48.68634" lon="1.94136">
        <ele>169.81</ele>
        <time>2015-08-23T10:32:50Z</time>
      </trkpt>
      <trkpt lat="48.68624" lon="1.94156">
        <ele>168.85</ele>
        <time>2015-08-23T10:33:05Z</time>
      </trkpt>
      <trkpt lat="48.68616" lon="1.9417">
        <ele>167.89</ele>
        <time>2015-08-23T10:33:20Z</time>
      </trkpt>
      <trkpt lat="48.68609" lon="1.94185">
        <ele>166.45</ele>
        <time>2015-08-23T10:33:31Z</time>
      </trkpt>
      <trkpt lat="48.68601" lon="1.94199">
        <ele>163.56</ele>
        <time>2015-08-23T10:33:44Z</time>
      </trkpt>
      <trkpt lat="48.68593" lon="1.94215">
        <ele>161.16</ele>
        <time>2015-08-23T10:33:58Z</time>
      </trkpt>
      <trkpt lat="48.6859" lon="1.94238">
        <ele>158.75</ele>
        <time>2015-08-23T10:34:14Z</time>
      </trkpt>
      <trkpt lat="48.6858" lon="1.94255">
        <ele>160.2</ele>
        <time>2015-08-23T10:34:29Z</time>
      </trkpt>
      <trkpt lat="48.6858" lon="1.94258">
        <ele>161.64</ele>
        <time>2015-08-23T10:34:42Z</time>
      </trkpt>
      <trkpt lat="48.68577" lon="1.9426">
        <ele>162.12</ele>
        <time>2015-08-23T10:34:53Z</time>
      </trkpt>
      <trkpt lat="48.68571" lon="1.94273">
        <ele>163.56</ele>
        <time>2015-08-23T10:35:09Z</time>
      </trkpt>
      <trkpt lat="48.68564" lon="1.94286">
        <ele>166.45</ele>
        <time>2015-08-23T10:35:25Z</time>
      </trkpt>
      <trkpt lat="48.68562" lon="1.94289">
        <ele>166.93</ele>
        <time>2015-08-23T10:35:29Z</time>
      </trkpt>
      <trkpt lat="48.68557" lon="1.943">
        <ele>168.37</ele>
        <time>2015-08-23T10:35:43Z</time>
      </trkpt>
      <trkpt lat="48.68553" lon="1.94309">
        <ele>167.89</ele>
        <time>2015-08-23T10:35:58Z</time>
      </trkpt>
      <trkpt lat="48.68551" lon="1.94323">
        <ele>167.41</ele>
        <time>2015-08-23T10:36:15Z</time>
      </trkpt>
      <trkpt lat="48.68545" lon="1.94342">
        <ele>166.93</ele>
        <time>2015-08-23T10:36:30Z</time>
      </trkpt>
      <trkpt lat="48.68537" lon="1.94357">
        <ele>167.89</ele>
        <time>2015-08-23T10:36:46Z</time>
      </trkpt>
      <trkpt lat="48.68528" lon="1.94376">
        <ele>169.33</ele>
        <time>2015-08-23T10:37:01Z</time>
      </trkpt>
      <trkpt lat="48.68522" lon="1.9439">
        <ele>170.29</ele>
        <time>2015-08-23T10:37:13Z</time>
      </trkpt>
      <trkpt lat="48.6851" lon="1.94415">
        <ele>170.77</ele>
        <time>2015-08-23T10:37:31Z</time>
      </trkpt>
      <trkpt lat="48.68499" lon="1.94441">
        <ele>170.77</ele>
        <time>2015-08-23T10:37:49Z</time>
      </trkpt>
      <trkpt lat="48.68488" lon="1.94462">
        <ele>171.25</ele>
        <time>2015-08-23T10:38:06Z</time>
      </trkpt>
      <trkpt lat="48.68481" lon="1.94481">
        <ele>171.25</ele>
        <time>2015-08-23T10:38:19Z</time>
      </trkpt>
      <trkpt lat="48.68471" lon="1.94505">
        <ele>171.25</ele>
        <time>2015-08-23T10:38:35Z</time>
      </trkpt>
      <trkpt lat="48.68461" lon="1.94527">
        <ele>170.77</ele>
        <time>2015-08-23T10:38:50Z</time>
      </trkpt>
      <trkpt lat="48.68454" lon="1.94541">
        <ele>169.81</ele>
        <time>2015-08-23T10:39:05Z</time>
      </trkpt>
      <trkpt lat="48.68444" lon="1.94557">
        <ele>169.81</ele>
        <time>2015-08-23T10:39:22Z</time>
      </trkpt>
      <trkpt lat="48.68441" lon="1.9457">
        <ele>168.85</ele>
        <time>2015-08-23T10:39:31Z</time>
      </trkpt>
      <trkpt lat="48.68435" lon="1.94585">
        <ele>167.89</ele>
        <time>2015-08-23T10:39:41Z</time>
      </trkpt>
      <trkpt lat="48.68428" lon="1.94604">
        <ele>167.89</ele>
        <time>2015-08-23T10:39:52Z</time>
      </trkpt>
      <trkpt lat="48.68417" lon="1.94624">
        <ele>167.41</ele>
        <time>2015-08-23T10:40:09Z</time>
      </trkpt>
      <trkpt lat="48.68409" lon="1.94643">
        <ele>168.37</ele>
        <time>2015-08-23T10:40:22Z</time>
      </trkpt>
      <trkpt lat="48.68403" lon="1.94651">
        <ele>168.37</ele>
        <time>2015-08-23T10:40:30Z</time>
      </trkpt>
      <trkpt lat="48.68395" lon="1.94675">
        <ele>168.85</ele>
        <time>2015-08-23T10:40:45Z</time>
      </trkpt>
      <trkpt lat="48.68387" lon="1.94694">
        <ele>168.85</ele>
        <time>2015-08-23T10:40:58Z</time>
      </trkpt>
      <trkpt lat="48.68378" lon="1.94713">
        <ele>168.85</ele>
        <time>2015-08-23T10:41:13Z</time>
      </trkpt>
      <trkpt lat="48.6837" lon="1.9473">
        <ele>168.37</ele>
        <time>2015-08-23T10:41:26Z</time>
      </trkpt>
      <trkpt lat="48.6836" lon="1.94751">
        <ele>167.89</ele>
        <time>2015-08-23T10:41:41Z</time>
      </trkpt>
      <trkpt lat="48.68351" lon="1.94773">
        <ele>166.93</ele>
        <time>2015-08-23T10:41:56Z</time>
      </trkpt>
      <trkpt lat="48.6834" lon="1.94796">
        <ele>165.96</ele>
        <time>2015-08-23T10:42:11Z</time>
      </trkpt>
      <trkpt lat="48.68332" lon="1.94814">
        <ele>165.48</ele>
        <time>2015-08-23T10:42:25Z</time>
      </trkpt>
      <trkpt lat="48.68324" lon="1.9483">
        <ele>164.52</ele>
        <time>2015-08-23T10:42:39Z</time>
      </trkpt>
      <trkpt lat="48.68315" lon="1.94852">
        <ele>163.56</ele>
        <time>2015-08-23T10:42:57Z</time>
      </trkpt>
      <trkpt lat="48.68311" lon="1.94867">
        <ele>162.6</ele>
        <time>2015-08-23T10:43:10Z</time>
      </trkpt>
      <trkpt lat="48.68308" lon="1.94883">
        <ele>163.08</ele>
        <time>2015-08-23T10:43:23Z</time>
      </trkpt>
      <trkpt lat="48.68299" lon="1.94892">
        <ele>163.56</ele>
        <time>2015-08-23T10:43:35Z</time>
      </trkpt>
      <trkpt lat="48.68298" lon="1.94894">
        <ele>163.56</ele>
        <time>2015-08-23T10:43:36Z</time>
      </trkpt>
      <trkpt lat="48.6828" lon="1.94904">
        <ele>164.04</ele>
        <time>2015-08-23T10:43:51Z</time>
      </trkpt>
      <trkpt lat="48.6826" lon="1.94909">
        <ele>164.04</ele>
        <time>2015-08-23T10:44:08Z</time>
      </trkpt>
      <trkpt lat="48.68245" lon="1.9492">
        <ele>164.04</ele>
        <time>2015-08-23T10:44:22Z</time>
      </trkpt>
      <trkpt lat="48.68232" lon="1.94929">
        <ele>163.56</ele>
        <time>2015-08-23T10:44:36Z</time>
      </trkpt>
      <trkpt lat="48.68219" lon="1.9494">
        <ele>163.08</ele>
        <time>2015-08-23T10:44:49Z</time>
      </trkpt>
      <trkpt lat="48.68205" lon="1.94955">
        <ele>163.08</ele>
        <time>2015-08-23T10:45:04Z</time>
      </trkpt>
      <trkpt lat="48.68194" lon="1.94968">
        <ele>163.08</ele>
        <time>2015-08-23T10:45:20Z</time>
      </trkpt>
      <trkpt lat="48.68184" lon="1.94986">
        <ele>163.56</ele>
        <time>2015-08-23T10:45:36Z</time>
      </trkpt>
      <trkpt lat="48.68177" lon="1.95">
        <ele>163.08</ele>
        <time>2015-08-23T10:45:49Z</time>
      </trkpt>
      <trkpt lat="48.68166" lon="1.95017">
        <ele>162.6</ele>
        <time>2015-08-23T10:46:03Z</time>
      </trkpt>
      <trkpt lat="48.68157" lon="1.95034">
        <ele>163.08</ele>
        <time>2015-08-23T10:46:19Z</time>
      </trkpt>
      <trkpt lat="48.68147" lon="1.95052">
        <ele>162.6</ele>
        <time>2015-08-23T10:46:34Z</time>
      </trkpt>
      <trkpt lat="48.68138" lon="1.95075">
        <ele>162.6</ele>
        <time>2015-08-23T10:46:51Z</time>
      </trkpt>
      <trkpt lat="48.68132" lon="1.95095">
        <ele>163.56</ele>
        <time>2015-08-23T10:47:05Z</time>
      </trkpt>
      <trkpt lat="48.68128" lon="1.95117">
        <ele>163.56</ele>
        <time>2015-08-23T10:47:18Z</time>
      </trkpt>
      <trkpt lat="48.68132" lon="1.95143">
        <ele>163.56</ele>
        <time>2015-08-23T10:47:34Z</time>
      </trkpt>
      <trkpt lat="48.68136" lon="1.9517">
        <ele>163.56</ele>
        <time>2015-08-23T10:47:51Z</time>
      </trkpt>
      <trkpt lat="48.68134" lon="1.95179">
        <ele>163.08</ele>
        <time>2015-08-23T10:47:57Z</time>
      </trkpt>
      <trkpt lat="48.68127" lon="1.95193">
        <ele>162.6</ele>
        <time>2015-08-23T10:48:11Z</time>
      </trkpt>
      <trkpt lat="48.68117" lon="1.95213">
        <ele>162.6</ele>
        <time>2015-08-23T10:48:26Z</time>
      </trkpt>
      <trkpt lat="48.68109" lon="1.95234">
        <ele>162.6</ele>
        <time>2015-08-23T10:48:42Z</time>
      </trkpt>
      <trkpt lat="48.681" lon="1.95255">
        <ele>162.6</ele>
        <time>2015-08-23T10:48:55Z</time>
      </trkpt>
      <trkpt lat="48.68091" lon="1.95274">
        <ele>163.08</ele>
        <time>2015-08-23T10:49:10Z</time>
      </trkpt>
      <trkpt lat="48.68085" lon="1.95289">
        <ele>162.6</ele>
        <time>2015-08-23T10:49:24Z</time>
      </trkpt>
      <trkpt lat="48.68079" lon="1.95308">
        <ele>162.12</ele>
        <time>2015-08-23T10:49:35Z</time>
      </trkpt>
      <trkpt lat="48.68075" lon="1.95322">
        <ele>162.12</ele>
        <time>2015-08-23T10:49:46Z</time>
      </trkpt>
      <trkpt lat="48.68065" lon="1.95343">
        <ele>162.6</ele>
        <time>2015-08-23T10:50:02Z</time>
      </trkpt>
      <trkpt lat="48.68062" lon="1.95352">
        <ele>162.12</ele>
        <time>2015-08-23T10:50:16Z</time>
      </trkpt>
      <trkpt lat="48.68056" lon="1.95358">
        <ele>162.12</ele>
        <time>2015-08-23T10:50:38Z</time>
      </trkpt>
      <trkpt lat="48.68048" lon="1.95374">
        <ele>163.08</ele>
        <time>2015-08-23T10:50:53Z</time>
      </trkpt>
      <trkpt lat="48.68043" lon="1.95397">
        <ele>163.08</ele>
        <time>2015-08-23T10:51:08Z</time>
      </trkpt>
      <trkpt lat="48.68043" lon="1.954">
        <ele>163.08</ele>
        <time>2015-08-23T10:51:09Z</time>
      </trkpt>
      <trkpt lat="48.68042" lon="1.95428">
        <ele>163.08</ele>
        <time>2015-08-23T10:51:24Z</time>
      </trkpt>
      <trkpt lat="48.68042" lon="1.95449">
        <ele>163.56</ele>
        <time>2015-08-23T10:51:41Z</time>
      </trkpt>
      <trkpt lat="48.68039" lon="1.95471">
        <ele>162.6</ele>
        <time>2015-08-23T10:51:55Z</time>
      </trkpt>
      <trkpt lat="48.68028" lon="1.95491">
        <ele>161.16</ele>
        <time>2015-08-23T10:52:12Z</time>
      </trkpt>
      <trkpt lat="48.68023" lon="1.95511">
        <ele>161.16</ele>
        <time>2015-08-23T10:52:27Z</time>
      </trkpt>
      <trkpt lat="48.68016" lon="1.95531">
        <ele>161.16</ele>
        <time>2015-08-23T10:52:42Z</time>
      </trkpt>
      <trkpt lat="48.68009" lon="1.95551">
        <ele>161.64</ele>
        <time>2015-08-23T10:52:56Z</time>
      </trkpt>
      <trkpt lat="48.68001" lon="1.95575">
        <ele>162.6</ele>
        <time>2015-08-23T10:53:12Z</time>
      </trkpt>
      <trkpt lat="48.68001" lon="1.95576">
        <ele>162.6</ele>
        <time>2015-08-23T10:53:13Z</time>
      </trkpt>
      <trkpt lat="48.67995" lon="1.95597">
        <ele>163.08</ele>
        <time>2015-08-23T10:53:27Z</time>
      </trkpt>
      <trkpt lat="48.67987" lon="1.95619">
        <ele>163.56</ele>
        <time>2015-08-23T10:53:42Z</time>
      </trkpt>
      <trkpt lat="48.6798" lon="1.95637">
        <ele>164.04</ele>
        <time>2015-08-23T10:53:56Z</time>
      </trkpt>
      <trkpt lat="48.67977" lon="1.95645">
        <ele>164.04</ele>
        <time>2015-08-23T10:54:02Z</time>
      </trkpt>
      <trkpt lat="48.67975" lon="1.95649">
        <ele>164.04</ele>
        <time>2015-08-23T10:54:05Z</time>
      </trkpt>
      <trkpt lat="48.67966" lon="1.95674">
        <ele>164.52</ele>
        <time>2015-08-23T10:54:22Z</time>
      </trkpt>
      <trkpt lat="48.6796" lon="1.95694">
        <ele>164.04</ele>
        <time>2015-08-23T10:54:35Z</time>
      </trkpt>
      <trkpt lat="48.67954" lon="1.95713">
        <ele>165</ele>
        <time>2015-08-23T10:54:49Z</time>
      </trkpt>
      <trkpt lat="48.67948" lon="1.95726">
        <ele>165.48</ele>
        <time>2015-08-23T10:54:57Z</time>
      </trkpt>
      <trkpt lat="48.67941" lon="1.95748">
        <ele>165.96</ele>
        <time>2015-08-23T10:55:12Z</time>
      </trkpt>
      <trkpt lat="48.67934" lon="1.95772">
        <ele>166.45</ele>
        <time>2015-08-23T10:55:28Z</time>
      </trkpt>
      <trkpt lat="48.67928" lon="1.95793">
        <ele>165.96</ele>
        <time>2015-08-23T10:55:42Z</time>
      </trkpt>
      <trkpt lat="48.67918" lon="1.95821">
        <ele>165.96</ele>
        <time>2015-08-23T10:55:59Z</time>
      </trkpt>
      <trkpt lat="48.6791" lon="1.95843">
        <ele>165</ele>
        <time>2015-08-23T10:56:13Z</time>
      </trkpt>
      <trkpt lat="48.67908" lon="1.95848">
        <ele>164.52</ele>
        <time>2015-08-23T10:56:17Z</time>
      </trkpt>
      <trkpt lat="48.67901" lon="1.95872">
        <ele>163.56</ele>
        <time>2015-08-23T10:56:31Z</time>
      </trkpt>
      <trkpt lat="48.67896" lon="1.95886">
        <ele>163.08</ele>
        <time>2015-08-23T10:56:45Z</time>
      </trkpt>
      <trkpt lat="48.67891" lon="1.95897">
        <ele>163.08</ele>
        <time>2015-08-23T10:56:59Z</time>
      </trkpt>
      <trkpt lat="48.67882" lon="1.95919">
        <ele>162.12</ele>
        <time>2015-08-23T10:57:17Z</time>
      </trkpt>
      <trkpt lat="48.67881" lon="1.95921">
        <ele>162.12</ele>
        <time>2015-08-23T10:57:21Z</time>
      </trkpt>
      <trkpt lat="48.67876" lon="1.95934">
        <ele>161.64</ele>
        <time>2015-08-23T10:57:30Z</time>
      </trkpt>
      <trkpt lat="48.67864" lon="1.9595">
        <ele>161.16</ele>
        <time>2015-08-23T10:57:44Z</time>
      </trkpt>
      <trkpt lat="48.67855" lon="1.95967">
        <ele>160.68</ele>
        <time>2015-08-23T10:57:58Z</time>
      </trkpt>
      <trkpt lat="48.67847" lon="1.95979">
        <ele>160.2</ele>
        <time>2015-08-23T10:58:11Z</time>
      </trkpt>
      <trkpt lat="48.67838" lon="1.95997">
        <ele>160.2</ele>
        <time>2015-08-23T10:58:24Z</time>
      </trkpt>
      <trkpt lat="48.67828" lon="1.96013">
        <ele>160.2</ele>
        <time>2015-08-23T10:58:38Z</time>
      </trkpt>
      <trkpt lat="48.67819" lon="1.96029">
        <ele>160.2</ele>
        <time>2015-08-23T10:58:51Z</time>
      </trkpt>
      <trkpt lat="48.67808" lon="1.96044">
        <ele>159.24</ele>
        <time>2015-08-23T10:59:05Z</time>
      </trkpt>
      <trkpt lat="48.67804" lon="1.96056">
        <ele>159.72</ele>
        <time>2015-08-23T10:59:20Z</time>
      </trkpt>
      <trkpt lat="48.678" lon="1.96071">
        <ele>160.68</ele>
        <time>2015-08-23T10:59:35Z</time>
      </trkpt>
      <trkpt lat="48.67792" lon="1.96091">
        <ele>161.64</ele>
        <time>2015-08-23T10:59:52Z</time>
      </trkpt>
      <trkpt lat="48.67785" lon="1.9611">
        <ele>161.16</ele>
        <time>2015-08-23T11:00:06Z</time>
      </trkpt>
      <trkpt lat="48.67784" lon="1.96116">
        <ele>161.16</ele>
        <time>2015-08-23T11:00:11Z</time>
      </trkpt>
      <trkpt lat="48.6778" lon="1.96139">
        <ele>161.16</ele>
        <time>2015-08-23T11:00:27Z</time>
      </trkpt>
      <trkpt lat="48.67779" lon="1.96165">
        <ele>162.12</ele>
        <time>2015-08-23T11:00:42Z</time>
      </trkpt>
      <trkpt lat="48.67786" lon="1.96186">
        <ele>161.64</ele>
        <time>2015-08-23T11:00:56Z</time>
      </trkpt>
      <trkpt lat="48.67795" lon="1.96205">
        <ele>160.68</ele>
        <time>2015-08-23T11:01:10Z</time>
      </trkpt>
      <trkpt lat="48.67795" lon="1.96214">
        <ele>160.68</ele>
        <time>2015-08-23T11:01:16Z</time>
      </trkpt>
      <trkpt lat="48.67789" lon="1.96209">
        <ele>159.72</ele>
        <time>2015-08-23T11:01:29Z</time>
      </trkpt>
      <trkpt lat="48.67782" lon="1.96205">
        <ele>157.79</ele>
        <time>2015-08-23T11:01:41Z</time>
      </trkpt>
      <trkpt lat="48.67772" lon="1.96208">
        <ele>154.91</ele>
        <time>2015-08-23T11:01:55Z</time>
      </trkpt>
      <trkpt lat="48.67764" lon="1.96209">
        <ele>152.51</ele>
        <time>2015-08-23T11:02:11Z</time>
      </trkpt>
      <trkpt lat="48.67761" lon="1.962">
        <ele>150.1</ele>
        <time>2015-08-23T11:02:25Z</time>
      </trkpt>
      <trkpt lat="48.67757" lon="1.96196">
        <ele>148.18</ele>
        <time>2015-08-23T11:02:35Z</time>
      </trkpt>
      <trkpt lat="48.67751" lon="1.9619">
        <ele>146.74</ele>
        <time>2015-08-23T11:02:43Z</time>
      </trkpt>
      <trkpt lat="48.67742" lon="1.96184">
        <ele>144.34</ele>
        <time>2015-08-23T11:02:57Z</time>
      </trkpt>
      <trkpt lat="48.67733" lon="1.96186">
        <ele>140.97</ele>
        <time>2015-08-23T11:03:13Z</time>
      </trkpt>
      <trkpt lat="48.67726" lon="1.96189">
        <ele>139.53</ele>
        <time>2015-08-23T11:03:26Z</time>
      </trkpt>
      <trkpt lat="48.67726" lon="1.96197">
        <ele>138.09</ele>
        <time>2015-08-23T11:03:43Z</time>
      </trkpt>
      <trkpt lat="48.6772" lon="1.96209">
        <ele>136.64</ele>
        <time>2015-08-23T11:03:58Z</time>
      </trkpt>
      <trkpt lat="48.67716" lon="1.96215">
        <ele>134.24</ele>
        <time>2015-08-23T11:04:10Z</time>
      </trkpt>
      <trkpt lat="48.67713" lon="1.9622">
        <ele>132.32</ele>
        <time>2015-08-23T11:04:21Z</time>
      </trkpt>
      <trkpt lat="48.67704" lon="1.96228">
        <ele>129.43</ele>
        <time>2015-08-23T11:04:32Z</time>
      </trkpt>
      <trkpt lat="48.67699" lon="1.96237">
        <ele>126.55</ele>
        <time>2015-08-23T11:04:45Z</time>
      </trkpt>
      <trkpt lat="48.67689" lon="1.96243">
        <ele>123.67</ele>
        <time>2015-08-23T11:04:59Z</time>
      </trkpt>
      <trkpt lat="48.67681" lon="1.96251">
        <ele>120.78</ele>
        <time>2015-08-23T11:05:11Z</time>
      </trkpt>
      <trkpt lat="48.67679" lon="1.96261">
        <ele>117.42</ele>
        <time>2015-08-23T11:05:22Z</time>
      </trkpt>
      <trkpt lat="48.67674" lon="1.96254">
        <ele>117.42</ele>
        <time>2015-08-23T11:05:36Z</time>
      </trkpt>
      <trkpt lat="48.67676" lon="1.96254">
        <ele>117.42</ele>
        <time>2015-08-23T11:05:53Z</time>
      </trkpt>
      <trkpt lat="48.6767" lon="1.96249">
        <ele>117.42</ele>
        <time>2015-08-23T11:06:14Z</time>
      </trkpt>
      <trkpt lat="48.67668" lon="1.96245">
        <ele>117.42</ele>
        <time>2015-08-23T11:06:34Z</time>
      </trkpt>
      <trkpt lat="48.67668" lon="1.96242">
        <ele>117.42</ele>
        <time>2015-08-23T11:06:52Z</time>
      </trkpt>
      <trkpt lat="48.6766" lon="1.96232">
        <ele>115.5</ele>
        <time>2015-08-23T11:07:07Z</time>
      </trkpt>
      <trkpt lat="48.67657" lon="1.9622">
        <ele>114.53</ele>
        <time>2015-08-23T11:07:15Z</time>
      </trkpt>
      <trkpt lat="48.67656" lon="1.96202">
        <ele>113.09</ele>
        <time>2015-08-23T11:07:28Z</time>
      </trkpt>
      <trkpt lat="48.67665" lon="1.96194">
        <ele>114.05</ele>
        <time>2015-08-23T11:07:44Z</time>
      </trkpt>
      <trkpt lat="48.6767" lon="1.96194">
        <ele>114.53</ele>
        <time>2015-08-23T11:07:57Z</time>
      </trkpt>
      <trkpt lat="48.6768" lon="1.96188">
        <ele>115.01</ele>
        <time>2015-08-23T11:08:13Z</time>
      </trkpt>
      <trkpt lat="48.67681" lon="1.96164">
        <ele>116.46</ele>
        <time>2015-08-23T11:08:28Z</time>
      </trkpt>
      <trkpt lat="48.67674" lon="1.96127">
        <ele>115.5</ele>
        <time>2015-08-23T11:08:59Z</time>
      </trkpt>
      <trkpt lat="48.67674" lon="1.96128">
        <ele>115.5</ele>
        <time>2015-08-23T11:09:13Z</time>
      </trkpt>
      <trkpt lat="48.67673" lon="1.96115">
        <ele>124.63</ele>
        <time>2015-08-23T11:55:37Z</time>
      </trkpt>
      <trkpt lat="48.67672" lon="1.96119">
        <ele>124.15</ele>
        <time>2015-08-23T11:55:56Z</time>
      </trkpt>
      <trkpt lat="48.67678" lon="1.96109">
        <ele>123.67</ele>
        <time>2015-08-23T11:56:11Z</time>
      </trkpt>
      <trkpt lat="48.67677" lon="1.96106">
        <ele>123.67</ele>
        <time>2015-08-23T11:56:47Z</time>
      </trkpt>
      <trkpt lat="48.67678" lon="1.96097">
        <ele>123.67</ele>
        <time>2015-08-23T11:56:58Z</time>
      </trkpt>
      <trkpt lat="48.6768" lon="1.96081">
        <ele>123.19</ele>
        <time>2015-08-23T11:57:13Z</time>
      </trkpt>
      <trkpt lat="48.67682" lon="1.96062">
        <ele>123.19</ele>
        <time>2015-08-23T11:57:27Z</time>
      </trkpt>
      <trkpt lat="48.67682" lon="1.96052">
        <ele>122.71</ele>
        <time>2015-08-23T11:57:34Z</time>
      </trkpt>
      <trkpt lat="48.6768" lon="1.96029">
        <ele>123.19</ele>
        <time>2015-08-23T11:57:51Z</time>
      </trkpt>
      <trkpt lat="48.67681" lon="1.96009">
        <ele>122.71</ele>
        <time>2015-08-23T11:58:05Z</time>
      </trkpt>
      <trkpt lat="48.67682" lon="1.95995">
        <ele>122.71</ele>
        <time>2015-08-23T11:58:16Z</time>
      </trkpt>
      <trkpt lat="48.67683" lon="1.95992">
        <ele>122.71</ele>
        <time>2015-08-23T11:58:18Z</time>
      </trkpt>
      <trkpt lat="48.67685" lon="1.95979">
        <ele>122.71</ele>
        <time>2015-08-23T11:58:26Z</time>
      </trkpt>
      <trkpt lat="48.67689" lon="1.95958">
        <ele>122.71</ele>
        <time>2015-08-23T11:58:40Z</time>
      </trkpt>
      <trkpt lat="48.6769" lon="1.95945">
        <ele>122.22</ele>
        <time>2015-08-23T11:58:54Z</time>
      </trkpt>
      <trkpt lat="48.67694" lon="1.95921">
        <ele>122.22</ele>
        <time>2015-08-23T11:59:11Z</time>
      </trkpt>
      <trkpt lat="48.67694" lon="1.95913">
        <ele>122.71</ele>
        <time>2015-08-23T11:59:16Z</time>
      </trkpt>
      <trkpt lat="48.67696" lon="1.95908">
        <ele>122.22</ele>
        <time>2015-08-23T11:59:19Z</time>
      </trkpt>
      <trkpt lat="48.67699" lon="1.95899">
        <ele>122.22</ele>
        <time>2015-08-23T11:59:26Z</time>
      </trkpt>
      <trkpt lat="48.67703" lon="1.95894">
        <ele>122.22</ele>
        <time>2015-08-23T11:59:31Z</time>
      </trkpt>
      <trkpt lat="48.67709" lon="1.95874">
        <ele>122.22</ele>
        <time>2015-08-23T11:59:44Z</time>
      </trkpt>
      <trkpt lat="48.67714" lon="1.95867">
        <ele>122.22</ele>
        <time>2015-08-23T11:59:56Z</time>
      </trkpt>
      <trkpt lat="48.67726" lon="1.95849">
        <ele>122.22</ele>
        <time>2015-08-23T12:00:11Z</time>
      </trkpt>
      <trkpt lat="48.67727" lon="1.95848">
        <ele>122.22</ele>
        <time>2015-08-23T12:00:12Z</time>
      </trkpt>
      <trkpt lat="48.67734" lon="1.95827">
        <ele>121.74</ele>
        <time>2015-08-23T12:00:27Z</time>
      </trkpt>
      <trkpt lat="48.67737" lon="1.95818">
        <ele>121.74</ele>
        <time>2015-08-23T12:00:33Z</time>
      </trkpt>
      <trkpt lat="48.67738" lon="1.9581">
        <ele>121.26</ele>
        <time>2015-08-23T12:00:37Z</time>
      </trkpt>
      <trkpt lat="48.67743" lon="1.9579">
        <ele>121.74</ele>
        <time>2015-08-23T12:00:51Z</time>
      </trkpt>
      <trkpt lat="48.67745" lon="1.9577">
        <ele>121.74</ele>
        <time>2015-08-23T12:01:05Z</time>
      </trkpt>
      <trkpt lat="48.6775" lon="1.95759">
        <ele>122.22</ele>
        <time>2015-08-23T12:01:16Z</time>
      </trkpt>
      <trkpt lat="48.67758" lon="1.95744">
        <ele>121.74</ele>
        <time>2015-08-23T12:01:29Z</time>
      </trkpt>
      <trkpt lat="48.6777" lon="1.95727">
        <ele>121.74</ele>
        <time>2015-08-23T12:01:44Z</time>
      </trkpt>
      <trkpt lat="48.67775" lon="1.95721">
        <ele>121.26</ele>
        <time>2015-08-23T12:01:57Z</time>
      </trkpt>
      <trkpt lat="48.67781" lon="1.95716">
        <ele>120.78</ele>
        <time>2015-08-23T12:02:09Z</time>
      </trkpt>
      <trkpt lat="48.67788" lon="1.95697">
        <ele>120.78</ele>
        <time>2015-08-23T12:02:22Z</time>
      </trkpt>
      <trkpt lat="48.67799" lon="1.9568">
        <ele>121.26</ele>
        <time>2015-08-23T12:02:37Z</time>
      </trkpt>
      <trkpt lat="48.67809" lon="1.9567">
        <ele>120.78</ele>
        <time>2015-08-23T12:02:48Z</time>
      </trkpt>
      <trkpt lat="48.67817" lon="1.95654">
        <ele>120.3</ele>
        <time>2015-08-23T12:03:04Z</time>
      </trkpt>
      <trkpt lat="48.67827" lon="1.95646">
        <ele>121.26</ele>
        <time>2015-08-23T12:03:17Z</time>
      </trkpt>
      <trkpt lat="48.67828" lon="1.95645">
        <ele>121.26</ele>
        <time>2015-08-23T12:03:18Z</time>
      </trkpt>
      <trkpt lat="48.67829" lon="1.9564">
        <ele>120.78</ele>
        <time>2015-08-23T12:03:22Z</time>
      </trkpt>
      <trkpt lat="48.67838" lon="1.95624">
        <ele>121.26</ele>
        <time>2015-08-23T12:03:36Z</time>
      </trkpt>
      <trkpt lat="48.67847" lon="1.95615">
        <ele>121.26</ele>
        <time>2015-08-23T12:03:49Z</time>
      </trkpt>
      <trkpt lat="48.67853" lon="1.95598">
        <ele>120.78</ele>
        <time>2015-08-23T12:04:03Z</time>
      </trkpt>
      <trkpt lat="48.67855" lon="1.95586">
        <ele>120.78</ele>
        <time>2015-08-23T12:04:15Z</time>
      </trkpt>
      <trkpt lat="48.67854" lon="1.95566">
        <ele>120.78</ele>
        <time>2015-08-23T12:04:27Z</time>
      </trkpt>
      <trkpt lat="48.67854" lon="1.95558">
        <ele>121.26</ele>
        <time>2015-08-23T12:04:33Z</time>
      </trkpt>
      <trkpt lat="48.67858" lon="1.95532">
        <ele>121.26</ele>
        <time>2015-08-23T12:04:50Z</time>
      </trkpt>
      <trkpt lat="48.67864" lon="1.9551">
        <ele>121.74</ele>
        <time>2015-08-23T12:05:04Z</time>
      </trkpt>
      <trkpt lat="48.67861" lon="1.95474">
        <ele>121.74</ele>
        <time>2015-08-23T12:05:21Z</time>
      </trkpt>
      <trkpt lat="48.67858" lon="1.9545">
        <ele>122.22</ele>
        <time>2015-08-23T12:05:33Z</time>
      </trkpt>
      <trkpt lat="48.67857" lon="1.9542">
        <ele>122.22</ele>
        <time>2015-08-23T12:05:49Z</time>
      </trkpt>
      <trkpt lat="48.67863" lon="1.95411">
        <ele>122.22</ele>
        <time>2015-08-23T12:06:01Z</time>
      </trkpt>
      <trkpt lat="48.67869" lon="1.95387">
        <ele>122.71</ele>
        <time>2015-08-23T12:06:12Z</time>
      </trkpt>
      <trkpt lat="48.67875" lon="1.95361">
        <ele>123.19</ele>
        <time>2015-08-23T12:06:27Z</time>
      </trkpt>
      <trkpt lat="48.67884" lon="1.95339">
        <ele>124.15</ele>
        <time>2015-08-23T12:06:42Z</time>
      </trkpt>
      <trkpt lat="48.67887" lon="1.9533">
        <ele>124.15</ele>
        <time>2015-08-23T12:06:49Z</time>
      </trkpt>
      <trkpt lat="48.679" lon="1.95315">
        <ele>124.63</ele>
        <time>2015-08-23T12:07:04Z</time>
      </trkpt>
      <trkpt lat="48.67911" lon="1.95301">
        <ele>123.67</ele>
        <time>2015-08-23T12:07:19Z</time>
      </trkpt>
      <trkpt lat="48.67912" lon="1.95301">
        <ele>123.67</ele>
        <time>2015-08-23T12:07:20Z</time>
      </trkpt>
      <trkpt lat="48.67923" lon="1.953">
        <ele>125.59</ele>
        <time>2015-08-23T12:07:33Z</time>
      </trkpt>
      <trkpt lat="48.67923" lon="1.95299">
        <ele>123.67</ele>
        <time>2015-08-23T12:07:34Z</time>
      </trkpt>
      <trkpt lat="48.67923" lon="1.95291">
        <ele>123.19</ele>
        <time>2015-08-23T12:07:54Z</time>
      </trkpt>
      <trkpt lat="48.67928" lon="1.95281">
        <ele>123.19</ele>
        <time>2015-08-23T12:08:09Z</time>
      </trkpt>
      <trkpt lat="48.67936" lon="1.95268">
        <ele>123.19</ele>
        <time>2015-08-23T12:08:22Z</time>
      </trkpt>
      <trkpt lat="48.67937" lon="1.95248">
        <ele>123.19</ele>
        <time>2015-08-23T12:08:34Z</time>
      </trkpt>
      <trkpt lat="48.6794" lon="1.95233">
        <ele>122.71</ele>
        <time>2015-08-23T12:08:45Z</time>
      </trkpt>
      <trkpt lat="48.67941" lon="1.9521">
        <ele>122.71</ele>
        <time>2015-08-23T12:09:00Z</time>
      </trkpt>
      <trkpt lat="48.67941" lon="1.95197">
        <ele>119.82</ele>
        <time>2015-08-23T12:09:08Z</time>
      </trkpt>
      <trkpt lat="48.67941" lon="1.95195">
        <ele>123.19</ele>
        <time>2015-08-23T12:09:09Z</time>
      </trkpt>
      <trkpt lat="48.67946" lon="1.95176">
        <ele>123.67</ele>
        <time>2015-08-23T12:09:24Z</time>
      </trkpt>
      <trkpt lat="48.67943" lon="1.95161">
        <ele>123.19</ele>
        <time>2015-08-23T12:09:37Z</time>
      </trkpt>
      <trkpt lat="48.67943" lon="1.95135">
        <ele>122.22</ele>
        <time>2015-08-23T12:09:51Z</time>
      </trkpt>
      <trkpt lat="48.67947" lon="1.9512">
        <ele>122.71</ele>
        <time>2015-08-23T12:10:02Z</time>
      </trkpt>
      <trkpt lat="48.67956" lon="1.951">
        <ele>124.15</ele>
        <time>2015-08-23T12:10:21Z</time>
      </trkpt>
      <trkpt lat="48.67956" lon="1.95096">
        <ele>123.67</ele>
        <time>2015-08-23T12:10:23Z</time>
      </trkpt>
      <trkpt lat="48.67962" lon="1.95085">
        <ele>123.19</ele>
        <time>2015-08-23T12:10:32Z</time>
      </trkpt>
      <trkpt lat="48.67968" lon="1.95074">
        <ele>123.19</ele>
        <time>2015-08-23T12:10:47Z</time>
      </trkpt>
      <trkpt lat="48.67977" lon="1.95043">
        <ele>123.19</ele>
        <time>2015-08-23T12:11:05Z</time>
      </trkpt>
      <trkpt lat="48.67988" lon="1.95028">
        <ele>123.67</ele>
        <time>2015-08-23T12:11:20Z</time>
      </trkpt>
      <trkpt lat="48.67993" lon="1.95016">
        <ele>124.15</ele>
        <time>2015-08-23T12:11:32Z</time>
      </trkpt>
      <trkpt lat="48.68006" lon="1.95003">
        <ele>123.19</ele>
        <time>2015-08-23T12:11:47Z</time>
      </trkpt>
      <trkpt lat="48.68016" lon="1.94996">
        <ele>122.71</ele>
        <time>2015-08-23T12:11:59Z</time>
      </trkpt>
      <trkpt lat="48.68023" lon="1.94988">
        <ele>122.22</ele>
        <time>2015-08-23T12:12:07Z</time>
      </trkpt>
      <trkpt lat="48.68028" lon="1.94981">
        <ele>122.22</ele>
        <time>2015-08-23T12:12:13Z</time>
      </trkpt>
      <trkpt lat="48.6804" lon="1.94976">
        <ele>122.22</ele>
        <time>2015-08-23T12:12:27Z</time>
      </trkpt>
      <trkpt lat="48.68052" lon="1.9497">
        <ele>122.22</ele>
        <time>2015-08-23T12:12:42Z</time>
      </trkpt>
      <trkpt lat="48.68065" lon="1.94958">
        <ele>122.71</ele>
        <time>2015-08-23T12:12:53Z</time>
      </trkpt>
      <trkpt lat="48.68073" lon="1.94946">
        <ele>123.19</ele>
        <time>2015-08-23T12:12:59Z</time>
      </trkpt>
      <trkpt lat="48.68075" lon="1.94938">
        <ele>123.67</ele>
        <time>2015-08-23T12:13:03Z</time>
      </trkpt>
      <trkpt lat="48.68076" lon="1.94936">
        <ele>123.67</ele>
        <time>2015-08-23T12:13:04Z</time>
      </trkpt>
      <trkpt lat="48.68077" lon="1.94935">
        <ele>123.19</ele>
        <time>2015-08-23T12:13:05Z</time>
      </trkpt>
      <trkpt lat="48.68078" lon="1.94933">
        <ele>123.67</ele>
        <time>2015-08-23T12:13:06Z</time>
      </trkpt>
      <trkpt lat="48.68078" lon="1.94931">
        <ele>123.67</ele>
        <time>2015-08-23T12:13:07Z</time>
      </trkpt>
      <trkpt lat="48.68084" lon="1.94904">
        <ele>123.67</ele>
        <time>2015-08-23T12:13:22Z</time>
      </trkpt>
      <trkpt lat="48.68083" lon="1.94892">
        <ele>123.19</ele>
        <time>2015-08-23T12:13:34Z</time>
      </trkpt>
      <trkpt lat="48.68084" lon="1.94883">
        <ele>122.71</ele>
        <time>2015-08-23T12:13:40Z</time>
      </trkpt>
      <trkpt lat="48.68086" lon="1.94873">
        <ele>122.71</ele>
        <time>2015-08-23T12:13:45Z</time>
      </trkpt>
      <trkpt lat="48.68085" lon="1.94855">
        <ele>122.71</ele>
        <time>2015-08-23T12:13:57Z</time>
      </trkpt>
      <trkpt lat="48.68088" lon="1.94841">
        <ele>123.19</ele>
        <time>2015-08-23T12:14:11Z</time>
      </trkpt>
      <trkpt lat="48.68097" lon="1.94821">
        <ele>124.15</ele>
        <time>2015-08-23T12:14:24Z</time>
      </trkpt>
      <trkpt lat="48.68108" lon="1.94805">
        <ele>123.19</ele>
        <time>2015-08-23T12:14:38Z</time>
      </trkpt>
      <trkpt lat="48.68105" lon="1.94799">
        <ele>124.63</ele>
        <time>2015-08-23T12:14:58Z</time>
      </trkpt>
      <trkpt lat="48.68109" lon="1.94788">
        <ele>125.59</ele>
        <time>2015-08-23T12:15:15Z</time>
      </trkpt>
      <trkpt lat="48.68111" lon="1.94772">
        <ele>126.07</ele>
        <time>2015-08-23T12:15:29Z</time>
      </trkpt>
      <trkpt lat="48.68114" lon="1.94758">
        <ele>127.03</ele>
        <time>2015-08-23T12:15:41Z</time>
      </trkpt>
      <trkpt lat="48.68121" lon="1.94746">
        <ele>128.47</ele>
        <time>2015-08-23T12:15:54Z</time>
      </trkpt>
      <trkpt lat="48.68124" lon="1.94743">
        <ele>128.47</ele>
        <time>2015-08-23T12:15:56Z</time>
      </trkpt>
      <trkpt lat="48.68128" lon="1.94736">
        <ele>128.95</ele>
        <time>2015-08-23T12:16:02Z</time>
      </trkpt>
      <trkpt lat="48.68133" lon="1.9472">
        <ele>129.43</ele>
        <time>2015-08-23T12:16:14Z</time>
      </trkpt>
      <trkpt lat="48.68141" lon="1.94693">
        <ele>129.92</ele>
        <time>2015-08-23T12:16:30Z</time>
      </trkpt>
      <trkpt lat="48.68143" lon="1.94668">
        <ele>128.95</ele>
        <time>2015-08-23T12:16:44Z</time>
      </trkpt>
      <trkpt lat="48.6814" lon="1.94646">
        <ele>127.99</ele>
        <time>2015-08-23T12:16:58Z</time>
      </trkpt>
      <trkpt lat="48.68135" lon="1.94624">
        <ele>127.51</ele>
        <time>2015-08-23T12:17:09Z</time>
      </trkpt>
      <trkpt lat="48.68133" lon="1.94616">
        <ele>127.51</ele>
        <time>2015-08-23T12:17:13Z</time>
      </trkpt>
      <trkpt lat="48.68133" lon="1.94615">
        <ele>127.03</ele>
        <time>2015-08-23T12:17:14Z</time>
      </trkpt>
      <trkpt lat="48.68131" lon="1.94593">
        <ele>126.07</ele>
        <time>2015-08-23T12:17:27Z</time>
      </trkpt>
      <trkpt lat="48.68131" lon="1.94585">
        <ele>125.11</ele>
        <time>2015-08-23T12:17:33Z</time>
      </trkpt>
      <trkpt lat="48.68129" lon="1.94566">
        <ele>124.15</ele>
        <time>2015-08-23T12:17:44Z</time>
      </trkpt>
      <trkpt lat="48.68128" lon="1.94544">
        <ele>123.67</ele>
        <time>2015-08-23T12:17:57Z</time>
      </trkpt>
      <trkpt lat="48.68132" lon="1.9452">
        <ele>123.67</ele>
        <time>2015-08-23T12:18:10Z</time>
      </trkpt>
      <trkpt lat="48.68134" lon="1.94508">
        <ele>123.67</ele>
        <time>2015-08-23T12:18:18Z</time>
      </trkpt>
      <trkpt lat="48.68137" lon="1.94503">
        <ele>122.71</ele>
        <time>2015-08-23T12:18:22Z</time>
      </trkpt>
      <trkpt lat="48.68139" lon="1.94499">
        <ele>122.71</ele>
        <time>2015-08-23T12:18:25Z</time>
      </trkpt>
      <trkpt lat="48.6815" lon="1.94482">
        <ele>122.71</ele>
        <time>2015-08-23T12:18:38Z</time>
      </trkpt>
      <trkpt lat="48.68161" lon="1.9447">
        <ele>122.22</ele>
        <time>2015-08-23T12:18:51Z</time>
      </trkpt>
      <trkpt lat="48.6817" lon="1.94461">
        <ele>122.22</ele>
        <time>2015-08-23T12:19:06Z</time>
      </trkpt>
      <trkpt lat="48.68179" lon="1.94458">
        <ele>121.74</ele>
        <time>2015-08-23T12:19:16Z</time>
      </trkpt>
      <trkpt lat="48.68189" lon="1.94458">
        <ele>122.71</ele>
        <time>2015-08-23T12:19:29Z</time>
      </trkpt>
      <trkpt lat="48.68206" lon="1.94453">
        <ele>122.71</ele>
        <time>2015-08-23T12:19:41Z</time>
      </trkpt>
      <trkpt lat="48.6822" lon="1.94448">
        <ele>123.19</ele>
        <time>2015-08-23T12:19:54Z</time>
      </trkpt>
      <trkpt lat="48.68225" lon="1.94434">
        <ele>123.19</ele>
        <time>2015-08-23T12:20:08Z</time>
      </trkpt>
      <trkpt lat="48.68233" lon="1.94425">
        <ele>122.71</ele>
        <time>2015-08-23T12:20:13Z</time>
      </trkpt>
      <trkpt lat="48.68238" lon="1.9441">
        <ele>123.19</ele>
        <time>2015-08-23T12:20:24Z</time>
      </trkpt>
      <trkpt lat="48.68242" lon="1.94402">
        <ele>122.71</ele>
        <time>2015-08-23T12:20:32Z</time>
      </trkpt>
      <trkpt lat="48.68243" lon="1.94398">
        <ele>122.71</ele>
        <time>2015-08-23T12:20:34Z</time>
      </trkpt>
      <trkpt lat="48.68244" lon="1.94393">
        <ele>122.22</ele>
        <time>2015-08-23T12:20:37Z</time>
      </trkpt>
      <trkpt lat="48.68247" lon="1.94389">
        <ele>122.22</ele>
        <time>2015-08-23T12:20:40Z</time>
      </trkpt>
      <trkpt lat="48.68251" lon="1.94381">
        <ele>122.22</ele>
        <time>2015-08-23T12:20:46Z</time>
      </trkpt>
      <trkpt lat="48.68259" lon="1.94357">
        <ele>122.22</ele>
        <time>2015-08-23T12:21:00Z</time>
      </trkpt>
      <trkpt lat="48.68262" lon="1.9434">
        <ele>122.71</ele>
        <time>2015-08-23T12:21:14Z</time>
      </trkpt>
      <trkpt lat="48.68267" lon="1.94321">
        <ele>122.71</ele>
        <time>2015-08-23T12:21:26Z</time>
      </trkpt>
      <trkpt lat="48.68274" lon="1.94299">
        <ele>122.71</ele>
        <time>2015-08-23T12:21:40Z</time>
      </trkpt>
      <trkpt lat="48.68278" lon="1.94282">
        <ele>122.71</ele>
        <time>2015-08-23T12:21:53Z</time>
      </trkpt>
      <trkpt lat="48.68283" lon="1.94264">
        <ele>122.71</ele>
        <time>2015-08-23T12:22:07Z</time>
      </trkpt>
      <trkpt lat="48.68285" lon="1.94265">
        <ele>122.71</ele>
        <time>2015-08-23T12:22:24Z</time>
      </trkpt>
      <trkpt lat="48.68284" lon="1.94263">
        <ele>122.71</ele>
        <time>2015-08-23T12:22:40Z</time>
      </trkpt>
      <trkpt lat="48.68284" lon="1.94256">
        <ele>122.71</ele>
        <time>2015-08-23T12:22:53Z</time>
      </trkpt>
      <trkpt lat="48.68287" lon="1.9425">
        <ele>122.22</ele>
        <time>2015-08-23T12:23:11Z</time>
      </trkpt>
      <trkpt lat="48.68282" lon="1.94254">
        <ele>122.22</ele>
        <time>2015-08-23T12:23:26Z</time>
      </trkpt>
      <trkpt lat="48.68284" lon="1.9425">
        <ele>122.22</ele>
        <time>2015-08-23T12:23:42Z</time>
      </trkpt>
      <trkpt lat="48.68285" lon="1.9424">
        <ele>123.19</ele>
        <time>2015-08-23T12:24:01Z</time>
      </trkpt>
      <trkpt lat="48.68289" lon="1.94219">
        <ele>123.67</ele>
        <time>2015-08-23T12:24:17Z</time>
      </trkpt>
      <trkpt lat="48.68287" lon="1.94212">
        <ele>123.19</ele>
        <time>2015-08-23T12:24:27Z</time>
      </trkpt>
      <trkpt lat="48.68275" lon="1.94209">
        <ele>123.19</ele>
        <time>2015-08-23T12:24:38Z</time>
      </trkpt>
      <trkpt lat="48.68267" lon="1.94207">
        <ele>122.71</ele>
        <time>2015-08-23T12:24:44Z</time>
      </trkpt>
      <trkpt lat="48.68266" lon="1.94206">
        <ele>122.71</ele>
        <time>2015-08-23T12:24:45Z</time>
      </trkpt>
      <trkpt lat="48.68257" lon="1.94206">
        <ele>122.22</ele>
        <time>2015-08-23T12:24:54Z</time>
      </trkpt>
      <trkpt lat="48.68243" lon="1.94203">
        <ele>122.22</ele>
        <time>2015-08-23T12:25:09Z</time>
      </trkpt>
      <trkpt lat="48.68239" lon="1.94203">
        <ele>122.22</ele>
        <time>2015-08-23T12:25:11Z</time>
      </trkpt>
      <trkpt lat="48.68223" lon="1.94199">
        <ele>122.22</ele>
        <time>2015-08-23T12:25:26Z</time>
      </trkpt>
      <trkpt lat="48.68211" lon="1.942">
        <ele>122.71</ele>
        <time>2015-08-23T12:25:40Z</time>
      </trkpt>
      <trkpt lat="48.68199" lon="1.94195">
        <ele>123.19</ele>
        <time>2015-08-23T12:25:53Z</time>
      </trkpt>
      <trkpt lat="48.68188" lon="1.94194">
        <ele>124.15</ele>
        <time>2015-08-23T12:26:06Z</time>
      </trkpt>
      <trkpt lat="48.68175" lon="1.94186">
        <ele>126.07</ele>
        <time>2015-08-23T12:26:20Z</time>
      </trkpt>
      <trkpt lat="48.6817" lon="1.94189">
        <ele>126.07</ele>
        <time>2015-08-23T12:26:34Z</time>
      </trkpt>
      <trkpt lat="48.6817" lon="1.94195">
        <ele>126.07</ele>
        <time>2015-08-23T12:26:57Z</time>
      </trkpt>
      <trkpt lat="48.68169" lon="1.94183">
        <ele>126.07</ele>
        <time>2015-08-23T12:27:10Z</time>
      </trkpt>
      <trkpt lat="48.68158" lon="1.9417">
        <ele>127.51</ele>
        <time>2015-08-23T12:27:24Z</time>
      </trkpt>
      <trkpt lat="48.68153" lon="1.94174">
        <ele>127.99</ele>
        <time>2015-08-23T12:27:37Z</time>
      </trkpt>
      <trkpt lat="48.68151" lon="1.94182">
        <ele>127.99</ele>
        <time>2015-08-23T12:27:42Z</time>
      </trkpt>
      <trkpt lat="48.68146" lon="1.94202">
        <ele>127.03</ele>
        <time>2015-08-23T12:27:57Z</time>
      </trkpt>
      <trkpt lat="48.68143" lon="1.94205">
        <ele>127.51</ele>
        <time>2015-08-23T12:28:13Z</time>
      </trkpt>
      <trkpt lat="48.68143" lon="1.94205">
        <ele>127.99</ele>
        <time>2015-08-23T12:28:20Z</time>
      </trkpt>
      <trkpt lat="48.68131" lon="1.94198">
        <ele>128.47</ele>
        <time>2015-08-23T12:28:36Z</time>
      </trkpt>
      <trkpt lat="48.68119" lon="1.94189">
        <ele>128.47</ele>
        <time>2015-08-23T12:28:51Z</time>
      </trkpt>
      <trkpt lat="48.68109" lon="1.94172">
        <ele>129.43</ele>
        <time>2015-08-23T12:29:05Z</time>
      </trkpt>
      <trkpt lat="48.68094" lon="1.94161">
        <ele>131.36</ele>
        <time>2015-08-23T12:29:20Z</time>
      </trkpt>
      <trkpt lat="48.68083" lon="1.94155">
        <ele>133.28</ele>
        <time>2015-08-23T12:29:34Z</time>
      </trkpt>
      <trkpt lat="48.68072" lon="1.94148">
        <ele>134.72</ele>
        <time>2015-08-23T12:29:49Z</time>
      </trkpt>
      <trkpt lat="48.68067" lon="1.94146">
        <ele>136.16</ele>
        <time>2015-08-23T12:29:59Z</time>
      </trkpt>
      <trkpt lat="48.68059" lon="1.94141">
        <ele>137.13</ele>
        <time>2015-08-23T12:30:11Z</time>
      </trkpt>
      <trkpt lat="48.68045" lon="1.9413">
        <ele>138.57</ele>
        <time>2015-08-23T12:30:26Z</time>
      </trkpt>
      <trkpt lat="48.68028" lon="1.94114">
        <ele>140.01</ele>
        <time>2015-08-23T12:30:43Z</time>
      </trkpt>
      <trkpt lat="48.68017" lon="1.94107">
        <ele>140.49</ele>
        <time>2015-08-23T12:30:56Z</time>
      </trkpt>
      <trkpt lat="48.68012" lon="1.94104">
        <ele>140.49</ele>
        <time>2015-08-23T12:31:10Z</time>
      </trkpt>
      <trkpt lat="48.68001" lon="1.94096">
        <ele>140.01</ele>
        <time>2015-08-23T12:31:24Z</time>
      </trkpt>
      <trkpt lat="48.67996" lon="1.94091">
        <ele>140.01</ele>
        <time>2015-08-23T12:31:35Z</time>
      </trkpt>
      <trkpt lat="48.67988" lon="1.94084">
        <ele>139.53</ele>
        <time>2015-08-23T12:31:49Z</time>
      </trkpt>
      <trkpt lat="48.67983" lon="1.94077">
        <ele>140.01</ele>
        <time>2015-08-23T12:32:02Z</time>
      </trkpt>
      <trkpt lat="48.67973" lon="1.94069">
        <ele>140.01</ele>
        <time>2015-08-23T12:32:15Z</time>
      </trkpt>
      <trkpt lat="48.67962" lon="1.94059">
        <ele>140.01</ele>
        <time>2015-08-23T12:32:29Z</time>
      </trkpt>
      <trkpt lat="48.67954" lon="1.94047">
        <ele>140.01</ele>
        <time>2015-08-23T12:32:43Z</time>
      </trkpt>
      <trkpt lat="48.6794" lon="1.94038">
        <ele>139.53</ele>
        <time>2015-08-23T12:32:56Z</time>
      </trkpt>
      <trkpt lat="48.6793" lon="1.94028">
        <ele>139.53</ele>
        <time>2015-08-23T12:33:09Z</time>
      </trkpt>
      <trkpt lat="48.67919" lon="1.94017">
        <ele>139.53</ele>
        <time>2015-08-23T12:33:22Z</time>
      </trkpt>
      <trkpt lat="48.67906" lon="1.94008">
        <ele>140.97</ele>
        <time>2015-08-23T12:33:38Z</time>
      </trkpt>
      <trkpt lat="48.67894" lon="1.94007">
        <ele>141.93</ele>
        <time>2015-08-23T12:33:52Z</time>
      </trkpt>
      <trkpt lat="48.67888" lon="1.94001">
        <ele>142.41</ele>
        <time>2015-08-23T12:34:00Z</time>
      </trkpt>
      <trkpt lat="48.67881" lon="1.93997">
        <ele>144.34</ele>
        <time>2015-08-23T12:34:12Z</time>
      </trkpt>
      <trkpt lat="48.6788" lon="1.93996">
        <ele>143.85</ele>
        <time>2015-08-23T12:34:14Z</time>
      </trkpt>
      <trkpt lat="48.67871" lon="1.93988">
        <ele>145.3</ele>
        <time>2015-08-23T12:34:28Z</time>
      </trkpt>
      <trkpt lat="48.67866" lon="1.93984">
        <ele>146.74</ele>
        <time>2015-08-23T12:34:41Z</time>
      </trkpt>
      <trkpt lat="48.67864" lon="1.93983">
        <ele>148.18</ele>
        <time>2015-08-23T12:34:56Z</time>
      </trkpt>
      <trkpt lat="48.67863" lon="1.93976">
        <ele>150.1</ele>
        <time>2015-08-23T12:35:11Z</time>
      </trkpt>
      <trkpt lat="48.67857" lon="1.93971">
        <ele>152.03</ele>
        <time>2015-08-23T12:35:28Z</time>
      </trkpt>
      <trkpt lat="48.67849" lon="1.93966">
        <ele>153.47</ele>
        <time>2015-08-23T12:35:41Z</time>
      </trkpt>
      <trkpt lat="48.67839" lon="1.93959">
        <ele>156.35</ele>
        <time>2015-08-23T12:35:57Z</time>
      </trkpt>
      <trkpt lat="48.67832" lon="1.93951">
        <ele>158.27</ele>
        <time>2015-08-23T12:36:09Z</time>
      </trkpt>
      <trkpt lat="48.67828" lon="1.9395">
        <ele>158.75</ele>
        <time>2015-08-23T12:36:23Z</time>
      </trkpt>
      <trkpt lat="48.67824" lon="1.93952">
        <ele>160.68</ele>
        <time>2015-08-23T12:36:37Z</time>
      </trkpt>
      <trkpt lat="48.6782" lon="1.93947">
        <ele>162.6</ele>
        <time>2015-08-23T12:36:50Z</time>
      </trkpt>
      <trkpt lat="48.67815" lon="1.93941">
        <ele>164.04</ele>
        <time>2015-08-23T12:37:07Z</time>
      </trkpt>
      <trkpt lat="48.67811" lon="1.93937">
        <ele>165.96</ele>
        <time>2015-08-23T12:37:23Z</time>
      </trkpt>
      <trkpt lat="48.67807" lon="1.93933">
        <ele>168.85</ele>
        <time>2015-08-23T12:37:41Z</time>
      </trkpt>
      <trkpt lat="48.678" lon="1.93927">
        <ele>170.77</ele>
        <time>2015-08-23T12:37:58Z</time>
      </trkpt>
      <trkpt lat="48.67792" lon="1.93922">
        <ele>171.73</ele>
        <time>2015-08-23T12:38:12Z</time>
      </trkpt>
      <trkpt lat="48.67785" lon="1.93912">
        <ele>173.17</ele>
        <time>2015-08-23T12:38:25Z</time>
      </trkpt>
      <trkpt lat="48.67773" lon="1.93897">
        <ele>175.1</ele>
        <time>2015-08-23T12:38:39Z</time>
      </trkpt>
      <trkpt lat="48.6776" lon="1.93886">
        <ele>175.1</ele>
        <time>2015-08-23T12:38:54Z</time>
      </trkpt>
      <trkpt lat="48.67752" lon="1.93867">
        <ele>175.1</ele>
        <time>2015-08-23T12:39:08Z</time>
      </trkpt>
      <trkpt lat="48.67754" lon="1.93849">
        <ele>175.1</ele>
        <time>2015-08-23T12:39:21Z</time>
      </trkpt>
      <trkpt lat="48.67757" lon="1.93848">
        <ele>175.1</ele>
        <time>2015-08-23T12:39:39Z</time>
      </trkpt>
      <trkpt lat="48.67755" lon="1.93842">
        <ele>175.1</ele>
        <time>2015-08-23T12:39:54Z</time>
      </trkpt>
      <trkpt lat="48.67753" lon="1.93846">
        <ele>175.1</ele>
        <time>2015-08-23T12:40:09Z</time>
      </trkpt>
      <trkpt lat="48.67755" lon="1.93845">
        <ele>175.1</ele>
        <time>2015-08-23T12:40:24Z</time>
      </trkpt>
      <trkpt lat="48.67759" lon="1.9385">
        <ele>175.1</ele>
        <time>2015-08-23T12:40:42Z</time>
      </trkpt>
      <trkpt lat="48.67756" lon="1.93845">
        <ele>175.58</ele>
        <time>2015-08-23T12:41:06Z</time>
      </trkpt>
      <trkpt lat="48.67759" lon="1.93836">
        <ele>175.58</ele>
        <time>2015-08-23T12:41:37Z</time>
      </trkpt>
      <trkpt lat="48.67764" lon="1.93845">
        <ele>175.58</ele>
        <time>2015-08-23T12:41:55Z</time>
      </trkpt>
      <trkpt lat="48.67773" lon="1.93834">
        <ele>175.1</ele>
        <time>2015-08-23T12:42:06Z</time>
      </trkpt>
      <trkpt lat="48.67775" lon="1.93832">
        <ele>175.1</ele>
        <time>2015-08-23T12:42:08Z</time>
      </trkpt>
      <trkpt lat="48.67781" lon="1.93811">
        <ele>175.1</ele>
        <time>2015-08-23T12:42:22Z</time>
      </trkpt>
      <trkpt lat="48.67794" lon="1.93791">
        <ele>175.1</ele>
        <time>2015-08-23T12:42:38Z</time>
      </trkpt>
      <trkpt lat="48.67799" lon="1.93774">
        <ele>175.1</ele>
        <time>2015-08-23T12:42:52Z</time>
      </trkpt>
      <trkpt lat="48.67808" lon="1.93758">
        <ele>175.1</ele>
        <time>2015-08-23T12:43:04Z</time>
      </trkpt>
      <trkpt lat="48.67818" lon="1.93741">
        <ele>174.62</ele>
        <time>2015-08-23T12:43:18Z</time>
      </trkpt>
      <trkpt lat="48.67825" lon="1.93723">
        <ele>175.1</ele>
        <time>2015-08-23T12:43:30Z</time>
      </trkpt>
      <trkpt lat="48.67833" lon="1.93701">
        <ele>175.1</ele>
        <time>2015-08-23T12:43:45Z</time>
      </trkpt>
      <trkpt lat="48.67837" lon="1.93696">
        <ele>175.1</ele>
        <time>2015-08-23T12:43:50Z</time>
      </trkpt>
      <trkpt lat="48.6785" lon="1.93672">
        <ele>175.1</ele>
        <time>2015-08-23T12:44:07Z</time>
      </trkpt>
      <trkpt lat="48.67857" lon="1.93657">
        <ele>175.1</ele>
        <time>2015-08-23T12:44:19Z</time>
      </trkpt>
      <trkpt lat="48.67859" lon="1.93643">
        <ele>175.1</ele>
        <time>2015-08-23T12:44:32Z</time>
      </trkpt>
      <trkpt lat="48.6786" lon="1.93623">
        <ele>175.1</ele>
        <time>2015-08-23T12:44:43Z</time>
      </trkpt>
      <trkpt lat="48.67862" lon="1.93603">
        <ele>175.1</ele>
        <time>2015-08-23T12:44:57Z</time>
      </trkpt>
      <trkpt lat="48.67865" lon="1.93598">
        <ele>175.1</ele>
        <time>2015-08-23T12:45:02Z</time>
      </trkpt>
      <trkpt lat="48.67864" lon="1.93579">
        <ele>175.1</ele>
        <time>2015-08-23T12:45:14Z</time>
      </trkpt>
      <trkpt lat="48.67863" lon="1.9356">
        <ele>175.1</ele>
        <time>2015-08-23T12:45:25Z</time>
      </trkpt>
      <trkpt lat="48.67863" lon="1.93536">
        <ele>175.1</ele>
        <time>2015-08-23T12:45:38Z</time>
      </trkpt>
      <trkpt lat="48.67864" lon="1.93518">
        <ele>175.1</ele>
        <time>2015-08-23T12:45:51Z</time>
      </trkpt>
      <trkpt lat="48.67866" lon="1.93495">
        <ele>175.1</ele>
        <time>2015-08-23T12:46:04Z</time>
      </trkpt>
      <trkpt lat="48.67867" lon="1.93478">
        <ele>174.62</ele>
        <time>2015-08-23T12:46:17Z</time>
      </trkpt>
      <trkpt lat="48.67868" lon="1.93462">
        <ele>174.62</ele>
        <time>2015-08-23T12:46:30Z</time>
      </trkpt>
      <trkpt lat="48.67868" lon="1.93443">
        <ele>174.14</ele>
        <time>2015-08-23T12:46:47Z</time>
      </trkpt>
      <trkpt lat="48.6787" lon="1.93433">
        <ele>174.14</ele>
        <time>2015-08-23T12:46:53Z</time>
      </trkpt>
      <trkpt lat="48.67876" lon="1.93414">
        <ele>174.14</ele>
        <time>2015-08-23T12:47:05Z</time>
      </trkpt>
      <trkpt lat="48.67878" lon="1.93388">
        <ele>174.14</ele>
        <time>2015-08-23T12:47:20Z</time>
      </trkpt>
      <trkpt lat="48.67884" lon="1.93375">
        <ele>174.14</ele>
        <time>2015-08-23T12:47:31Z</time>
      </trkpt>
      <trkpt lat="48.67885" lon="1.93367">
        <ele>173.66</ele>
        <time>2015-08-23T12:47:36Z</time>
      </trkpt>
      <trkpt lat="48.67889" lon="1.93343">
        <ele>173.66</ele>
        <time>2015-08-23T12:47:51Z</time>
      </trkpt>
      <trkpt lat="48.67892" lon="1.93334">
        <ele>173.66</ele>
        <time>2015-08-23T12:47:57Z</time>
      </trkpt>
      <trkpt lat="48.67894" lon="1.93315">
        <ele>173.66</ele>
        <time>2015-08-23T12:48:11Z</time>
      </trkpt>
      <trkpt lat="48.67895" lon="1.93312">
        <ele>173.17</ele>
        <time>2015-08-23T12:48:13Z</time>
      </trkpt>
      <trkpt lat="48.67897" lon="1.93308">
        <ele>173.66</ele>
        <time>2015-08-23T12:48:16Z</time>
      </trkpt>
      <trkpt lat="48.67898" lon="1.93301">
        <ele>173.17</ele>
        <time>2015-08-23T12:48:20Z</time>
      </trkpt>
      <trkpt lat="48.67903" lon="1.93281">
        <ele>172.69</ele>
        <time>2015-08-23T12:48:31Z</time>
      </trkpt>
      <trkpt lat="48.67906" lon="1.93257">
        <ele>172.69</ele>
        <time>2015-08-23T12:48:44Z</time>
      </trkpt>
      <trkpt lat="48.67911" lon="1.93233">
        <ele>173.17</ele>
        <time>2015-08-23T12:48:58Z</time>
      </trkpt>
      <trkpt lat="48.67915" lon="1.93221">
        <ele>172.69</ele>
        <time>2015-08-23T12:49:07Z</time>
      </trkpt>
      <trkpt lat="48.67917" lon="1.93218">
        <ele>172.69</ele>
        <time>2015-08-23T12:49:09Z</time>
      </trkpt>
      <trkpt lat="48.67921" lon="1.93194">
        <ele>172.69</ele>
        <time>2015-08-23T12:49:24Z</time>
      </trkpt>
      <trkpt lat="48.67922" lon="1.93183">
        <ele>172.21</ele>
        <time>2015-08-23T12:49:32Z</time>
      </trkpt>
      <trkpt lat="48.67925" lon="1.93156">
        <ele>172.21</ele>
        <time>2015-08-23T12:49:48Z</time>
      </trkpt>
      <trkpt lat="48.67929" lon="1.93137">
        <ele>172.21</ele>
        <time>2015-08-23T12:50:04Z</time>
      </trkpt>
      <trkpt lat="48.67933" lon="1.93123">
        <ele>172.21</ele>
        <time>2015-08-23T12:50:18Z</time>
      </trkpt>
      <trkpt lat="48.67942" lon="1.93119">
        <ele>171.73</ele>
        <time>2015-08-23T12:50:29Z</time>
      </trkpt>
      <trkpt lat="48.67947" lon="1.93115">
        <ele>171.25</ele>
        <time>2015-08-23T12:50:33Z</time>
      </trkpt>
      <trkpt lat="48.67957" lon="1.93106">
        <ele>171.73</ele>
        <time>2015-08-23T12:50:47Z</time>
      </trkpt>
      <trkpt lat="48.67969" lon="1.93099">
        <ele>171.25</ele>
        <time>2015-08-23T12:51:02Z</time>
      </trkpt>
      <trkpt lat="48.67977" lon="1.9309">
        <ele>171.25</ele>
        <time>2015-08-23T12:51:13Z</time>
      </trkpt>
      <trkpt lat="48.67979" lon="1.93088">
        <ele>171.25</ele>
        <time>2015-08-23T12:51:15Z</time>
      </trkpt>
      <trkpt lat="48.67986" lon="1.93078">
        <ele>171.73</ele>
        <time>2015-08-23T12:51:24Z</time>
      </trkpt>
      <trkpt lat="48.67996" lon="1.93062">
        <ele>171.73</ele>
        <time>2015-08-23T12:51:42Z</time>
      </trkpt>
      <trkpt lat="48.68007" lon="1.93056">
        <ele>172.21</ele>
        <time>2015-08-23T12:51:56Z</time>
      </trkpt>
      <trkpt lat="48.68017" lon="1.93055">
        <ele>172.21</ele>
        <time>2015-08-23T12:52:07Z</time>
      </trkpt>
      <trkpt lat="48.68034" lon="1.93058">
        <ele>172.69</ele>
        <time>2015-08-23T12:52:23Z</time>
      </trkpt>
      <trkpt lat="48.68033" lon="1.93059">
        <ele>172.69</ele>
        <time>2015-08-23T12:52:34Z</time>
      </trkpt>
      <trkpt lat="48.68028" lon="1.93059">
        <ele>172.21</ele>
        <time>2015-08-23T12:52:45Z</time>
      </trkpt>
      <trkpt lat="48.68018" lon="1.93052">
        <ele>171.25</ele>
        <time>2015-08-23T12:52:58Z</time>
      </trkpt>
      <trkpt lat="48.68016" lon="1.93051">
        <ele>172.69</ele>
        <time>2015-08-23T12:53:09Z</time>
      </trkpt>
      <trkpt lat="48.68016" lon="1.93054">
        <ele>171.73</ele>
        <time>2015-08-23T12:53:22Z</time>
      </trkpt>
      <trkpt lat="48.68014" lon="1.93055">
        <ele>172.21</ele>
        <time>2015-08-23T12:53:28Z</time>
      </trkpt>
      <trkpt lat="48.6802" lon="1.93055">
        <ele>172.21</ele>
        <time>2015-08-23T12:53:33Z</time>
      </trkpt>
      <trkpt lat="48.68029" lon="1.93058">
        <ele>172.69</ele>
        <time>2015-08-23T12:53:47Z</time>
      </trkpt>
      <trkpt lat="48.6803" lon="1.93054">
        <ele>172.69</ele>
        <time>2015-08-23T12:53:58Z</time>
      </trkpt>
      <trkpt lat="48.6803" lon="1.93057">
        <ele>173.17</ele>
        <time>2015-08-23T12:54:13Z</time>
      </trkpt>
      <trkpt lat="48.68029" lon="1.93052">
        <ele>172.69</ele>
        <time>2015-08-23T12:54:32Z</time>
      </trkpt>
      <trkpt lat="48.6803" lon="1.93053">
        <ele>173.66</ele>
        <time>2015-08-23T12:54:56Z</time>
      </trkpt>
      <trkpt lat="48.68028" lon="1.93048">
        <ele>173.17</ele>
        <time>2015-08-23T12:55:24Z</time>
      </trkpt>
      <trkpt lat="48.68029" lon="1.9305">
        <ele>173.17</ele>
        <time>2015-08-23T12:55:55Z</time>
      </trkpt>
      <trkpt lat="48.68028" lon="1.93052">
        <ele>173.17</ele>
        <time>2015-08-23T12:56:23Z</time>
      </trkpt>
      <trkpt lat="48.68027" lon="1.93054">
        <ele>172.69</ele>
        <time>2015-08-23T12:56:46Z</time>
      </trkpt>
      <trkpt lat="48.68028" lon="1.93055">
        <ele>173.66</ele>
        <time>2015-08-23T12:56:59Z</time>
      </trkpt>
      <trkpt lat="48.68035" lon="1.93055">
        <ele>173.17</ele>
        <time>2015-08-23T12:57:14Z</time>
      </trkpt>
      <trkpt lat="48.68051" lon="1.93056">
        <ele>173.66</ele>
        <time>2015-08-23T12:57:32Z</time>
      </trkpt>
      <trkpt lat="48.68064" lon="1.93052">
        <ele>174.14</ele>
        <time>2015-08-23T12:57:45Z</time>
      </trkpt>
      <trkpt lat="48.68069" lon="1.93049">
        <ele>174.14</ele>
        <time>2015-08-23T12:57:50Z</time>
      </trkpt>
      <trkpt lat="48.68081" lon="1.93048">
        <ele>173.66</ele>
        <time>2015-08-23T12:58:03Z</time>
      </trkpt>
      <trkpt lat="48.68094" lon="1.93048">
        <ele>173.17</ele>
        <time>2015-08-23T12:58:16Z</time>
      </trkpt>
      <trkpt lat="48.68112" lon="1.93026">
        <ele>173.66</ele>
        <time>2015-08-23T12:58:34Z</time>
      </trkpt>
      <trkpt lat="48.68122" lon="1.93018">
        <ele>173.66</ele>
        <time>2015-08-23T12:58:47Z</time>
      </trkpt>
      <trkpt lat="48.68134" lon="1.93005">
        <ele>173.17</ele>
        <time>2015-08-23T12:59:00Z</time>
      </trkpt>
      <trkpt lat="48.68136" lon="1.93002">
        <ele>173.17</ele>
        <time>2015-08-23T12:59:02Z</time>
      </trkpt>
      <trkpt lat="48.68145" lon="1.9299">
        <ele>173.17</ele>
        <time>2015-08-23T12:59:12Z</time>
      </trkpt>
      <trkpt lat="48.68153" lon="1.9297">
        <ele>173.66</ele>
        <time>2015-08-23T12:59:27Z</time>
      </trkpt>
      <trkpt lat="48.68156" lon="1.92953">
        <ele>173.66</ele>
        <time>2015-08-23T12:59:39Z</time>
      </trkpt>
      <trkpt lat="48.68162" lon="1.92936">
        <ele>173.66</ele>
        <time>2015-08-23T12:59:51Z</time>
      </trkpt>
      <trkpt lat="48.68164" lon="1.92916">
        <ele>172.69</ele>
        <time>2015-08-23T13:00:03Z</time>
      </trkpt>
      <trkpt lat="48.68157" lon="1.92891">
        <ele>172.69</ele>
        <time>2015-08-23T13:00:17Z</time>
      </trkpt>
      <trkpt lat="48.68148" lon="1.9287">
        <ele>172.69</ele>
        <time>2015-08-23T13:00:32Z</time>
      </trkpt>
      <trkpt lat="48.68143" lon="1.92849">
        <ele>173.17</ele>
        <time>2015-08-23T13:00:46Z</time>
      </trkpt>
      <trkpt lat="48.68142" lon="1.92839">
        <ele>172.69</ele>
        <time>2015-08-23T13:00:51Z</time>
      </trkpt>
      <trkpt lat="48.68146" lon="1.92812">
        <ele>173.17</ele>
        <time>2015-08-23T13:01:07Z</time>
      </trkpt>
      <trkpt lat="48.68145" lon="1.9279">
        <ele>173.66</ele>
        <time>2015-08-23T13:01:21Z</time>
      </trkpt>
      <trkpt lat="48.68133" lon="1.92766">
        <ele>174.62</ele>
        <time>2015-08-23T13:01:36Z</time>
      </trkpt>
      <trkpt lat="48.6813" lon="1.92747">
        <ele>174.14</ele>
        <time>2015-08-23T13:01:48Z</time>
      </trkpt>
      <trkpt lat="48.68129" lon="1.92728">
        <ele>174.62</ele>
        <time>2015-08-23T13:02:03Z</time>
      </trkpt>
      <trkpt lat="48.68124" lon="1.92706">
        <ele>175.1</ele>
        <time>2015-08-23T13:02:18Z</time>
      </trkpt>
      <trkpt lat="48.68118" lon="1.92681">
        <ele>175.1</ele>
        <time>2015-08-23T13:02:32Z</time>
      </trkpt>
      <trkpt lat="48.6812" lon="1.92653">
        <ele>175.58</ele>
        <time>2015-08-23T13:02:48Z</time>
      </trkpt>
      <trkpt lat="48.68123" lon="1.92628">
        <ele>175.1</ele>
        <time>2015-08-23T13:03:04Z</time>
      </trkpt>
      <trkpt lat="48.68128" lon="1.92599">
        <ele>175.58</ele>
        <time>2015-08-23T13:03:19Z</time>
      </trkpt>
      <trkpt lat="48.68129" lon="1.92588">
        <ele>176.06</ele>
        <time>2015-08-23T13:03:27Z</time>
      </trkpt>
      <trkpt lat="48.68128" lon="1.9258">
        <ele>175.58</ele>
        <time>2015-08-23T13:03:32Z</time>
      </trkpt>
      <trkpt lat="48.68127" lon="1.92555">
        <ele>175.58</ele>
        <time>2015-08-23T13:03:48Z</time>
      </trkpt>
      <trkpt lat="48.6812" lon="1.92527">
        <ele>174.62</ele>
        <time>2015-08-23T13:04:04Z</time>
      </trkpt>
      <trkpt lat="48.68117" lon="1.92503">
        <ele>174.62</ele>
        <time>2015-08-23T13:04:18Z</time>
      </trkpt>
      <trkpt lat="48.68118" lon="1.92492">
        <ele>174.62</ele>
        <time>2015-08-23T13:04:25Z</time>
      </trkpt>
      <trkpt lat="48.68119" lon="1.92485">
        <ele>175.1</ele>
        <time>2015-08-23T13:04:28Z</time>
      </trkpt>
      <trkpt lat="48.68114" lon="1.92456">
        <ele>174.62</ele>
        <time>2015-08-23T13:04:43Z</time>
      </trkpt>
      <trkpt lat="48.68116" lon="1.92426">
        <ele>174.62</ele>
        <time>2015-08-23T13:04:59Z</time>
      </trkpt>
      <trkpt lat="48.6812" lon="1.92404">
        <ele>175.1</ele>
        <time>2015-08-23T13:05:14Z</time>
      </trkpt>
      <trkpt lat="48.68125" lon="1.92385">
        <ele>175.58</ele>
        <time>2015-08-23T13:05:26Z</time>
      </trkpt>
      <trkpt lat="48.68127" lon="1.92377">
        <ele>175.1</ele>
        <time>2015-08-23T13:05:31Z</time>
      </trkpt>
      <trkpt lat="48.68137" lon="1.92354">
        <ele>174.62</ele>
        <time>2015-08-23T13:05:46Z</time>
      </trkpt>
      <trkpt lat="48.68146" lon="1.92338">
        <ele>174.62</ele>
        <time>2015-08-23T13:05:59Z</time>
      </trkpt>
      <trkpt lat="48.68152" lon="1.92326">
        <ele>172.69</ele>
        <time>2015-08-23T13:06:16Z</time>
      </trkpt>
      <trkpt lat="48.68162" lon="1.92309">
        <ele>174.14</ele>
        <time>2015-08-23T13:06:26Z</time>
      </trkpt>
      <trkpt lat="48.68166" lon="1.92295">
        <ele>174.14</ele>
        <time>2015-08-23T13:06:36Z</time>
      </trkpt>
      <trkpt lat="48.68176" lon="1.92277">
        <ele>174.14</ele>
        <time>2015-08-23T13:06:50Z</time>
      </trkpt>
      <trkpt lat="48.68184" lon="1.92259">
        <ele>174.62</ele>
        <time>2015-08-23T13:07:03Z</time>
      </trkpt>
      <trkpt lat="48.68189" lon="1.92257">
        <ele>174.62</ele>
        <time>2015-08-23T13:07:09Z</time>
      </trkpt>
      <trkpt lat="48.68195" lon="1.92235">
        <ele>174.14</ele>
        <time>2015-08-23T13:07:23Z</time>
      </trkpt>
      <trkpt lat="48.68195" lon="1.92232">
        <ele>174.14</ele>
        <time>2015-08-23T13:07:25Z</time>
      </trkpt>
      <trkpt lat="48.68202" lon="1.92208">
        <ele>174.14</ele>
        <time>2015-08-23T13:07:41Z</time>
      </trkpt>
      <trkpt lat="48.68207" lon="1.92192">
        <ele>173.66</ele>
        <time>2015-08-23T13:07:56Z</time>
      </trkpt>
      <trkpt lat="48.68209" lon="1.92189">
        <ele>173.66</ele>
        <time>2015-08-23T13:08:14Z</time>
      </trkpt>
      <trkpt lat="48.68211" lon="1.92182">
        <ele>173.66</ele>
        <time>2015-08-23T13:08:18Z</time>
      </trkpt>
      <trkpt lat="48.68216" lon="1.92159">
        <ele>173.66</ele>
        <time>2015-08-23T13:08:33Z</time>
      </trkpt>
      <trkpt lat="48.68218" lon="1.92148">
        <ele>173.17</ele>
        <time>2015-08-23T13:08:40Z</time>
      </trkpt>
      <trkpt lat="48.68221" lon="1.92131">
        <ele>172.69</ele>
        <time>2015-08-23T13:08:49Z</time>
      </trkpt>
      <trkpt lat="48.68222" lon="1.92108">
        <ele>173.17</ele>
        <time>2015-08-23T13:09:02Z</time>
      </trkpt>
      <trkpt lat="48.68224" lon="1.92094">
        <ele>173.17</ele>
        <time>2015-08-23T13:09:10Z</time>
      </trkpt>
      <trkpt lat="48.68226" lon="1.92083">
        <ele>173.66</ele>
        <time>2015-08-23T13:09:17Z</time>
      </trkpt>
      <trkpt lat="48.68227" lon="1.92059">
        <ele>173.66</ele>
        <time>2015-08-23T13:09:31Z</time>
      </trkpt>
      <trkpt lat="48.68227" lon="1.92044">
        <ele>173.66</ele>
        <time>2015-08-23T13:09:45Z</time>
      </trkpt>
      <trkpt lat="48.68228" lon="1.92029">
        <ele>171.73</ele>
        <time>2015-08-23T13:09:58Z</time>
      </trkpt>
      <trkpt lat="48.68229" lon="1.92009">
        <ele>173.17</ele>
        <time>2015-08-23T13:10:13Z</time>
      </trkpt>
      <trkpt lat="48.68228" lon="1.91983">
        <ele>172.69</ele>
        <time>2015-08-23T13:10:28Z</time>
      </trkpt>
      <trkpt lat="48.68228" lon="1.91975">
        <ele>173.17</ele>
        <time>2015-08-23T13:10:33Z</time>
      </trkpt>
      <trkpt lat="48.6823" lon="1.91966">
        <ele>173.17</ele>
        <time>2015-08-23T13:10:39Z</time>
      </trkpt>
      <trkpt lat="48.68228" lon="1.91962">
        <ele>173.17</ele>
        <time>2015-08-23T13:10:42Z</time>
      </trkpt>
      <trkpt lat="48.68228" lon="1.91959">
        <ele>172.69</ele>
        <time>2015-08-23T13:10:44Z</time>
      </trkpt>
      <trkpt lat="48.68229" lon="1.91943">
        <ele>172.21</ele>
        <time>2015-08-23T13:10:53Z</time>
      </trkpt>
      <trkpt lat="48.68229" lon="1.91925">
        <ele>171.25</ele>
        <time>2015-08-23T13:11:04Z</time>
      </trkpt>
      <trkpt lat="48.6823" lon="1.91904">
        <ele>170.77</ele>
        <time>2015-08-23T13:11:16Z</time>
      </trkpt>
      <trkpt lat="48.6823" lon="1.91901">
        <ele>171.25</ele>
        <time>2015-08-23T13:11:18Z</time>
      </trkpt>
      <trkpt lat="48.6823" lon="1.91875">
        <ele>171.25</ele>
        <time>2015-08-23T13:11:30Z</time>
      </trkpt>
      <trkpt lat="48.68228" lon="1.91858">
        <ele>171.25</ele>
        <time>2015-08-23T13:11:39Z</time>
      </trkpt>
      <trkpt lat="48.68224" lon="1.91844">
        <ele>170.77</ele>
        <time>2015-08-23T13:11:48Z</time>
      </trkpt>
      <trkpt lat="48.68225" lon="1.91837">
        <ele>171.25</ele>
        <time>2015-08-23T13:11:53Z</time>
      </trkpt>
      <trkpt lat="48.68224" lon="1.91825">
        <ele>171.25</ele>
        <time>2015-08-23T13:11:58Z</time>
      </trkpt>
      <trkpt lat="48.68216" lon="1.91807">
        <ele>171.73</ele>
        <time>2015-08-23T13:12:09Z</time>
      </trkpt>
      <trkpt lat="48.68208" lon="1.91779">
        <ele>171.73</ele>
        <time>2015-08-23T13:12:25Z</time>
      </trkpt>
      <trkpt lat="48.68205" lon="1.91752">
        <ele>171.73</ele>
        <time>2015-08-23T13:12:40Z</time>
      </trkpt>
      <trkpt lat="48.68206" lon="1.91747">
        <ele>171.73</ele>
        <time>2015-08-23T13:12:44Z</time>
      </trkpt>
      <trkpt lat="48.68208" lon="1.91743">
        <ele>172.21</ele>
        <time>2015-08-23T13:12:47Z</time>
      </trkpt>
      <trkpt lat="48.68213" lon="1.91739">
        <ele>172.21</ele>
        <time>2015-08-23T13:12:52Z</time>
      </trkpt>
      <trkpt lat="48.68226" lon="1.91724">
        <ele>171.25</ele>
        <time>2015-08-23T13:13:06Z</time>
      </trkpt>
      <trkpt lat="48.68234" lon="1.91711">
        <ele>171.73</ele>
        <time>2015-08-23T13:13:18Z</time>
      </trkpt>
      <trkpt lat="48.68235" lon="1.9171">
        <ele>172.21</ele>
        <time>2015-08-23T13:13:19Z</time>
      </trkpt>
      <trkpt lat="48.68249" lon="1.91689">
        <ele>171.73</ele>
        <time>2015-08-23T13:13:36Z</time>
      </trkpt>
      <trkpt lat="48.68249" lon="1.91685">
        <ele>171.73</ele>
        <time>2015-08-23T13:13:39Z</time>
      </trkpt>
      <trkpt lat="48.68253" lon="1.91674">
        <ele>172.21</ele>
        <time>2015-08-23T13:13:45Z</time>
      </trkpt>
      <trkpt lat="48.68259" lon="1.91648">
        <ele>172.21</ele>
        <time>2015-08-23T13:13:56Z</time>
      </trkpt>
      <trkpt lat="48.68261" lon="1.91644">
        <ele>172.69</ele>
        <time>2015-08-23T13:13:59Z</time>
      </trkpt>
      <trkpt lat="48.68262" lon="1.91634">
        <ele>172.69</ele>
        <time>2015-08-23T13:14:05Z</time>
      </trkpt>
      <trkpt lat="48.68263" lon="1.91624">
        <ele>172.69</ele>
        <time>2015-08-23T13:14:11Z</time>
      </trkpt>
      <trkpt lat="48.68263" lon="1.91622">
        <ele>172.69</ele>
        <time>2015-08-23T13:14:12Z</time>
      </trkpt>
      <trkpt lat="48.68264" lon="1.91614">
        <ele>172.69</ele>
        <time>2015-08-23T13:14:16Z</time>
      </trkpt>
      <trkpt lat="48.68263" lon="1.91612">
        <ele>172.69</ele>
        <time>2015-08-23T13:14:17Z</time>
      </trkpt>
      <trkpt lat="48.68263" lon="1.9161">
        <ele>172.69</ele>
        <time>2015-08-23T13:14:18Z</time>
      </trkpt>
      <trkpt lat="48.68262" lon="1.91595">
        <ele>173.17</ele>
        <time>2015-08-23T13:14:32Z</time>
      </trkpt>
      <trkpt lat="48.6826" lon="1.9159">
        <ele>173.17</ele>
        <time>2015-08-23T13:14:50Z</time>
      </trkpt>
      <trkpt lat="48.68262" lon="1.91585">
        <ele>173.17</ele>
        <time>2015-08-23T13:15:08Z</time>
      </trkpt>
      <trkpt lat="48.68264" lon="1.91574">
        <ele>173.66</ele>
        <time>2015-08-23T13:15:18Z</time>
      </trkpt>
      <trkpt lat="48.68267" lon="1.91552">
        <ele>173.66</ele>
        <time>2015-08-23T13:15:33Z</time>
      </trkpt>
      <trkpt lat="48.6827" lon="1.91534">
        <ele>173.66</ele>
        <time>2015-08-23T13:15:46Z</time>
      </trkpt>
      <trkpt lat="48.6827" lon="1.91532">
        <ele>174.14</ele>
        <time>2015-08-23T13:15:47Z</time>
      </trkpt>
      <trkpt lat="48.6827" lon="1.91513">
        <ele>174.14</ele>
        <time>2015-08-23T13:16:01Z</time>
      </trkpt>
      <trkpt lat="48.68269" lon="1.9151">
        <ele>174.14</ele>
        <time>2015-08-23T13:16:03Z</time>
      </trkpt>
      <trkpt lat="48.68266" lon="1.91488">
        <ele>174.14</ele>
        <time>2015-08-23T13:16:16Z</time>
      </trkpt>
      <trkpt lat="48.68263" lon="1.91472">
        <ele>174.62</ele>
        <time>2015-08-23T13:16:26Z</time>
      </trkpt>
      <trkpt lat="48.68262" lon="1.91469">
        <ele>174.62</ele>
        <time>2015-08-23T13:16:28Z</time>
      </trkpt>
      <trkpt lat="48.68261" lon="1.91467">
        <ele>175.1</ele>
        <time>2015-08-23T13:16:29Z</time>
      </trkpt>
      <trkpt lat="48.68261" lon="1.91466">
        <ele>174.62</ele>
        <time>2015-08-23T13:16:30Z</time>
      </trkpt>
      <trkpt lat="48.68256" lon="1.91448">
        <ele>174.62</ele>
        <time>2015-08-23T13:16:43Z</time>
      </trkpt>
      <trkpt lat="48.68254" lon="1.91429">
        <ele>174.62</ele>
        <time>2015-08-23T13:16:56Z</time>
      </trkpt>
      <trkpt lat="48.68246" lon="1.91402">
        <ele>174.14</ele>
        <time>2015-08-23T13:17:12Z</time>
      </trkpt>
      <trkpt lat="48.6824" lon="1.91383">
        <ele>174.62</ele>
        <time>2015-08-23T13:17:24Z</time>
      </trkpt>
      <trkpt lat="48.68237" lon="1.9138">
        <ele>174.62</ele>
        <time>2015-08-23T13:17:27Z</time>
      </trkpt>
      <trkpt lat="48.68236" lon="1.91379">
        <ele>174.62</ele>
        <time>2015-08-23T13:17:28Z</time>
      </trkpt>
      <trkpt lat="48.68225" lon="1.91365">
        <ele>174.62</ele>
        <time>2015-08-23T13:17:41Z</time>
      </trkpt>
      <trkpt lat="48.68225" lon="1.91363">
        <ele>175.1</ele>
        <time>2015-08-23T13:17:42Z</time>
      </trkpt>
      <trkpt lat="48.68217" lon="1.91339">
        <ele>174.62</ele>
        <time>2015-08-23T13:17:57Z</time>
      </trkpt>
      <trkpt lat="48.68208" lon="1.91317">
        <ele>174.62</ele>
        <time>2015-08-23T13:18:09Z</time>
      </trkpt>
      <trkpt lat="48.68205" lon="1.91311">
        <ele>174.62</ele>
        <time>2015-08-23T13:18:13Z</time>
      </trkpt>
      <trkpt lat="48.68198" lon="1.913">
        <ele>174.62</ele>
        <time>2015-08-23T13:18:20Z</time>
      </trkpt>
      <trkpt lat="48.68197" lon="1.91297">
        <ele>174.62</ele>
        <time>2015-08-23T13:18:22Z</time>
      </trkpt>
      <trkpt lat="48.6819" lon="1.91283">
        <ele>175.1</ele>
        <time>2015-08-23T13:18:33Z</time>
      </trkpt>
      <trkpt lat="48.68185" lon="1.91269">
        <ele>174.14</ele>
        <time>2015-08-23T13:18:45Z</time>
      </trkpt>
      <trkpt lat="48.68185" lon="1.91267">
        <ele>174.62</ele>
        <time>2015-08-23T13:18:46Z</time>
      </trkpt>
      <trkpt lat="48.68184" lon="1.91265">
        <ele>174.62</ele>
        <time>2015-08-23T13:18:47Z</time>
      </trkpt>
      <trkpt lat="48.68177" lon="1.91249">
        <ele>174.14</ele>
        <time>2015-08-23T13:18:59Z</time>
      </trkpt>
      <trkpt lat="48.68177" lon="1.91247">
        <ele>174.62</ele>
        <time>2015-08-23T13:19:15Z</time>
      </trkpt>
      <trkpt lat="48.6818" lon="1.91239">
        <ele>174.62</ele>
        <time>2015-08-23T13:19:30Z</time>
      </trkpt>
      <trkpt lat="48.68183" lon="1.91247">
        <ele>174.14</ele>
        <time>2015-08-23T13:19:44Z</time>
      </trkpt>
      <trkpt lat="48.68181" lon="1.91245">
        <ele>174.62</ele>
        <time>2015-08-23T13:20:05Z</time>
      </trkpt>
      <trkpt lat="48.68174" lon="1.9125">
        <ele>174.62</ele>
        <time>2015-08-23T13:20:20Z</time>
      </trkpt>
      <trkpt lat="48.68179" lon="1.91242">
        <ele>174.14</ele>
        <time>2015-08-23T13:20:31Z</time>
      </trkpt>
      <trkpt lat="48.68181" lon="1.91239">
        <ele>174.62</ele>
        <time>2015-08-23T13:20:42Z</time>
      </trkpt>
      <trkpt lat="48.68182" lon="1.9124">
        <ele>174.14</ele>
        <time>2015-08-23T13:21:03Z</time>
      </trkpt>
      <trkpt lat="48.68183" lon="1.91241">
        <ele>174.14</ele>
        <time>2015-08-23T13:21:34Z</time>
      </trkpt>
      <trkpt lat="48.68193" lon="1.91226">
        <ele>174.14</ele>
        <time>2015-08-23T13:21:53Z</time>
      </trkpt>
      <trkpt lat="48.68196" lon="1.91223">
        <ele>174.14</ele>
        <time>2015-08-23T13:22:09Z</time>
      </trkpt>
      <trkpt lat="48.68193" lon="1.91229">
        <ele>174.62</ele>
        <time>2015-08-23T13:22:34Z</time>
      </trkpt>
      <trkpt lat="48.68189" lon="1.91232">
        <ele>174.14</ele>
        <time>2015-08-23T13:22:41Z</time>
      </trkpt>
      <trkpt lat="48.68195" lon="1.91234">
        <ele>172.69</ele>
        <time>2015-08-23T13:23:47Z</time>
      </trkpt>
      <trkpt lat="48.68196" lon="1.91234">
        <ele>175.58</ele>
        <time>2015-08-23T13:23:48Z</time>
      </trkpt>
      <trkpt lat="48.68197" lon="1.91234">
        <ele>174.14</ele>
        <time>2015-08-23T13:23:49Z</time>
      </trkpt>
      <trkpt lat="48.68203" lon="1.91225">
        <ele>173.66</ele>
        <time>2015-08-23T13:24:08Z</time>
      </trkpt>
      <trkpt lat="48.68202" lon="1.91224">
        <ele>173.17</ele>
        <time>2015-08-23T13:24:24Z</time>
      </trkpt>
      <trkpt lat="48.68204" lon="1.91216">
        <ele>172.21</ele>
        <time>2015-08-23T13:24:37Z</time>
      </trkpt>
      <trkpt lat="48.68207" lon="1.91201">
        <ele>170.77</ele>
        <time>2015-08-23T13:24:52Z</time>
      </trkpt>
      <trkpt lat="48.68214" lon="1.91188">
        <ele>168.37</ele>
        <time>2015-08-23T13:25:06Z</time>
      </trkpt>
      <trkpt lat="48.68221" lon="1.91178">
        <ele>165.96</ele>
        <time>2015-08-23T13:25:19Z</time>
      </trkpt>
      <trkpt lat="48.6823" lon="1.91169">
        <ele>163.56</ele>
        <time>2015-08-23T13:25:31Z</time>
      </trkpt>
      <trkpt lat="48.6824" lon="1.91159">
        <ele>162.6</ele>
        <time>2015-08-23T13:25:44Z</time>
      </trkpt>
      <trkpt lat="48.68249" lon="1.91147">
        <ele>160.68</ele>
        <time>2015-08-23T13:25:57Z</time>
      </trkpt>
      <trkpt lat="48.68262" lon="1.91141">
        <ele>159.24</ele>
        <time>2015-08-23T13:26:12Z</time>
      </trkpt>
      <trkpt lat="48.68264" lon="1.9114">
        <ele>158.75</ele>
        <time>2015-08-23T13:26:14Z</time>
      </trkpt>
      <trkpt lat="48.68274" lon="1.9113">
        <ele>157.31</ele>
        <time>2015-08-23T13:26:29Z</time>
      </trkpt>
      <trkpt lat="48.6828" lon="1.91127">
        <ele>156.83</ele>
        <time>2015-08-23T13:26:34Z</time>
      </trkpt>
      <trkpt lat="48.68294" lon="1.91131">
        <ele>155.39</ele>
        <time>2015-08-23T13:26:48Z</time>
      </trkpt>
      <trkpt lat="48.68307" lon="1.91135">
        <ele>154.43</ele>
        <time>2015-08-23T13:27:01Z</time>
      </trkpt>
      <trkpt lat="48.68324" lon="1.91135">
        <ele>153.47</ele>
        <time>2015-08-23T13:27:18Z</time>
      </trkpt>
      <trkpt lat="48.68337" lon="1.91134">
        <ele>152.51</ele>
        <time>2015-08-23T13:27:31Z</time>
      </trkpt>
      <trkpt lat="48.68346" lon="1.91133">
        <ele>152.03</ele>
        <time>2015-08-23T13:27:43Z</time>
      </trkpt>
      <trkpt lat="48.68363" lon="1.91135">
        <ele>151.54</ele>
        <time>2015-08-23T13:27:55Z</time>
      </trkpt>
      <trkpt lat="48.68382" lon="1.91132">
        <ele>151.06</ele>
        <time>2015-08-23T13:28:12Z</time>
      </trkpt>
      <trkpt lat="48.68396" lon="1.91124">
        <ele>150.58</ele>
        <time>2015-08-23T13:28:25Z</time>
      </trkpt>
      <trkpt lat="48.6841" lon="1.91116">
        <ele>149.62</ele>
        <time>2015-08-23T13:28:40Z</time>
      </trkpt>
      <trkpt lat="48.68421" lon="1.91103">
        <ele>148.66</ele>
        <time>2015-08-23T13:28:55Z</time>
      </trkpt>
      <trkpt lat="48.68426" lon="1.91097">
        <ele>148.18</ele>
        <time>2015-08-23T13:29:01Z</time>
      </trkpt>
      <trkpt lat="48.68441" lon="1.91086">
        <ele>147.7</ele>
        <time>2015-08-23T13:29:15Z</time>
      </trkpt>
      <trkpt lat="48.68443" lon="1.91083">
        <ele>147.7</ele>
        <time>2015-08-23T13:29:18Z</time>
      </trkpt>
      <trkpt lat="48.68453" lon="1.91068">
        <ele>147.22</ele>
        <time>2015-08-23T13:29:31Z</time>
      </trkpt>
      <trkpt lat="48.68467" lon="1.91055">
        <ele>146.74</ele>
        <time>2015-08-23T13:29:48Z</time>
      </trkpt>
      <trkpt lat="48.6848" lon="1.91052">
        <ele>146.26</ele>
        <time>2015-08-23T13:30:02Z</time>
      </trkpt>
      <trkpt lat="48.68502" lon="1.91048">
        <ele>145.78</ele>
        <time>2015-08-23T13:30:20Z</time>
      </trkpt>
      <trkpt lat="48.6851" lon="1.91047">
        <ele>144.82</ele>
        <time>2015-08-23T13:30:27Z</time>
      </trkpt>
      <trkpt lat="48.68515" lon="1.91045">
        <ele>144.82</ele>
        <time>2015-08-23T13:30:32Z</time>
      </trkpt>
      <trkpt lat="48.68526" lon="1.91042">
        <ele>143.85</ele>
        <time>2015-08-23T13:30:46Z</time>
      </trkpt>
      <trkpt lat="48.68534" lon="1.91043">
        <ele>143.37</ele>
        <time>2015-08-23T13:30:54Z</time>
      </trkpt>
      <trkpt lat="48.68542" lon="1.9104">
        <ele>143.37</ele>
        <time>2015-08-23T13:31:01Z</time>
      </trkpt>
      <trkpt lat="48.68557" lon="1.91046">
        <ele>141.93</ele>
        <time>2015-08-23T13:31:15Z</time>
      </trkpt>
      <trkpt lat="48.68567" lon="1.91054">
        <ele>142.41</ele>
        <time>2015-08-23T13:31:28Z</time>
      </trkpt>
      <trkpt lat="48.6858" lon="1.91061">
        <ele>141.45</ele>
        <time>2015-08-23T13:31:42Z</time>
      </trkpt>
      <trkpt lat="48.68593" lon="1.91072">
        <ele>140.97</ele>
        <time>2015-08-23T13:31:56Z</time>
      </trkpt>
      <trkpt lat="48.68602" lon="1.91081">
        <ele>140.01</ele>
        <time>2015-08-23T13:32:08Z</time>
      </trkpt>
      <trkpt lat="48.68617" lon="1.91079">
        <ele>139.05</ele>
        <time>2015-08-23T13:32:23Z</time>
      </trkpt>
      <trkpt lat="48.68633" lon="1.91077">
        <ele>138.09</ele>
        <time>2015-08-23T13:32:36Z</time>
      </trkpt>
      <trkpt lat="48.68635" lon="1.91077">
        <ele>138.09</ele>
        <time>2015-08-23T13:32:38Z</time>
      </trkpt>
      <trkpt lat="48.68643" lon="1.91074">
        <ele>137.61</ele>
        <time>2015-08-23T13:32:54Z</time>
      </trkpt>
      <trkpt lat="48.68652" lon="1.91067">
        <ele>136.16</ele>
        <time>2015-08-23T13:33:19Z</time>
      </trkpt>
      <trkpt lat="48.68647" lon="1.91059">
        <ele>136.64</ele>
        <time>2015-08-23T13:33:26Z</time>
      </trkpt>
      <trkpt lat="48.68638" lon="1.91049">
        <ele>137.61</ele>
        <time>2015-08-23T13:33:40Z</time>
      </trkpt>
      <trkpt lat="48.68635" lon="1.91041">
        <ele>138.57</ele>
        <time>2015-08-23T13:33:57Z</time>
      </trkpt>
      <trkpt lat="48.6863" lon="1.91035">
        <ele>139.05</ele>
        <time>2015-08-23T13:34:05Z</time>
      </trkpt>
      <trkpt lat="48.68619" lon="1.91015">
        <ele>141.45</ele>
        <time>2015-08-23T13:34:20Z</time>
      </trkpt>
      <trkpt lat="48.68611" lon="1.91">
        <ele>142.41</ele>
        <time>2015-08-23T13:34:33Z</time>
      </trkpt>
      <trkpt lat="48.6861" lon="1.90999">
        <ele>142.89</ele>
        <time>2015-08-23T13:34:34Z</time>
      </trkpt>
      <trkpt lat="48.68603" lon="1.90981">
        <ele>144.34</ele>
        <time>2015-08-23T13:34:47Z</time>
      </trkpt>
      <trkpt lat="48.68595" lon="1.90967">
        <ele>145.78</ele>
        <time>2015-08-23T13:35:01Z</time>
      </trkpt>
      <trkpt lat="48.68586" lon="1.90953">
        <ele>147.7</ele>
        <time>2015-08-23T13:35:15Z</time>
      </trkpt>
      <trkpt lat="48.68576" lon="1.90927">
        <ele>149.62</ele>
        <time>2015-08-23T13:35:33Z</time>
      </trkpt>
      <trkpt lat="48.68574" lon="1.90924">
        <ele>151.06</ele>
        <time>2015-08-23T13:35:36Z</time>
      </trkpt>
      <trkpt lat="48.68569" lon="1.90909">
        <ele>153.47</ele>
        <time>2015-08-23T13:35:51Z</time>
      </trkpt>
      <trkpt lat="48.6857" lon="1.90885">
        <ele>155.39</ele>
        <time>2015-08-23T13:36:09Z</time>
      </trkpt>
      <trkpt lat="48.68573" lon="1.90868">
        <ele>157.79</ele>
        <time>2015-08-23T13:36:24Z</time>
      </trkpt>
      <trkpt lat="48.68573" lon="1.90863">
        <ele>158.75</ele>
        <time>2015-08-23T13:36:29Z</time>
      </trkpt>
      <trkpt lat="48.6858" lon="1.90853">
        <ele>161.16</ele>
        <time>2015-08-23T13:36:43Z</time>
      </trkpt>
      <trkpt lat="48.68589" lon="1.90845">
        <ele>163.08</ele>
        <time>2015-08-23T13:37:00Z</time>
      </trkpt>
      <trkpt lat="48.68594" lon="1.90836">
        <ele>164.52</ele>
        <time>2015-08-23T13:37:18Z</time>
      </trkpt>
      <trkpt lat="48.68594" lon="1.9082">
        <ele>166.45</ele>
        <time>2015-08-23T13:37:32Z</time>
      </trkpt>
      <trkpt lat="48.68602" lon="1.90806">
        <ele>169.33</ele>
        <time>2015-08-23T13:37:47Z</time>
      </trkpt>
      <trkpt lat="48.68605" lon="1.90794">
        <ele>169.81</ele>
        <time>2015-08-23T13:38:02Z</time>
      </trkpt>
      <trkpt lat="48.68601" lon="1.90794">
        <ele>169.81</ele>
        <time>2015-08-23T13:38:15Z</time>
      </trkpt>
      <trkpt lat="48.68601" lon="1.90794">
        <ele>169.81</ele>
        <time>2015-08-23T13:38:28Z</time>
      </trkpt>
      <trkpt lat="48.68602" lon="1.90792">
        <ele>169.81</ele>
        <time>2015-08-23T13:38:42Z</time>
      </trkpt>
      <trkpt lat="48.68602" lon="1.90769">
        <ele>170.29</ele>
        <time>2015-08-23T13:38:58Z</time>
      </trkpt>
      <trkpt lat="48.68601" lon="1.90766">
        <ele>170.29</ele>
        <time>2015-08-23T13:39:00Z</time>
      </trkpt>
      <trkpt lat="48.68603" lon="1.90742">
        <ele>171.25</ele>
        <time>2015-08-23T13:39:16Z</time>
      </trkpt>
      <trkpt lat="48.68605" lon="1.90718">
        <ele>171.73</ele>
        <time>2015-08-23T13:39:34Z</time>
      </trkpt>
      <trkpt lat="48.68602" lon="1.90701">
        <ele>172.21</ele>
        <time>2015-08-23T13:39:47Z</time>
      </trkpt>
      <trkpt lat="48.68602" lon="1.90692">
        <ele>172.69</ele>
        <time>2015-08-23T13:39:53Z</time>
      </trkpt>
      <trkpt lat="48.68606" lon="1.90674">
        <ele>172.21</ele>
        <time>2015-08-23T13:40:08Z</time>
      </trkpt>
      <trkpt lat="48.68605" lon="1.90656">
        <ele>172.69</ele>
        <time>2015-08-23T13:40:24Z</time>
      </trkpt>
      <trkpt lat="48.68608" lon="1.90657">
        <ele>172.69</ele>
        <time>2015-08-23T13:40:44Z</time>
      </trkpt>
      <trkpt lat="48.68605" lon="1.90649">
        <ele>173.17</ele>
        <time>2015-08-23T13:41:03Z</time>
      </trkpt>
      <trkpt lat="48.68606" lon="1.90656">
        <ele>172.69</ele>
        <time>2015-08-23T13:41:16Z</time>
      </trkpt>
      <trkpt lat="48.68604" lon="1.90656">
        <ele>172.69</ele>
        <time>2015-08-23T13:41:31Z</time>
      </trkpt>
      <trkpt lat="48.68608" lon="1.90656">
        <ele>172.69</ele>
        <time>2015-08-23T13:42:00Z</time>
      </trkpt>
      <trkpt lat="48.68601" lon="1.90641">
        <ele>172.69</ele>
        <time>2015-08-23T13:42:19Z</time>
      </trkpt>
      <trkpt lat="48.68603" lon="1.9063">
        <ele>173.17</ele>
        <time>2015-08-23T13:42:33Z</time>
      </trkpt>
      <trkpt lat="48.68604" lon="1.90632">
        <ele>173.17</ele>
        <time>2015-08-23T13:42:47Z</time>
      </trkpt>
      <trkpt lat="48.68603" lon="1.90626">
        <ele>173.17</ele>
        <time>2015-08-23T13:42:58Z</time>
      </trkpt>
      <trkpt lat="48.68602" lon="1.90617">
        <ele>173.17</ele>
        <time>2015-08-23T13:43:12Z</time>
      </trkpt>
      <trkpt lat="48.68602" lon="1.90616">
        <ele>173.17</ele>
        <time>2015-08-23T13:43:40Z</time>
      </trkpt>
      <trkpt lat="48.68598" lon="1.90614">
        <ele>173.17</ele>
        <time>2015-08-23T13:43:57Z</time>
      </trkpt>
      <trkpt lat="48.68604" lon="1.9062">
        <ele>172.69</ele>
        <time>2015-08-23T13:44:16Z</time>
      </trkpt>
      <trkpt lat="48.68603" lon="1.90615">
        <ele>173.17</ele>
        <time>2015-08-23T13:44:30Z</time>
      </trkpt>
      <trkpt lat="48.68602" lon="1.90592">
        <ele>173.17</ele>
        <time>2015-08-23T13:44:45Z</time>
      </trkpt>
      <trkpt lat="48.68602" lon="1.90572">
        <ele>173.17</ele>
        <time>2015-08-23T13:45:00Z</time>
      </trkpt>
      <trkpt lat="48.686" lon="1.90552">
        <ele>172.69</ele>
        <time>2015-08-23T13:45:12Z</time>
      </trkpt>
      <trkpt lat="48.68601" lon="1.90538">
        <ele>173.66</ele>
        <time>2015-08-23T13:45:26Z</time>
      </trkpt>
      <trkpt lat="48.68603" lon="1.90523">
        <ele>173.66</ele>
        <time>2015-08-23T13:45:40Z</time>
      </trkpt>
      <trkpt lat="48.68602" lon="1.90498">
        <ele>173.17</ele>
        <time>2015-08-23T13:45:53Z</time>
      </trkpt>
      <trkpt lat="48.68603" lon="1.90478">
        <ele>173.66</ele>
        <time>2015-08-23T13:46:07Z</time>
      </trkpt>
      <trkpt lat="48.68603" lon="1.90451">
        <ele>173.66</ele>
        <time>2015-08-23T13:46:20Z</time>
      </trkpt>
      <trkpt lat="48.68602" lon="1.90435">
        <ele>173.66</ele>
        <time>2015-08-23T13:46:32Z</time>
      </trkpt>
      <trkpt lat="48.68601" lon="1.90414">
        <ele>173.66</ele>
        <time>2015-08-23T13:46:44Z</time>
      </trkpt>
      <trkpt lat="48.68603" lon="1.90384">
        <ele>173.66</ele>
        <time>2015-08-23T13:47:00Z</time>
      </trkpt>
      <trkpt lat="48.68602" lon="1.90365">
        <ele>174.14</ele>
        <time>2015-08-23T13:47:11Z</time>
      </trkpt>
      <trkpt lat="48.68602" lon="1.90342">
        <ele>174.14</ele>
        <time>2015-08-23T13:47:23Z</time>
      </trkpt>
      <trkpt lat="48.68602" lon="1.90339">
        <ele>173.66</ele>
        <time>2015-08-23T13:47:25Z</time>
      </trkpt>
      <trkpt lat="48.68605" lon="1.90332">
        <ele>174.14</ele>
        <time>2015-08-23T13:47:30Z</time>
      </trkpt>
      <trkpt lat="48.68604" lon="1.90326">
        <ele>174.14</ele>
        <time>2015-08-23T13:47:34Z</time>
      </trkpt>
      <trkpt lat="48.68603" lon="1.90306">
        <ele>174.62</ele>
        <time>2015-08-23T13:47:47Z</time>
      </trkpt>
      <trkpt lat="48.68601" lon="1.90285">
        <ele>174.62</ele>
        <time>2015-08-23T13:48:00Z</time>
      </trkpt>
      <trkpt lat="48.686" lon="1.90264">
        <ele>174.14</ele>
        <time>2015-08-23T13:48:15Z</time>
      </trkpt>
      <trkpt lat="48.68601" lon="1.9026">
        <ele>175.1</ele>
        <time>2015-08-23T13:48:25Z</time>
      </trkpt>
      <trkpt lat="48.68602" lon="1.9026">
        <ele>174.62</ele>
        <time>2015-08-23T13:48:39Z</time>
      </trkpt>
      <trkpt lat="48.686" lon="1.90255">
        <ele>174.62</ele>
        <time>2015-08-23T13:49:02Z</time>
      </trkpt>
      <trkpt lat="48.68604" lon="1.90251">
        <ele>174.62</ele>
        <time>2015-08-23T13:49:25Z</time>
      </trkpt>
      <trkpt lat="48.68601" lon="1.90234">
        <ele>174.62</ele>
        <time>2015-08-23T13:49:39Z</time>
      </trkpt>
      <trkpt lat="48.686" lon="1.90217">
        <ele>175.1</ele>
        <time>2015-08-23T13:49:52Z</time>
      </trkpt>
      <trkpt lat="48.68601" lon="1.9019">
        <ele>175.1</ele>
        <time>2015-08-23T13:50:10Z</time>
      </trkpt>
      <trkpt lat="48.68601" lon="1.90183">
        <ele>175.1</ele>
        <time>2015-08-23T13:50:14Z</time>
      </trkpt>
      <trkpt lat="48.68604" lon="1.90163">
        <ele>175.1</ele>
        <time>2015-08-23T13:50:28Z</time>
      </trkpt>
      <trkpt lat="48.68604" lon="1.90144">
        <ele>175.1</ele>
        <time>2015-08-23T13:50:41Z</time>
      </trkpt>
      <trkpt lat="48.68603" lon="1.90114">
        <ele>174.62</ele>
        <time>2015-08-23T13:50:58Z</time>
      </trkpt>
      <trkpt lat="48.68602" lon="1.90092">
        <ele>174.62</ele>
        <time>2015-08-23T13:51:13Z</time>
      </trkpt>
      <trkpt lat="48.68603" lon="1.90071">
        <ele>174.62</ele>
        <time>2015-08-23T13:51:25Z</time>
      </trkpt>
      <trkpt lat="48.68603" lon="1.90068">
        <ele>174.62</ele>
        <time>2015-08-23T13:51:27Z</time>
      </trkpt>
      <trkpt lat="48.68602" lon="1.90054">
        <ele>174.14</ele>
        <time>2015-08-23T13:51:35Z</time>
      </trkpt>
      <trkpt lat="48.68602" lon="1.90025">
        <ele>174.14</ele>
        <time>2015-08-23T13:51:52Z</time>
      </trkpt>
      <trkpt lat="48.68602" lon="1.90003">
        <ele>174.14</ele>
        <time>2015-08-23T13:52:06Z</time>
      </trkpt>
      <trkpt lat="48.68604" lon="1.89991">
        <ele>174.62</ele>
        <time>2015-08-23T13:52:14Z</time>
      </trkpt>
      <trkpt lat="48.68605" lon="1.89988">
        <ele>174.62</ele>
        <time>2015-08-23T13:52:16Z</time>
      </trkpt>
      <trkpt lat="48.68604" lon="1.89962">
        <ele>174.62</ele>
        <time>2015-08-23T13:52:31Z</time>
      </trkpt>
      <trkpt lat="48.68604" lon="1.89934">
        <ele>174.62</ele>
        <time>2015-08-23T13:52:48Z</time>
      </trkpt>
      <trkpt lat="48.68604" lon="1.89914">
        <ele>174.62</ele>
        <time>2015-08-23T13:53:00Z</time>
      </trkpt>
      <trkpt lat="48.68604" lon="1.89886">
        <ele>174.62</ele>
        <time>2015-08-23T13:53:16Z</time>
      </trkpt>
      <trkpt lat="48.68604" lon="1.89865">
        <ele>175.1</ele>
        <time>2015-08-23T13:53:30Z</time>
      </trkpt>
      <trkpt lat="48.68604" lon="1.89834">
        <ele>175.1</ele>
        <time>2015-08-23T13:53:47Z</time>
      </trkpt>
      <trkpt lat="48.68603" lon="1.89814">
        <ele>174.62</ele>
        <time>2015-08-23T13:54:00Z</time>
      </trkpt>
      <trkpt lat="48.68602" lon="1.89805">
        <ele>174.62</ele>
        <time>2015-08-23T13:54:06Z</time>
      </trkpt>
      <trkpt lat="48.68602" lon="1.89774">
        <ele>175.1</ele>
        <time>2015-08-23T13:54:24Z</time>
      </trkpt>
      <trkpt lat="48.68602" lon="1.89752">
        <ele>175.1</ele>
        <time>2015-08-23T13:54:39Z</time>
      </trkpt>
      <trkpt lat="48.68603" lon="1.89723">
        <ele>175.1</ele>
        <time>2015-08-23T13:54:57Z</time>
      </trkpt>
      <trkpt lat="48.68603" lon="1.89698">
        <ele>175.58</ele>
        <time>2015-08-23T13:55:15Z</time>
      </trkpt>
      <trkpt lat="48.68601" lon="1.89672">
        <ele>174.62</ele>
        <time>2015-08-23T13:55:28Z</time>
      </trkpt>
      <trkpt lat="48.686" lon="1.89648">
        <ele>174.62</ele>
        <time>2015-08-23T13:55:45Z</time>
      </trkpt>
      <trkpt lat="48.68602" lon="1.89615">
        <ele>175.1</ele>
        <time>2015-08-23T13:56:02Z</time>
      </trkpt>
      <trkpt lat="48.68601" lon="1.89592">
        <ele>174.62</ele>
        <time>2015-08-23T13:56:17Z</time>
      </trkpt>
      <trkpt lat="48.68601" lon="1.89566">
        <ele>175.1</ele>
        <time>2015-08-23T13:56:34Z</time>
      </trkpt>
      <trkpt lat="48.68601" lon="1.89562">
        <ele>175.1</ele>
        <time>2015-08-23T13:56:36Z</time>
      </trkpt>
      <trkpt lat="48.68603" lon="1.89541">
        <ele>175.1</ele>
        <time>2015-08-23T13:56:49Z</time>
      </trkpt>
      <trkpt lat="48.68605" lon="1.89513">
        <ele>175.1</ele>
        <time>2015-08-23T13:57:06Z</time>
      </trkpt>
      <trkpt lat="48.68601" lon="1.89479">
        <ele>175.58</ele>
        <time>2015-08-23T13:57:22Z</time>
      </trkpt>
      <trkpt lat="48.68601" lon="1.89466">
        <ele>176.06</ele>
        <time>2015-08-23T13:57:34Z</time>
      </trkpt>
      <trkpt lat="48.68601" lon="1.89453">
        <ele>175.58</ele>
        <time>2015-08-23T13:57:49Z</time>
      </trkpt>
      <trkpt lat="48.68602" lon="1.89431">
        <ele>176.06</ele>
        <time>2015-08-23T13:58:04Z</time>
      </trkpt>
      <trkpt lat="48.68604" lon="1.89407">
        <ele>176.06</ele>
        <time>2015-08-23T13:58:19Z</time>
      </trkpt>
      <trkpt lat="48.68601" lon="1.8939">
        <ele>176.06</ele>
        <time>2015-08-23T13:58:27Z</time>
      </trkpt>
      <trkpt lat="48.68601" lon="1.89362">
        <ele>176.06</ele>
        <time>2015-08-23T13:58:43Z</time>
      </trkpt>
      <trkpt lat="48.68602" lon="1.89333">
        <ele>175.58</ele>
        <time>2015-08-23T13:58:59Z</time>
      </trkpt>
      <trkpt lat="48.686" lon="1.89299">
        <ele>176.06</ele>
        <time>2015-08-23T13:59:19Z</time>
      </trkpt>
      <trkpt lat="48.68602" lon="1.89276">
        <ele>176.06</ele>
        <time>2015-08-23T13:59:36Z</time>
      </trkpt>
      <trkpt lat="48.68601" lon="1.89244">
        <ele>176.06</ele>
        <time>2015-08-23T13:59:54Z</time>
      </trkpt>
      <trkpt lat="48.68603" lon="1.89211">
        <ele>175.58</ele>
        <time>2015-08-23T14:00:12Z</time>
      </trkpt>
      <trkpt lat="48.68603" lon="1.89187">
        <ele>175.58</ele>
        <time>2015-08-23T14:00:27Z</time>
      </trkpt>
      <trkpt lat="48.68606" lon="1.89185">
        <ele>175.1</ele>
        <time>2015-08-23T14:00:40Z</time>
      </trkpt>
      <trkpt lat="48.68608" lon="1.89187">
        <ele>175.58</ele>
        <time>2015-08-23T14:01:09Z</time>
      </trkpt>
      <trkpt lat="48.68611" lon="1.89189">
        <ele>175.58</ele>
        <time>2015-08-23T14:01:34Z</time>
      </trkpt>
      <trkpt lat="48.68609" lon="1.89191">
        <ele>175.1</ele>
        <time>2015-08-23T14:01:49Z</time>
      </trkpt>
      <trkpt lat="48.68616" lon="1.89187">
        <ele>175.58</ele>
        <time>2015-08-23T14:02:14Z</time>
      </trkpt>
      <trkpt lat="48.68619" lon="1.89195">
        <ele>175.1</ele>
        <time>2015-08-23T14:02:39Z</time>
      </trkpt>
      <trkpt lat="48.68618" lon="1.89203">
        <ele>175.1</ele>
        <time>2015-08-23T14:02:54Z</time>
      </trkpt>
      <trkpt lat="48.68619" lon="1.89202">
        <ele>175.58</ele>
        <time>2015-08-23T14:03:12Z</time>
      </trkpt>
      <trkpt lat="48.68621" lon="1.89203">
        <ele>175.1</ele>
        <time>2015-08-23T14:03:36Z</time>
      </trkpt>
      <trkpt lat="48.68628" lon="1.89213">
        <ele>175.58</ele>
        <time>2015-08-23T14:03:49Z</time>
      </trkpt>
      <trkpt lat="48.68641" lon="1.89229">
        <ele>175.58</ele>
        <time>2015-08-23T14:04:04Z</time>
      </trkpt>
      <trkpt lat="48.68644" lon="1.89234">
        <ele>175.58</ele>
        <time>2015-08-23T14:04:07Z</time>
      </trkpt>
      <trkpt lat="48.68655" lon="1.89248">
        <ele>175.58</ele>
        <time>2015-08-23T14:04:22Z</time>
      </trkpt>
      <trkpt lat="48.68665" lon="1.89259">
        <ele>175.1</ele>
        <time>2015-08-23T14:04:34Z</time>
      </trkpt>
      <trkpt lat="48.68676" lon="1.89268">
        <ele>175.1</ele>
        <time>2015-08-23T14:04:48Z</time>
      </trkpt>
      <trkpt lat="48.68691" lon="1.8928">
        <ele>175.58</ele>
        <time>2015-08-23T14:05:03Z</time>
      </trkpt>
      <trkpt lat="48.68704" lon="1.89292">
        <ele>174.62</ele>
        <time>2015-08-23T14:05:19Z</time>
      </trkpt>
      <trkpt lat="48.68717" lon="1.89305">
        <ele>174.62</ele>
        <time>2015-08-23T14:05:31Z</time>
      </trkpt>
      <trkpt lat="48.68735" lon="1.89317">
        <ele>174.14</ele>
        <time>2015-08-23T14:05:47Z</time>
      </trkpt>
      <trkpt lat="48.68749" lon="1.89321">
        <ele>174.14</ele>
        <time>2015-08-23T14:06:00Z</time>
      </trkpt>
      <trkpt lat="48.68763" lon="1.89327">
        <ele>174.14</ele>
        <time>2015-08-23T14:06:14Z</time>
      </trkpt>
      <trkpt lat="48.68781" lon="1.89334">
        <ele>173.66</ele>
        <time>2015-08-23T14:06:29Z</time>
      </trkpt>
      <trkpt lat="48.68797" lon="1.89338">
        <ele>173.66</ele>
        <time>2015-08-23T14:06:46Z</time>
      </trkpt>
      <trkpt lat="48.68816" lon="1.89342">
        <ele>173.66</ele>
        <time>2015-08-23T14:07:02Z</time>
      </trkpt>
      <trkpt lat="48.68832" lon="1.89342">
        <ele>173.66</ele>
        <time>2015-08-23T14:07:17Z</time>
      </trkpt>
      <trkpt lat="48.68854" lon="1.89343">
        <ele>173.66</ele>
        <time>2015-08-23T14:07:36Z</time>
      </trkpt>
      <trkpt lat="48.68877" lon="1.89347">
        <ele>173.66</ele>
        <time>2015-08-23T14:07:54Z</time>
      </trkpt>
      <trkpt lat="48.68894" lon="1.89348">
        <ele>173.66</ele>
        <time>2015-08-23T14:08:11Z</time>
      </trkpt>
      <trkpt lat="48.68911" lon="1.89345">
        <ele>173.66</ele>
        <time>2015-08-23T14:08:28Z</time>
      </trkpt>
      <trkpt lat="48.68925" lon="1.89344">
        <ele>173.66</ele>
        <time>2015-08-23T14:08:42Z</time>
      </trkpt>
      <trkpt lat="48.68944" lon="1.89341">
        <ele>173.66</ele>
        <time>2015-08-23T14:08:59Z</time>
      </trkpt>
      <trkpt lat="48.6896" lon="1.89343">
        <ele>173.66</ele>
        <time>2015-08-23T14:09:17Z</time>
      </trkpt>
      <trkpt lat="48.68976" lon="1.89353">
        <ele>173.66</ele>
        <time>2015-08-23T14:09:32Z</time>
      </trkpt>
      <trkpt lat="48.68992" lon="1.8936">
        <ele>173.66</ele>
        <time>2015-08-23T14:09:46Z</time>
      </trkpt>
      <trkpt lat="48.69004" lon="1.89367">
        <ele>173.66</ele>
        <time>2015-08-23T14:09:58Z</time>
      </trkpt>
      <trkpt lat="48.69024" lon="1.89376">
        <ele>173.66</ele>
        <time>2015-08-23T14:10:13Z</time>
      </trkpt>
      <trkpt lat="48.6904" lon="1.89385">
        <ele>174.14</ele>
        <time>2015-08-23T14:10:29Z</time>
      </trkpt>
      <trkpt lat="48.69055" lon="1.89395">
        <ele>173.66</ele>
        <time>2015-08-23T14:10:45Z</time>
      </trkpt>
      <trkpt lat="48.69068" lon="1.89404">
        <ele>174.14</ele>
        <time>2015-08-23T14:10:59Z</time>
      </trkpt>
      <trkpt lat="48.69084" lon="1.8941">
        <ele>174.14</ele>
        <time>2015-08-23T14:11:14Z</time>
      </trkpt>
      <trkpt lat="48.691" lon="1.89418">
        <ele>174.62</ele>
        <time>2015-08-23T14:11:27Z</time>
      </trkpt>
      <trkpt lat="48.69113" lon="1.89426">
        <ele>174.14</ele>
        <time>2015-08-23T14:11:41Z</time>
      </trkpt>
      <trkpt lat="48.69126" lon="1.89435">
        <ele>174.14</ele>
        <time>2015-08-23T14:11:56Z</time>
      </trkpt>
      <trkpt lat="48.69139" lon="1.89441">
        <ele>174.14</ele>
        <time>2015-08-23T14:12:09Z</time>
      </trkpt>
      <trkpt lat="48.69156" lon="1.89448">
        <ele>174.14</ele>
        <time>2015-08-23T14:12:24Z</time>
      </trkpt>
      <trkpt lat="48.69172" lon="1.89456">
        <ele>173.66</ele>
        <time>2015-08-23T14:12:42Z</time>
      </trkpt>
      <trkpt lat="48.69193" lon="1.8947">
        <ele>173.66</ele>
        <time>2015-08-23T14:12:58Z</time>
      </trkpt>
      <trkpt lat="48.69209" lon="1.89477">
        <ele>173.66</ele>
        <time>2015-08-23T14:13:15Z</time>
      </trkpt>
      <trkpt lat="48.69224" lon="1.89486">
        <ele>173.66</ele>
        <time>2015-08-23T14:13:30Z</time>
      </trkpt>
      <trkpt lat="48.69241" lon="1.89497">
        <ele>173.66</ele>
        <time>2015-08-23T14:13:45Z</time>
      </trkpt>
      <trkpt lat="48.69259" lon="1.89505">
        <ele>173.17</ele>
        <time>2015-08-23T14:14:01Z</time>
      </trkpt>
      <trkpt lat="48.69273" lon="1.89513">
        <ele>172.69</ele>
        <time>2015-08-23T14:14:16Z</time>
      </trkpt>
      <trkpt lat="48.69287" lon="1.89521">
        <ele>172.69</ele>
        <time>2015-08-23T14:14:29Z</time>
      </trkpt>
      <trkpt lat="48.69304" lon="1.89529">
        <ele>172.21</ele>
        <time>2015-08-23T14:14:45Z</time>
      </trkpt>
      <trkpt lat="48.6932" lon="1.89536">
        <ele>171.73</ele>
        <time>2015-08-23T14:15:01Z</time>
      </trkpt>
      <trkpt lat="48.69335" lon="1.89543">
        <ele>171.73</ele>
        <time>2015-08-23T14:15:15Z</time>
      </trkpt>
      <trkpt lat="48.69352" lon="1.89553">
        <ele>171.25</ele>
        <time>2015-08-23T14:15:32Z</time>
      </trkpt>
      <trkpt lat="48.69369" lon="1.89563">
        <ele>170.77</ele>
        <time>2015-08-23T14:15:48Z</time>
      </trkpt>
      <trkpt lat="48.69383" lon="1.89568">
        <ele>170.29</ele>
        <time>2015-08-23T14:16:02Z</time>
      </trkpt>
      <trkpt lat="48.694" lon="1.89576">
        <ele>169.81</ele>
        <time>2015-08-23T14:16:17Z</time>
      </trkpt>
      <trkpt lat="48.69416" lon="1.89585">
        <ele>169.33</ele>
        <time>2015-08-23T14:16:32Z</time>
      </trkpt>
      <trkpt lat="48.69426" lon="1.89587">
        <ele>169.81</ele>
        <time>2015-08-23T14:16:41Z</time>
      </trkpt>
      <trkpt lat="48.69429" lon="1.89588">
        <ele>169.81</ele>
        <time>2015-08-23T14:16:44Z</time>
      </trkpt>
      <trkpt lat="48.69433" lon="1.89591">
        <ele>169.81</ele>
        <time>2015-08-23T14:16:48Z</time>
      </trkpt>
      <trkpt lat="48.6945" lon="1.89597">
        <ele>169.33</ele>
        <time>2015-08-23T14:17:04Z</time>
      </trkpt>
      <trkpt lat="48.69467" lon="1.89603">
        <ele>168.85</ele>
        <time>2015-08-23T14:17:21Z</time>
      </trkpt>
      <trkpt lat="48.6948" lon="1.89615">
        <ele>168.37</ele>
        <time>2015-08-23T14:17:36Z</time>
      </trkpt>
      <trkpt lat="48.69504" lon="1.89622">
        <ele>168.37</ele>
        <time>2015-08-23T14:17:56Z</time>
      </trkpt>
      <trkpt lat="48.69519" lon="1.89628">
        <ele>167.89</ele>
        <time>2015-08-23T14:18:10Z</time>
      </trkpt>
      <trkpt lat="48.69528" lon="1.89631">
        <ele>167.89</ele>
        <time>2015-08-23T14:18:18Z</time>
      </trkpt>
      <trkpt lat="48.69546" lon="1.89638">
        <ele>167.41</ele>
        <time>2015-08-23T14:18:36Z</time>
      </trkpt>
      <trkpt lat="48.6955" lon="1.89638">
        <ele>166.93</ele>
        <time>2015-08-23T14:18:40Z</time>
      </trkpt>
      <trkpt lat="48.69561" lon="1.89633">
        <ele>165.96</ele>
        <time>2015-08-23T14:18:57Z</time>
      </trkpt>
      <trkpt lat="48.69565" lon="1.8963">
        <ele>165</ele>
        <time>2015-08-23T14:19:22Z</time>
      </trkpt>
      <trkpt lat="48.69588" lon="1.89617">
        <ele>163.08</ele>
        <time>2015-08-23T14:19:45Z</time>
      </trkpt>
      <trkpt lat="48.69603" lon="1.89616">
        <ele>161.16</ele>
        <time>2015-08-23T14:20:03Z</time>
      </trkpt>
      <trkpt lat="48.69621" lon="1.89616">
        <ele>159.24</ele>
        <time>2015-08-23T14:20:21Z</time>
      </trkpt>
      <trkpt lat="48.69637" lon="1.89613">
        <ele>156.83</ele>
        <time>2015-08-23T14:20:37Z</time>
      </trkpt>
      <trkpt lat="48.69659" lon="1.89613">
        <ele>154.91</ele>
        <time>2015-08-23T14:20:55Z</time>
      </trkpt>
      <trkpt lat="48.6967" lon="1.89614">
        <ele>153.47</ele>
        <time>2015-08-23T14:21:08Z</time>
      </trkpt>
      <trkpt lat="48.69689" lon="1.89614">
        <ele>151.54</ele>
        <time>2015-08-23T14:21:24Z</time>
      </trkpt>
      <trkpt lat="48.69703" lon="1.89614">
        <ele>150.58</ele>
        <time>2015-08-23T14:21:38Z</time>
      </trkpt>
      <trkpt lat="48.69721" lon="1.89616">
        <ele>148.18</ele>
        <time>2015-08-23T14:21:55Z</time>
      </trkpt>
      <trkpt lat="48.69737" lon="1.89613">
        <ele>146.74</ele>
        <time>2015-08-23T14:22:10Z</time>
      </trkpt>
      <trkpt lat="48.69753" lon="1.89613">
        <ele>144.34</ele>
        <time>2015-08-23T14:22:29Z</time>
      </trkpt>
      <trkpt lat="48.69774" lon="1.89614">
        <ele>142.41</ele>
        <time>2015-08-23T14:22:48Z</time>
      </trkpt>
      <trkpt lat="48.6979" lon="1.89611">
        <ele>140.49</ele>
        <time>2015-08-23T14:23:03Z</time>
      </trkpt>
      <trkpt lat="48.69812" lon="1.89604">
        <ele>139.53</ele>
        <time>2015-08-23T14:23:22Z</time>
      </trkpt>
      <trkpt lat="48.69821" lon="1.89594">
        <ele>139.53</ele>
        <time>2015-08-23T14:23:38Z</time>
      </trkpt>
      <trkpt lat="48.69824" lon="1.8959">
        <ele>139.05</ele>
        <time>2015-08-23T14:23:43Z</time>
      </trkpt>
      <trkpt lat="48.69831" lon="1.89587">
        <ele>139.05</ele>
        <time>2015-08-23T14:23:50Z</time>
      </trkpt>
      <trkpt lat="48.69827" lon="1.89587">
        <ele>139.05</ele>
        <time>2015-08-23T14:24:00Z</time>
      </trkpt>
      <trkpt lat="48.69836" lon="1.89585">
        <ele>138.57</ele>
        <time>2015-08-23T14:24:07Z</time>
      </trkpt>
      <trkpt lat="48.69852" lon="1.89579">
        <ele>138.57</ele>
        <time>2015-08-23T14:24:24Z</time>
      </trkpt>
      <trkpt lat="48.69865" lon="1.89574">
        <ele>138.57</ele>
        <time>2015-08-23T14:24:39Z</time>
      </trkpt>
      <trkpt lat="48.69879" lon="1.89567">
        <ele>138.09</ele>
        <time>2015-08-23T14:24:55Z</time>
      </trkpt>
      <trkpt lat="48.69896" lon="1.89562">
        <ele>138.09</ele>
        <time>2015-08-23T14:25:11Z</time>
      </trkpt>
      <trkpt lat="48.69911" lon="1.89561">
        <ele>138.09</ele>
        <time>2015-08-23T14:25:25Z</time>
      </trkpt>
      <trkpt lat="48.69913" lon="1.89571">
        <ele>137.61</ele>
        <time>2015-08-23T14:25:37Z</time>
      </trkpt>
      <trkpt lat="48.69918" lon="1.8957">
        <ele>137.61</ele>
        <time>2015-08-23T14:25:54Z</time>
      </trkpt>
      <trkpt lat="48.69942" lon="1.89574">
        <ele>137.61</ele>
        <time>2015-08-23T14:26:11Z</time>
      </trkpt>
      <trkpt lat="48.69957" lon="1.8958">
        <ele>137.61</ele>
        <time>2015-08-23T14:26:24Z</time>
      </trkpt>
      <trkpt lat="48.6997" lon="1.89583">
        <ele>137.13</ele>
        <time>2015-08-23T14:26:41Z</time>
      </trkpt>
      <trkpt lat="48.69973" lon="1.89584">
        <ele>137.13</ele>
        <time>2015-08-23T14:26:44Z</time>
      </trkpt>
      <trkpt lat="48.69993" lon="1.89586">
        <ele>137.13</ele>
        <time>2015-08-23T14:27:01Z</time>
      </trkpt>
      <trkpt lat="48.69996" lon="1.89587">
        <ele>137.13</ele>
        <time>2015-08-23T14:27:04Z</time>
      </trkpt>
      <trkpt lat="48.70017" lon="1.89577">
        <ele>137.13</ele>
        <time>2015-08-23T14:27:23Z</time>
      </trkpt>
      <trkpt lat="48.70033" lon="1.89562">
        <ele>137.13</ele>
        <time>2015-08-23T14:27:40Z</time>
      </trkpt>
      <trkpt lat="48.70039" lon="1.89549">
        <ele>137.13</ele>
        <time>2015-08-23T14:27:56Z</time>
      </trkpt>
      <trkpt lat="48.70036" lon="1.89552">
        <ele>137.13</ele>
        <time>2015-08-23T14:28:16Z</time>
      </trkpt>
      <trkpt lat="48.70042" lon="1.89549">
        <ele>137.13</ele>
        <time>2015-08-23T14:28:37Z</time>
      </trkpt>
      <trkpt lat="48.70044" lon="1.89547">
        <ele>136.64</ele>
        <time>2015-08-23T14:28:55Z</time>
      </trkpt>
      <trkpt lat="48.70046" lon="1.89541">
        <ele>137.13</ele>
        <time>2015-08-23T14:29:07Z</time>
      </trkpt>
      <trkpt lat="48.70047" lon="1.89541">
        <ele>137.13</ele>
        <time>2015-08-23T14:29:33Z</time>
      </trkpt>
      <trkpt lat="48.70049" lon="1.89537">
        <ele>137.13</ele>
        <time>2015-08-23T14:29:52Z</time>
      </trkpt>
      <trkpt lat="48.70058" lon="1.89521">
        <ele>137.13</ele>
        <time>2015-08-23T14:30:08Z</time>
      </trkpt>
      <trkpt lat="48.70064" lon="1.89508">
        <ele>137.61</ele>
        <time>2015-08-23T14:30:20Z</time>
      </trkpt>
      <trkpt lat="48.70066" lon="1.89506">
        <ele>138.09</ele>
        <time>2015-08-23T14:30:33Z</time>
      </trkpt>
      <trkpt lat="48.70066" lon="1.89506">
        <ele>137.61</ele>
        <time>2015-08-23T14:30:52Z</time>
      </trkpt>
      <trkpt lat="48.70071" lon="1.89501">
        <ele>137.61</ele>
        <time>2015-08-23T14:31:08Z</time>
      </trkpt>
      <trkpt lat="48.70072" lon="1.89504">
        <ele>137.61</ele>
        <time>2015-08-23T14:31:25Z</time>
      </trkpt>
      <trkpt lat="48.70076" lon="1.89501">
        <ele>137.61</ele>
        <time>2015-08-23T14:31:41Z</time>
      </trkpt>
      <trkpt lat="48.70084" lon="1.89488">
        <ele>138.09</ele>
        <time>2015-08-23T14:31:51Z</time>
      </trkpt>
      <trkpt lat="48.70087" lon="1.89461">
        <ele>138.09</ele>
        <time>2015-08-23T14:32:09Z</time>
      </trkpt>
      <trkpt lat="48.70093" lon="1.89451">
        <ele>138.09</ele>
        <time>2015-08-23T14:32:21Z</time>
      </trkpt>
      <trkpt lat="48.70102" lon="1.89434">
        <ele>138.57</ele>
        <time>2015-08-23T14:32:36Z</time>
      </trkpt>
      <trkpt lat="48.70107" lon="1.8942">
        <ele>139.05</ele>
        <time>2015-08-23T14:32:45Z</time>
      </trkpt>
      <trkpt lat="48.7011" lon="1.89413">
        <ele>139.53</ele>
        <time>2015-08-23T14:32:51Z</time>
      </trkpt>
      <trkpt lat="48.70121" lon="1.89392">
        <ele>139.05</ele>
        <time>2015-08-23T14:33:08Z</time>
      </trkpt>
      <trkpt lat="48.70131" lon="1.89366">
        <ele>139.53</ele>
        <time>2015-08-23T14:33:25Z</time>
      </trkpt>
      <trkpt lat="48.70135" lon="1.89358">
        <ele>140.01</ele>
        <time>2015-08-23T14:33:32Z</time>
      </trkpt>
      <trkpt lat="48.70145" lon="1.89334">
        <ele>140.01</ele>
        <time>2015-08-23T14:33:48Z</time>
      </trkpt>
      <trkpt lat="48.70149" lon="1.89325">
        <ele>140.01</ele>
        <time>2015-08-23T14:33:55Z</time>
      </trkpt>
      <trkpt lat="48.70157" lon="1.89302">
        <ele>139.53</ele>
        <time>2015-08-23T14:34:12Z</time>
      </trkpt>
      <trkpt lat="48.70163" lon="1.89283">
        <ele>139.53</ele>
        <time>2015-08-23T14:34:24Z</time>
      </trkpt>
      <trkpt lat="48.70163" lon="1.89278">
        <ele>139.53</ele>
        <time>2015-08-23T14:34:27Z</time>
      </trkpt>
      <trkpt lat="48.70171" lon="1.89256">
        <ele>139.05</ele>
        <time>2015-08-23T14:34:42Z</time>
      </trkpt>
      <trkpt lat="48.70174" lon="1.89246">
        <ele>139.05</ele>
        <time>2015-08-23T14:34:49Z</time>
      </trkpt>
      <trkpt lat="48.70182" lon="1.89214">
        <ele>138.57</ele>
        <time>2015-08-23T14:35:08Z</time>
      </trkpt>
      <trkpt lat="48.70189" lon="1.8919">
        <ele>138.09</ele>
        <time>2015-08-23T14:35:23Z</time>
      </trkpt>
      <trkpt lat="48.70194" lon="1.89165">
        <ele>137.13</ele>
        <time>2015-08-23T14:35:38Z</time>
      </trkpt>
      <trkpt lat="48.70199" lon="1.89144">
        <ele>137.13</ele>
        <time>2015-08-23T14:35:50Z</time>
      </trkpt>
      <trkpt lat="48.70201" lon="1.89125">
        <ele>137.13</ele>
        <time>2015-08-23T14:36:03Z</time>
      </trkpt>
      <trkpt lat="48.70207" lon="1.89105">
        <ele>136.64</ele>
        <time>2015-08-23T14:36:19Z</time>
      </trkpt>
      <trkpt lat="48.70213" lon="1.89084">
        <ele>136.64</ele>
        <time>2015-08-23T14:36:32Z</time>
      </trkpt>
      <trkpt lat="48.70217" lon="1.89052">
        <ele>136.16</ele>
        <time>2015-08-23T14:36:50Z</time>
      </trkpt>
      <trkpt lat="48.70224" lon="1.89028">
        <ele>136.16</ele>
        <time>2015-08-23T14:37:05Z</time>
      </trkpt>
      <trkpt lat="48.70227" lon="1.89013">
        <ele>136.64</ele>
        <time>2015-08-23T14:37:18Z</time>
      </trkpt>
      <trkpt lat="48.70234" lon="1.88988">
        <ele>136.64</ele>
        <time>2015-08-23T14:37:35Z</time>
      </trkpt>
      <trkpt lat="48.7024" lon="1.8896">
        <ele>136.16</ele>
        <time>2015-08-23T14:37:51Z</time>
      </trkpt>
      <trkpt lat="48.7024" lon="1.88944">
        <ele>136.16</ele>
        <time>2015-08-23T14:38:03Z</time>
      </trkpt>
      <trkpt lat="48.70237" lon="1.88917">
        <ele>136.16</ele>
        <time>2015-08-23T14:38:17Z</time>
      </trkpt>
      <trkpt lat="48.70237" lon="1.88909">
        <ele>136.64</ele>
        <time>2015-08-23T14:38:21Z</time>
      </trkpt>
      <trkpt lat="48.70236" lon="1.88886">
        <ele>137.13</ele>
        <time>2015-08-23T14:38:35Z</time>
      </trkpt>
      <trkpt lat="48.70235" lon="1.88854">
        <ele>137.61</ele>
        <time>2015-08-23T14:38:53Z</time>
      </trkpt>
      <trkpt lat="48.70233" lon="1.88829">
        <ele>138.09</ele>
        <time>2015-08-23T14:39:08Z</time>
      </trkpt>
      <trkpt lat="48.70232" lon="1.88811">
        <ele>138.57</ele>
        <time>2015-08-23T14:39:23Z</time>
      </trkpt>
      <trkpt lat="48.70231" lon="1.88807">
        <ele>138.57</ele>
        <time>2015-08-23T14:39:25Z</time>
      </trkpt>
      <trkpt lat="48.70229" lon="1.88791">
        <ele>139.53</ele>
        <time>2015-08-23T14:39:34Z</time>
      </trkpt>
      <trkpt lat="48.70229" lon="1.88785">
        <ele>139.53</ele>
        <time>2015-08-23T14:39:37Z</time>
      </trkpt>
      <trkpt lat="48.70229" lon="1.88775">
        <ele>139.53</ele>
        <time>2015-08-23T14:39:43Z</time>
      </trkpt>
      <trkpt lat="48.70229" lon="1.88754">
        <ele>140.49</ele>
        <time>2015-08-23T14:39:56Z</time>
      </trkpt>
      <trkpt lat="48.7023" lon="1.88734">
        <ele>141.45</ele>
        <time>2015-08-23T14:40:09Z</time>
      </trkpt>
      <trkpt lat="48.7023" lon="1.88714">
        <ele>142.41</ele>
        <time>2015-08-23T14:40:22Z</time>
      </trkpt>
      <trkpt lat="48.7023" lon="1.88699">
        <ele>142.41</ele>
        <time>2015-08-23T14:40:33Z</time>
      </trkpt>
      <trkpt lat="48.70234" lon="1.88685">
        <ele>143.37</ele>
        <time>2015-08-23T14:40:43Z</time>
      </trkpt>
      <trkpt lat="48.70236" lon="1.88657">
        <ele>143.85</ele>
        <time>2015-08-23T14:40:59Z</time>
      </trkpt>
      <trkpt lat="48.70239" lon="1.88642">
        <ele>143.85</ele>
        <time>2015-08-23T14:41:09Z</time>
      </trkpt>
      <trkpt lat="48.70243" lon="1.8862">
        <ele>144.34</ele>
        <time>2015-08-23T14:41:23Z</time>
      </trkpt>
      <trkpt lat="48.70244" lon="1.88606">
        <ele>144.82</ele>
        <time>2015-08-23T14:41:30Z</time>
      </trkpt>
      <trkpt lat="48.70245" lon="1.88586">
        <ele>145.3</ele>
        <time>2015-08-23T14:41:42Z</time>
      </trkpt>
      <trkpt lat="48.70246" lon="1.88582">
        <ele>144.82</ele>
        <time>2015-08-23T14:41:45Z</time>
      </trkpt>
    </trkseg>
  </trk>
</gpx>